Darstellungsparameter: Aktuell verwendete Einstellungen:
Skalierung der Graphiken ... ?
xyx+y,   Skalierungsfaktor:      Skalierung: Modus: x, Faktor: 1
Darstellungszeitraum ... ?
Vom - - bis: - -   Zeitraum: 10.02.2014 - 09.08.2014
Min/Max/Avg-Anzeige ... ?
Zeige MMA aktuell
Zeige MMA Monat
Zeige MMA alles
Zeige --A aktuell
Zeige --A Monat
Zeige --A alles
Keine MMA-Anzeige
MMA:
Minimum Maximum Average (ber die Originaldaten)
MMA-Basis: 10.02.2014 - 09.08.2014
Quicknavigation für Darstellung... ?
Tage:      1T, 2T, 3T, 5T -1T -2T -3T -5T +1T +2T +3T +5T
Wochen: 1W, 2W, 3W -1W -2W -3W +1W +2W +3W
Monate: 1M, 3M, 6M -1M -3M -6M +1M +3M +6M
Jahre:    1J, 3J, 5J, 10J -1J -3J -5J -10J +1J +3J +5J +10J
Nutze für die Darstellung ... ?
Originaldaten oder Mittelwerte auf ...
Stundenbasis Tagesbasis Wochenbasis
Monatsbasis Jahresbasis      Datenbasis: Original-Daten
Darstellen als:
Statistik (Auto) Statistik J:M      Darstellung:
Zur Graphik,    zurück zur Übersicht aller Sensoren.
 
Tabellarische Datenbersicht: ?
 
Sensor: Nr:Datum:Temp:Feuchte:Taupunkt:
Aussen-T/F 1 10-02-2014 00:00:00 1.5 C 93 % 0.49 C
2 10-02-2014 00:05:00 1.5 C 93 % 0.49 C
3 10-02-2014 00:10:00 1.5 C 94 % 0.64 C
4 10-02-2014 00:15:00 1.6 C 94 % 0.74 C
5 10-02-2014 00:20:00 1.5 C 94 % 0.64 C
6 10-02-2014 00:25:00 1.4 C 93 % 0.4 C
7 10-02-2014 00:30:00 1.4 C 93 % 0.4 C
8 10-02-2014 00:35:00 1.3 C 94 % 0.44 C
9 10-02-2014 00:40:00 1.3 C 94 % 0.44 C
10 10-02-2014 00:45:00 1.3 C 94 % 0.44 C
11 10-02-2014 00:50:00 1.4 C 94 % 0.54 C
12 10-02-2014 00:55:00 1.4 C 94 % 0.54 C
13 10-02-2014 01:00:00 1.4 C 94 % 0.54 C
14 10-02-2014 01:05:00 1.4 C 94 % 0.54 C
15 10-02-2014 01:10:00 1.3 C 94 % 0.44 C
16 10-02-2014 01:15:00 1.2 C 94 % 0.34 C
17 10-02-2014 01:20:00 1.2 C 93 % 0.2 C
18 10-02-2014 01:25:00 1.2 C 94 % 0.34 C
19 10-02-2014 01:30:00 1.1 C 94 % 0.24 C
20 10-02-2014 01:35:00 1 C 94 % 0.15 C
21 10-02-2014 01:40:00 1 C 94 % 0.15 C
22 10-02-2014 01:45:00 1.1 C 94 % 0.24 C
23 10-02-2014 01:50:00 1.1 C 94 % 0.24 C
24 10-02-2014 01:55:00 1.1 C 94 % 0.24 C
25 10-02-2014 02:00:00 1 C 94 % 0.15 C
Sensor: Nr:Datum:Temp:Feuchte:Taupunkt:
Aussen-T/F 26 10-02-2014 02:05:00 0.9 C 94 % 0.05 C
27 10-02-2014 02:10:00 0.8 C 94 % -0.05 C
28 10-02-2014 02:15:00 0.8 C 94 % -0.05 C
29 10-02-2014 02:20:00 0.8 C 94 % -0.05 C
30 10-02-2014 02:25:00 0.8 C 94 % -0.05 C
31 10-02-2014 02:30:00 0.8 C 94 % -0.05 C
32 10-02-2014 02:35:00 0.9 C 95 % 0.19 C
33 10-02-2014 02:40:00 1.2 C 95 % 0.49 C
34 10-02-2014 02:45:00 1.6 C 95 % 0.89 C
35 10-02-2014 02:50:00 1.9 C 94 % 1.04 C
36 10-02-2014 02:55:00 2.3 C 93 % 1.29 C
37 10-02-2014 03:00:00 2.6 C 92 % 1.43 C
38 10-02-2014 03:05:00 2.8 C 90 % 1.33 C
39 10-02-2014 03:10:00 2.9 C 89 % 1.27 C
40 10-02-2014 03:15:00 3 C 89 % 1.37 C
41 10-02-2014 03:20:00 3 C 89 % 1.37 C
42 10-02-2014 03:25:00 3 C 88 % 1.21 C
43 10-02-2014 03:30:00 3 C 88 % 1.21 C
44 10-02-2014 03:35:00 2.9 C 88 % 1.11 C
45 10-02-2014 03:40:00 2.8 C 88 % 1.02 C
46 10-02-2014 03:45:00 2.8 C 89 % 1.17 C
47 10-02-2014 03:50:00 2.7 C 88 % 0.92 C
48 10-02-2014 03:55:00 2.6 C 89 % 0.97 C
49 10-02-2014 04:00:00 2.4 C 89 % 0.78 C
50 10-02-2014 04:05:00 2.2 C 89 % 0.58 C
Sensor: Nr:Datum:Temp:Feuchte:Taupunkt:
Aussen-T/F 51 10-02-2014 04:10:00 1.9 C 89 % 0.28 C
52 10-02-2014 04:15:00 1.7 C 90 % 0.24 C
53 10-02-2014 04:20:00 1.5 C 91 % 0.19 C
54 10-02-2014 04:25:00 1.3 C 92 % 0.15 C
55 10-02-2014 04:30:00 1.2 C 92 % 0.05 C
56 10-02-2014 04:35:00 1.2 C 93 % 0.2 C
57 10-02-2014 04:40:00 1.2 C 93 % 0.2 C
58 10-02-2014 04:45:00 1.2 C 93 % 0.2 C
59 10-02-2014 04:50:00 1.2 C 93 % 0.2 C
60 10-02-2014 04:55:00 1.1 C 93 % 0.1 C
61 10-02-2014 05:00:00 1.1 C 93 % 0.1 C
62 10-02-2014 05:05:00 1.1 C 94 % 0.24 C
63 10-02-2014 05:10:00 1.2 C 94 % 0.34 C
64 10-02-2014 05:15:00 1.3 C 94 % 0.44 C
65 10-02-2014 05:20:00 1.3 C 93 % 0.3 C
66 10-02-2014 05:25:00 1.4 C 94 % 0.54 C
67 10-02-2014 05:30:00 1.6 C 93 % 0.59 C
68 10-02-2014 05:35:00 1.9 C 93 % 0.89 C
69 10-02-2014 05:40:00 2.3 C 92 % 1.14 C
70 10-02-2014 05:45:00 2.6 C 90 % 1.13 C
71 10-02-2014 05:50:00 2.7 C 89 % 1.07 C
72 10-02-2014 05:55:00 2.8 C 88 % 1.02 C
73 10-02-2014 06:00:00 2.9 C 87 % 0.96 C
74 10-02-2014 06:05:00 3 C 87 % 1.05 C
75 10-02-2014 06:10:00 3.1 C 86 % 0.99 C
Sensor: Nr:Datum:Temp:Feuchte:Taupunkt:
Aussen-T/F 76 10-02-2014 06:15:00 3.1 C 86 % 0.99 C
77 10-02-2014 06:20:00 3.2 C 85 % 0.93 C
78 10-02-2014 06:25:00 3.3 C 85 % 1.03 C
79 10-02-2014 06:30:00 3.2 C 85 % 0.93 C
80 10-02-2014 06:35:00 3.2 C 85 % 0.93 C
81 10-02-2014 06:40:00 3.2 C 85 % 0.93 C
82 10-02-2014 06:45:00 3.1 C 86 % 0.99 C
83 10-02-2014 06:50:00 2.8 C 87 % 0.86 C
84 10-02-2014 06:55:00 2.6 C 88 % 0.82 C
85 10-02-2014 07:00:00 2.6 C 88 % 0.82 C
86 10-02-2014 07:05:00 2.4 C 89 % 0.78 C
87 10-02-2014 07:10:00 2.3 C 89 % 0.68 C
88 10-02-2014 07:15:00 2.3 C 89 % 0.68 C
89 10-02-2014 07:20:00 2.2 C 90 % 0.73 C
90 10-02-2014 07:25:00 2.2 C 90 % 0.73 C
91 10-02-2014 07:30:00 2.2 C 90 % 0.73 C
92 10-02-2014 07:35:00 2.2 C 90 % 0.73 C
93 10-02-2014 07:40:00 2.2 C 90 % 0.73 C
94 10-02-2014 07:45:00 2.1 C 90 % 0.64 C
95 10-02-2014 07:50:00 2.1 C 90 % 0.64 C
96 10-02-2014 07:55:00 2.1 C 90 % 0.64 C
97 10-02-2014 08:00:00 2.1 C 90 % 0.64 C
98 10-02-2014 08:05:00 2.1 C 90 % 0.64 C
99 10-02-2014 08:10:00 1.9 C 90 % 0.44 C
100 10-02-2014 08:15:00 1.9 C 91 % 0.59 C
Sensor: Nr:Datum:Temp:Feuchte:Taupunkt:
Aussen-T/F 101 10-02-2014 08:20:00 1.8 C 91 % 0.49 C
102 10-02-2014 08:25:00 1.8 C 91 % 0.49 C
103 10-02-2014 08:30:00 1.8 C 92 % 0.64 C
104 10-02-2014 08:35:00 1.9 C 92 % 0.74 C
105 10-02-2014 08:40:00 1.9 C 92 % 0.74 C
106 10-02-2014 08:45:00 1.9 C 92 % 0.74 C
107 10-02-2014 08:50:00 1.9 C 92 % 0.74 C
108 10-02-2014 08:55:00 2 C 92 % 0.84 C
109 10-02-2014 09:00:00 2.1 C 92 % 0.94 C
110 10-02-2014 09:05:00 2.1 C 92 % 0.94 C
111 10-02-2014 09:10:00 2.2 C 92 % 1.04 C
112 10-02-2014 09:15:00 2.2 C 92 % 1.04 C
113 10-02-2014 09:20:00 2.3 C 91 % 0.99 C
114 10-02-2014 09:25:00 2.3 C 91 % 0.99 C
115 10-02-2014 09:30:00 2.3 C 91 % 0.99 C
116 10-02-2014 09:35:00 2.4 C 91 % 1.08 C
117 10-02-2014 09:40:00 2.4 C 91 % 1.08 C
118 10-02-2014 09:45:00 2.4 C 91 % 1.08 C
119 10-02-2014 09:50:00 2.5 C 91 % 1.18 C
120 10-02-2014 09:55:00 2.6 C 90 % 1.13 C
121 10-02-2014 10:00:00 2.8 C 90 % 1.33 C
122 10-02-2014 10:05:00 2.9 C 89 % 1.27 C
123 10-02-2014 10:10:00 3.1 C 89 % 1.47 C
124 10-02-2014 10:15:00 3.2 C 87 % 1.25 C
125 10-02-2014 10:20:00 3.4 C 86 % 1.29 C
Sensor: Nr:Datum:Temp:Feuchte:Taupunkt:
Aussen-T/F 126 10-02-2014 10:25:00 3.6 C 85 % 1.32 C
127 10-02-2014 10:30:00 3.8 C 84 % 1.35 C
128 10-02-2014 10:35:00 4.1 C 84 % 1.65 C
129 10-02-2014 10:40:00 4.3 C 83 % 1.67 C
130 10-02-2014 10:45:00 4.6 C 81 % 1.63 C
131 10-02-2014 10:50:00 4.8 C 80 % 1.65 C
132 10-02-2014 10:55:00 5.1 C 79 % 1.77 C
133 10-02-2014 11:00:00 5.2 C 78 % 1.69 C
134 10-02-2014 11:05:00 5.4 C 77 % 1.7 C
135 10-02-2014 11:10:00 5.6 C 76 % 1.71 C
136 10-02-2014 11:15:00 5.8 C 75 % 1.72 C
137 10-02-2014 11:20:00 5.9 C 74 % 1.63 C
138 10-02-2014 11:25:00 6.1 C 74 % 1.82 C
139 10-02-2014 11:30:00 6.1 C 72 % 1.44 C
140 10-02-2014 11:35:00 6.2 C 72 % 1.54 C
141 10-02-2014 11:40:00 6.3 C 72 % 1.63 C
142 10-02-2014 11:45:00 6.3 C 70 % 1.24 C
143 10-02-2014 11:50:00 6.3 C 70 % 1.24 C
144 10-02-2014 11:55:00 6.3 C 69 % 1.04 C
145 10-02-2014 12:00:00 6.4 C 68 % 0.94 C
146 10-02-2014 12:05:00 6.4 C 67 % 0.73 C
147 10-02-2014 12:10:00 6.4 C 67 % 0.73 C
148 10-02-2014 12:15:00 6.4 C 68 % 0.94 C
149 10-02-2014 12:20:00 6.5 C 65 % 0.41 C
150 10-02-2014 12:25:00 6.5 C 66 % 0.62 C
Sensor: Nr:Datum:Temp:Feuchte:Taupunkt:
Aussen-T/F 151 10-02-2014 12:30:00 6.5 C 65 % 0.41 C
152 10-02-2014 12:35:00 6.5 C 64 % 0.19 C
153 10-02-2014 12:40:00 6.6 C 64 % 0.29 C
154 10-02-2014 12:45:00 6.6 C 65 % 0.5 C
155 10-02-2014 12:50:00 6.6 C 64 % 0.29 C
156 10-02-2014 12:55:00 6.6 C 65 % 0.5 C
157 10-02-2014 13:00:00 6.6 C 64 % 0.29 C
158 10-02-2014 13:05:00 6.7 C 64 % 0.38 C
159 10-02-2014 13:10:00 6.7 C 64 % 0.38 C
160 10-02-2014 13:15:00 6.7 C 65 % 0.6 C
161 10-02-2014 13:20:00 6.7 C 63 % 0.17 C
162 10-02-2014 13:25:00 6.6 C 65 % 0.5 C
163 10-02-2014 13:30:00 6.6 C 64 % 0.29 C
164 10-02-2014 13:35:00 6.6 C 64 % 0.29 C
165 10-02-2014 13:40:00 6.7 C 64 % 0.38 C
166 10-02-2014 13:45:00 6.7 C 64 % 0.38 C
167 10-02-2014 13:50:00 6.7 C 63 % 0.17 C
168 10-02-2014 13:55:00 6.7 C 64 % 0.38 C
169 10-02-2014 14:00:00 6.7 C 64 % 0.38 C
170 10-02-2014 14:05:00 6.7 C 64 % 0.38 C
171 10-02-2014 14:10:00 6.8 C 64 % 0.48 C
172 10-02-2014 14:15:00 6.8 C 64 % 0.48 C
173 10-02-2014 14:20:00 6.8 C 64 % 0.48 C
174 10-02-2014 14:25:00 6.8 C 64 % 0.48 C
175 10-02-2014 14:30:00 6.8 C 63 % 0.26 C
Sensor: Nr:Datum:Temp:Feuchte:Taupunkt:
Aussen-T/F 176 10-02-2014 14:35:00 6.8 C 65 % 0.69 C
177 10-02-2014 14:40:00 6.8 C 64 % 0.48 C
178 10-02-2014 14:45:00 6.8 C 64 % 0.48 C
179 10-02-2014 14:50:00 6.8 C 65 % 0.69 C
180 10-02-2014 14:55:00 6.8 C 65 % 0.69 C
181 10-02-2014 15:00:00 6.8 C 65 % 0.69 C
182 10-02-2014 15:05:00 6.7 C 67 % 1.02 C
183 10-02-2014 15:10:00 6.6 C 69 % 1.33 C
184 10-02-2014 15:15:00 6.4 C 70 % 1.34 C
185 10-02-2014 15:20:00 6.3 C 71 % 1.44 C
186 10-02-2014 15:25:00 6.1 C 73 % 1.63 C
187 10-02-2014 15:30:00 5.9 C 75 % 1.82 C
188 10-02-2014 15:35:00 5.8 C 78 % 2.27 C
189 10-02-2014 15:40:00 5.6 C 79 % 2.25 C
190 10-02-2014 15:45:00 5.5 C 82 % 2.68 C
191 10-02-2014 15:50:00 5.3 C 84 % 2.82 C
192 10-02-2014 15:55:00 5.2 C 85 % 2.89 C
193 10-02-2014 16:00:00 5.1 C 85 % 2.79 C
194 10-02-2014 16:05:00 5 C 87 % 3.02 C
195 10-02-2014 16:10:00 4.9 C 88 % 3.08 C
196 10-02-2014 16:15:00 4.7 C 89 % 3.05 C
197 10-02-2014 16:20:00 4.6 C 90 % 3.1 C
198 10-02-2014 16:25:00 4.5 C 91 % 3.16 C
199 10-02-2014 16:30:00 4.4 C 91 % 3.06 C
200 10-02-2014 16:35:00 4.3 C 91 % 2.96 C
Sensor: Nr:Datum:Temp:Feuchte:Taupunkt:
Aussen-T/F 201 10-02-2014 16:40:00 4.2 C 92 % 3.02 C
202 10-02-2014 16:45:00 4.2 C 92 % 3.02 C
203 10-02-2014 16:50:00 4.1 C 92 % 2.92 C
204 10-02-2014 16:55:00 4 C 92 % 2.82 C
205 10-02-2014 17:00:00 4 C 92 % 2.82 C
206 10-02-2014 17:05:00 3.9 C 93 % 2.87 C
207 10-02-2014 17:10:00 3.9 C 93 % 2.87 C
208 10-02-2014 17:15:00 3.9 C 93 % 2.87 C
209 10-02-2014 17:20:00 3.8 C 93 % 2.77 C
210 10-02-2014 17:25:00 3.8 C 94 % 2.93 C
211 10-02-2014 17:30:00 3.8 C 94 % 2.93 C
212 10-02-2014 17:35:00 3.7 C 94 % 2.83 C
213 10-02-2014 17:40:00 3.7 C 94 % 2.83 C
214 10-02-2014 17:45:00 3.6 C 94 % 2.73 C
215 10-02-2014 17:50:00 3.6 C 95 % 2.88 C
216 10-02-2014 17:55:00 3.6 C 95 % 2.88 C
217 10-02-2014 18:00:00 3.6 C 95 % 2.88 C
218 10-02-2014 18:05:00 3.6 C 95 % 2.88 C
219 10-02-2014 18:10:00 3.6 C 95 % 2.88 C
220 10-02-2014 18:15:00 3.6 C 95 % 2.88 C
221 10-02-2014 18:20:00 3.5 C 95 % 2.78 C
222 10-02-2014 18:25:00 3.5 C 95 % 2.78 C
223 10-02-2014 18:30:00 3.5 C 95 % 2.78 C
224 10-02-2014 18:35:00 3.4 C 95 % 2.68 C
225 10-02-2014 18:40:00 3.4 C 95 % 2.68 C
Sensor: Nr:Datum:Temp:Feuchte:Taupunkt:
Aussen-T/F 226 10-02-2014 18:45:00 3.4 C 95 % 2.68 C
227 10-02-2014 18:50:00 3.4 C 95 % 2.68 C
228 10-02-2014 18:55:00 3.3 C 95 % 2.58 C
229 10-02-2014 19:00:00 3.3 C 95 % 2.58 C
230 10-02-2014 19:05:00 3.3 C 95 % 2.58 C
231 10-02-2014 19:10:00 3.3 C 95 % 2.58 C
232 10-02-2014 19:15:00 3.3 C 95 % 2.58 C
233 10-02-2014 19:20:00 3.3 C 95 % 2.58 C
234 10-02-2014 19:25:00 3.3 C 95 % 2.58 C
235 10-02-2014 19:30:00 3.3 C 95 % 2.58 C
236 10-02-2014 19:35:00 3.3 C 96 % 2.72 C
237 10-02-2014 19:40:00 3.3 C 96 % 2.72 C
238 10-02-2014 19:45:00 3.3 C 96 % 2.72 C
239 10-02-2014 19:50:00 3.3 C 96 % 2.72 C
240 10-02-2014 19:55:00 3.3 C 96 % 2.72 C
241 10-02-2014 20:00:00 3.3 C 96 % 2.72 C
242 10-02-2014 20:05:00 3.3 C 96 % 2.72 C
243 10-02-2014 20:10:00 3.3 C 96 % 2.72 C
244 10-02-2014 20:15:00 3.3 C 96 % 2.72 C
245 10-02-2014 20:20:00 3.3 C 96 % 2.72 C
246 10-02-2014 20:25:00 3.3 C 96 % 2.72 C
247 10-02-2014 20:30:00 3.2 C 96 % 2.63 C
248 10-02-2014 20:35:00 3.1 C 95 % 2.38 C
249 10-02-2014 20:40:00 3 C 95 % 2.28 C
250 10-02-2014 20:45:00 2.9 C 96 % 2.33 C
Sensor: Nr:Datum:Temp:Feuchte:Taupunkt:
Aussen-T/F 251 10-02-2014 20:50:00 2.9 C 96 % 2.33 C
252 10-02-2014 20:55:00 2.8 C 95 % 2.08 C
253 10-02-2014 21:00:00 2.8 C 95 % 2.08 C
254 10-02-2014 21:05:00 2.7 C 95 % 1.98 C
255 10-02-2014 21:10:00 2.7 C 95 % 1.98 C
256 10-02-2014 21:15:00 2.6 C 95 % 1.88 C
257 10-02-2014 21:20:00 2.6 C 95 % 1.88 C
258 10-02-2014 21:25:00 2.6 C 95 % 1.88 C
259 10-02-2014 21:30:00 2.6 C 95 % 1.88 C
260 10-02-2014 21:35:00 2.6 C 95 % 1.88 C
261 10-02-2014 21:40:00 2.6 C 95 % 1.88 C
262 10-02-2014 21:45:00 2.6 C 95 % 1.88 C
263 10-02-2014 21:50:00 2.6 C 95 % 1.88 C
264 10-02-2014 21:55:00 2.6 C 95 % 1.88 C
265 10-02-2014 22:00:00 2.6 C 96 % 2.03 C
266 10-02-2014 22:05:00 2.6 C 95 % 1.88 C
267 10-02-2014 22:10:00 2.6 C 95 % 1.88 C
268 10-02-2014 22:15:00 2.6 C 95 % 1.88 C
269 10-02-2014 22:20:00 2.6 C 95 % 1.88 C
270 10-02-2014 22:25:00 2.6 C 96 % 2.03 C
271 10-02-2014 22:30:00 2.6 C 96 % 2.03 C
272 10-02-2014 22:35:00 2.6 C 95 % 1.88 C
273 10-02-2014 22:40:00 2.6 C 95 % 1.88 C
274 10-02-2014 22:45:00 2.7 C 95 % 1.98 C
275 10-02-2014 22:50:00 2.7 C 95 % 1.98 C
Sensor: Nr:Datum:Temp:Feuchte:Taupunkt:
Aussen-T/F 276 10-02-2014 22:55:00 2.8 C 95 % 2.08 C
277 10-02-2014 23:00:00 2.8 C 95 % 2.08 C
278 10-02-2014 23:05:00 2.9 C 95 % 2.18 C
279 10-02-2014 23:10:00 2.9 C 95 % 2.18 C
280 10-02-2014 23:15:00 2.8 C 94 % 1.93 C
281 10-02-2014 23:20:00 2.8 C 95 % 2.08 C
282 10-02-2014 23:25:00 2.7 C 94 % 1.83 C
283 10-02-2014 23:30:00 2.7 C 95 % 1.98 C
284 10-02-2014 23:35:00 2.6 C 95 % 1.88 C
285 10-02-2014 23:40:00 2.6 C 95 % 1.88 C
286 10-02-2014 23:45:00 2.6 C 95 % 1.88 C
287 10-02-2014 23:50:00 2.6 C 95 % 1.88 C
288 10-02-2014 23:55:00 2.5 C 95 % 1.78 C
289 11-02-2014 00:00:00 2.7 C 95 % 1.98 C
290 11-02-2014 00:05:00 2.8 C 96 % 2.23 C
291 11-02-2014 00:10:00 2.9 C 95 % 2.18 C
292 11-02-2014 00:15:00 3 C 95 % 2.28 C
293 11-02-2014 00:20:00 2.9 C 95 % 2.18 C
294 11-02-2014 00:25:00 2.9 C 95 % 2.18 C
295 11-02-2014 00:30:00 2.9 C 95 % 2.18 C
296 11-02-2014 00:35:00 3.1 C 95 % 2.38 C
297 11-02-2014 00:40:00 3.2 C 95 % 2.48 C
298 11-02-2014 00:45:00 3.1 C 95 % 2.38 C
299 11-02-2014 00:50:00 2.9 C 95 % 2.18 C
300 11-02-2014 00:55:00 3 C 95 % 2.28 C
Sensor: Nr:Datum:Temp:Feuchte:Taupunkt:
Aussen-T/F 301 11-02-2014 01:00:00 3.1 C 94 % 2.23 C
302 11-02-2014 01:05:00 3.2 C 94 % 2.33 C
303 11-02-2014 01:10:00 3.3 C 93 % 2.28 C
304 11-02-2014 01:15:00 3.3 C 93 % 2.28 C
305 11-02-2014 01:20:00 3.4 C 92 % 2.23 C
306 11-02-2014 01:25:00 3.6 C 92 % 2.42 C
307 11-02-2014 01:30:00 3.7 C 92 % 2.52 C
308 11-02-2014 01:35:00 3.8 C 91 % 2.47 C
309 11-02-2014 01:40:00 3.9 C 91 % 2.57 C
310 11-02-2014 01:45:00 4 C 91 % 2.67 C
311 11-02-2014 01:50:00 4.2 C 90 % 2.71 C
312 11-02-2014 01:55:00 4.2 C 89 % 2.55 C
313 11-02-2014 02:00:00 4.2 C 89 % 2.55 C
314 11-02-2014 02:05:00 4.1 C 90 % 2.61 C
315 11-02-2014 02:10:00 4.1 C 89 % 2.45 C
316 11-02-2014 02:15:00 4.1 C 89 % 2.45 C
317 11-02-2014 02:20:00 4.1 C 90 % 2.61 C
318 11-02-2014 02:25:00 4.2 C 90 % 2.71 C
319 11-02-2014 02:30:00 4.2 C 90 % 2.71 C
320 11-02-2014 02:35:00 4.2 C 90 % 2.71 C
321 11-02-2014 02:40:00 4.1 C 91 % 2.77 C
322 11-02-2014 02:45:00 4 C 91 % 2.67 C
323 11-02-2014 02:50:00 4 C 91 % 2.67 C
324 11-02-2014 02:55:00 4 C 91 % 2.67 C
325 11-02-2014 03:00:00 4.1 C 91 % 2.77 C
Sensor: Nr:Datum:Temp:Feuchte:Taupunkt:
Aussen-T/F 326 11-02-2014 03:05:00 4.1 C 91 % 2.77 C
327 11-02-2014 03:10:00 4.1 C 91 % 2.77 C
328 11-02-2014 03:15:00 4.1 C 90 % 2.61 C
329 11-02-2014 03:20:00 4 C 90 % 2.51 C
330 11-02-2014 03:25:00 3.9 C 91 % 2.57 C
331 11-02-2014 03:30:00 3.8 C 91 % 2.47 C
332 11-02-2014 03:35:00 3.7 C 91 % 2.37 C
333 11-02-2014 03:40:00 3.7 C 92 % 2.52 C
334 11-02-2014 03:45:00 3.6 C 92 % 2.42 C
335 11-02-2014 03:50:00 3.7 C 92 % 2.52 C
336 11-02-2014 03:55:00 3.7 C 92 % 2.52 C
337 11-02-2014 04:00:00 3.6 C 91 % 2.27 C
338 11-02-2014 04:05:00 3.6 C 92 % 2.42 C
339 11-02-2014 04:10:00 3.6 C 92 % 2.42 C
340 11-02-2014 04:15:00 3.7 C 92 % 2.52 C
341 11-02-2014 04:20:00 3.8 C 92 % 2.62 C
342 11-02-2014 04:25:00 4.1 C 91 % 2.77 C
343 11-02-2014 04:30:00 4.2 C 91 % 2.87 C
344 11-02-2014 04:35:00 4.3 C 91 % 2.96 C
345 11-02-2014 04:40:00 4.3 C 90 % 2.81 C
346 11-02-2014 04:45:00 4.3 C 90 % 2.81 C
347 11-02-2014 04:50:00 4.3 C 90 % 2.81 C
348 11-02-2014 04:55:00 4.1 C 90 % 2.61 C
349 11-02-2014 05:00:00 3.8 C 91 % 2.47 C
350 11-02-2014 05:05:00 3.7 C 91 % 2.37 C
Sensor: Nr:Datum:Temp:Feuchte:Taupunkt:
Aussen-T/F 351 11-02-2014 05:10:00 3.7 C 92 % 2.52 C
352 11-02-2014 05:15:00 3.8 C 92 % 2.62 C
353 11-02-2014 05:20:00 3.9 C 91 % 2.57 C
354 11-02-2014 05:25:00 3.7 C 91 % 2.37 C
355 11-02-2014 05:30:00 3.7 C 92 % 2.52 C
356 11-02-2014 05:35:00 4.1 C 91 % 2.77 C
357 11-02-2014 05:40:00 4.1 C 91 % 2.77 C
358 11-02-2014 05:45:00 3.9 C 91 % 2.57 C
359 11-02-2014 05:50:00 3.9 C 92 % 2.72 C
360 11-02-2014 05:55:00 4.1 C 92 % 2.92 C
361 11-02-2014 06:00:00 4.2 C 92 % 3.02 C
362 11-02-2014 06:05:00 4.3 C 91 % 2.96 C
363 11-02-2014 06:10:00 4.4 C 91 % 3.06 C
364 11-02-2014 06:15:00 4.5 C 91 % 3.16 C
365 11-02-2014 06:20:00 4.7 C 89 % 3.05 C
366 11-02-2014 06:25:00 4.9 C 88 % 3.08 C
367 11-02-2014 06:30:00 4.9 C 88 % 3.08 C
368 11-02-2014 06:35:00 5 C 88 % 3.18 C
369 11-02-2014 06:40:00 4.9 C 87 % 2.92 C
370 11-02-2014 06:45:00 5.1 C 87 % 3.12 C
371 11-02-2014 06:50:00 5.2 C 86 % 3.05 C
372 11-02-2014 06:55:00 5.3 C 86 % 3.15 C
373 11-02-2014 07:00:00 5.3 C 86 % 3.15 C
374 11-02-2014 07:05:00 5.3 C 86 % 3.15 C
375 11-02-2014 07:10:00 5.3 C 86 % 3.15 C
Sensor: Nr:Datum:Temp:Feuchte:Taupunkt:
Aussen-T/F 376 11-02-2014 07:15:00 5.4 C 85 % 3.09 C
377 11-02-2014 07:20:00 5.4 C 85 % 3.09 C
378 11-02-2014 07:25:00 5.4 C 85 % 3.09 C
379 11-02-2014 07:30:00 5.3 C 85 % 2.99 C
380 11-02-2014 07:35:00 5.2 C 85 % 2.89 C
381 11-02-2014 07:40:00 5.3 C 85 % 2.99 C
382 11-02-2014 07:45:00 5.3 C 85 % 2.99 C
383 11-02-2014 07:50:00 5.4 C 85 % 3.09 C
384 11-02-2014 07:55:00 5.3 C 86 % 3.15 C
385 11-02-2014 08:00:00 5.2 C 85 % 2.89 C
386 11-02-2014 08:05:00 5.3 C 85 % 2.99 C
387 11-02-2014 08:10:00 5.2 C 84 % 2.72 C
388 11-02-2014 08:15:00 5.2 C 85 % 2.89 C
389 11-02-2014 08:20:00 5.1 C 85 % 2.79 C
390 11-02-2014 08:25:00 5.3 C 84 % 2.82 C
391 11-02-2014 08:30:00 5.5 C 82 % 2.68 C
392 11-02-2014 08:35:00 5.6 C 82 % 2.78 C
393 11-02-2014 08:40:00 5.6 C 82 % 2.78 C
394 11-02-2014 08:45:00 5.7 C 81 % 2.7 C
395 11-02-2014 08:50:00 5.7 C 81 % 2.7 C
396 11-02-2014 08:55:00 5.7 C 81 % 2.7 C
397 11-02-2014 09:00:00 5.6 C 81 % 2.6 C
398 11-02-2014 09:05:00 5.7 C 80 % 2.53 C
399 11-02-2014 09:10:00 5.7 C 79 % 2.35 C
400 11-02-2014 09:15:00 5.7 C 79 % 2.35 C
Sensor: Nr:Datum:Temp:Feuchte:Taupunkt:
Aussen-T/F 401 11-02-2014 09:20:00 5.7 C 79 % 2.35 C
402 11-02-2014 09:25:00 5.7 C 80 % 2.53 C
403 11-02-2014 09:30:00 5.7 C 79 % 2.35 C
404 11-02-2014 09:35:00 5.7 C 79 % 2.35 C
405 11-02-2014 09:40:00 5.7 C 79 % 2.35 C
406 11-02-2014 09:45:00 5.7 C 79 % 2.35 C
407 11-02-2014 09:50:00 5.7 C 79 % 2.35 C
408 11-02-2014 09:55:00 5.7 C 79 % 2.35 C
409 11-02-2014 10:00:00 5.7 C 80 % 2.53 C
410 11-02-2014 10:05:00 5.7 C 81 % 2.7 C
411 11-02-2014 10:10:00 5.8 C 80 % 2.62 C
412 11-02-2014 10:15:00 5.9 C 80 % 2.72 C
413 11-02-2014 10:20:00 5.9 C 80 % 2.72 C
414 11-02-2014 10:25:00 6 C 80 % 2.82 C
415 11-02-2014 10:30:00 6 C 81 % 2.99 C
416 11-02-2014 10:35:00 6 C 81 % 2.99 C
417 11-02-2014 10:40:00 6 C 81 % 2.99 C
418 11-02-2014 10:45:00 6.1 C 81 % 3.09 C
419 11-02-2014 10:50:00 6.1 C 82 % 3.26 C
420 11-02-2014 10:55:00 6.1 C 82 % 3.26 C
421 11-02-2014 11:00:00 6.1 C 82 % 3.26 C
422 11-02-2014 11:05:00 6.2 C 81 % 3.19 C
423 11-02-2014 11:10:00 6.2 C 82 % 3.36 C
424 11-02-2014 11:15:00 6.3 C 82 % 3.46 C
425 11-02-2014 11:20:00 6.4 C 82 % 3.56 C
Sensor: Nr:Datum:Temp:Feuchte:Taupunkt:
Aussen-T/F 426 11-02-2014 11:25:00 6.5 C 82 % 3.66 C
427 11-02-2014 11:30:00 6.6 C 81 % 3.58 C
428 11-02-2014 11:35:00 6.6 C 81 % 3.58 C
429 11-02-2014 11:40:00 6.6 C 81 % 3.58 C
430 11-02-2014 11:45:00 6.6 C 80 % 3.4 C
431 11-02-2014 11:50:00 6.6 C 79 % 3.23 C
432 11-02-2014 11:55:00 6.5 C 79 % 3.13 C
433 11-02-2014 12:00:00 6.4 C 79 % 3.03 C
434 11-02-2014 12:05:00 6.4 C 79 % 3.03 C
435 11-02-2014 12:10:00 6.5 C 79 % 3.13 C
436 11-02-2014 12:15:00 6.6 C 78 % 3.05 C
437 11-02-2014 12:20:00 6.5 C 78 % 2.95 C
438 11-02-2014 12:25:00 6.5 C 78 % 2.95 C
439 11-02-2014 12:30:00 6.6 C 78 % 3.05 C
440 11-02-2014 12:35:00 6.6 C 78 % 3.05 C
441 11-02-2014 12:40:00 6.7 C 78 % 3.14 C
442 11-02-2014 12:45:00 6.8 C 77 % 3.06 C
443 11-02-2014 12:50:00 6.9 C 76 % 2.97 C
444 11-02-2014 12:55:00 6.9 C 76 % 2.97 C
445 11-02-2014 13:00:00 7 C 76 % 3.07 C
446 11-02-2014 13:05:00 7.1 C 75 % 2.98 C
447 11-02-2014 13:10:00 7.1 C 74 % 2.79 C
448 11-02-2014 13:15:00 7.1 C 73 % 2.6 C
449 11-02-2014 13:20:00 7.2 C 75 % 3.07 C
450 11-02-2014 13:25:00 7.2 C 74 % 2.89 C
Sensor: Nr:Datum:Temp:Feuchte:Taupunkt:
Aussen-T/F 451 11-02-2014 13:30:00 7.4 C 74 % 3.08 C
452 11-02-2014 13:35:00 7.4 C 73 % 2.89 C
453 11-02-2014 13:40:00 7.5 C 73 % 2.98 C
454 11-02-2014 13:45:00 7.6 C 72 % 2.88 C
455 11-02-2014 13:50:00 7.6 C 73 % 3.08 C
456 11-02-2014 13:55:00 7.6 C 73 % 3.08 C
457 11-02-2014 14:00:00 7.6 C 72 % 2.88 C
458 11-02-2014 14:05:00 7.7 C 71 % 2.78 C
459 11-02-2014 14:10:00 7.8 C 71 % 2.88 C
460 11-02-2014 14:15:00 7.9 C 69 % 2.57 C
461 11-02-2014 14:20:00 7.8 C 71 % 2.88 C
462 11-02-2014 14:25:00 7.9 C 71 % 2.98 C
463 11-02-2014 14:30:00 8.1 C 69 % 2.77 C
464 11-02-2014 14:35:00 8.1 C 69 % 2.77 C
465 11-02-2014 14:40:00 8.2 C 67 % 2.45 C
466 11-02-2014 14:45:00 8.3 C 66 % 2.33 C
467 11-02-2014 14:50:00 8.2 C 65 % 2.02 C
468 11-02-2014 14:55:00 8.2 C 64 % 1.81 C
469 11-02-2014 15:00:00 8.3 C 66 % 2.33 C
470 11-02-2014 15:05:00 8.4 C 66 % 2.43 C
471 11-02-2014 15:10:00 8.6 C 65 % 2.4 C
472 11-02-2014 15:15:00 8.5 C 65 % 2.31 C
473 11-02-2014 15:20:00 8.4 C 64 % 2 C
474 11-02-2014 15:25:00 8.4 C 65 % 2.21 C
475 11-02-2014 15:30:00 8.4 C 64 % 2 C
Sensor: Nr:Datum:Temp:Feuchte:Taupunkt:
Aussen-T/F 476 11-02-2014 15:35:00 8.5 C 65 % 2.31 C
477 11-02-2014 15:40:00 8.4 C 65 % 2.21 C
478 11-02-2014 15:45:00 8.3 C 64 % 1.9 C
479 11-02-2014 15:50:00 8.2 C 65 % 2.02 C
480 11-02-2014 15:55:00 8.2 C 65 % 2.02 C
481 11-02-2014 16:00:00 8.1 C 65 % 1.93 C
482 11-02-2014 16:05:00 8.1 C 65 % 1.93 C
483 11-02-2014 16:10:00 7.8 C 68 % 2.27 C
484 11-02-2014 16:15:00 7.6 C 71 % 2.69 C
485 11-02-2014 16:20:00 7.3 C 72 % 2.6 C
486 11-02-2014 16:25:00 7.2 C 74 % 2.89 C
487 11-02-2014 16:30:00 7.1 C 73 % 2.6 C
488 11-02-2014 16:35:00 6.9 C 76 % 2.97 C
489 11-02-2014 16:40:00 6.8 C 70 % 1.72 C
490 11-02-2014 16:45:00 6.8 C 72 % 2.12 C
491 11-02-2014 16:50:00 6.8 C 67 % 1.11 C
492 11-02-2014 16:55:00 7.1 C 69 % 1.81 C
493 11-02-2014 17:00:00 6.9 C 71 % 2.02 C
494 11-02-2014 17:05:00 6.8 C 69 % 1.52 C
495 11-02-2014 17:10:00 6.6 C 73 % 2.12 C
496 11-02-2014 17:15:00 6.3 C 76 % 2.39 C
497 11-02-2014 17:20:00 6.1 C 77 % 2.38 C
498 11-02-2014 17:25:00 5.9 C 78 % 2.37 C
499 11-02-2014 17:30:00 5.7 C 81 % 2.7 C
500 11-02-2014 17:35:00 5.4 C 81 % 2.41 C
Sensor: Nr:Datum:Temp:Feuchte:Taupunkt:
Aussen-T/F 501 11-02-2014 17:40:00 5.2 C 82 % 2.39 C
502 11-02-2014 17:45:00 4.9 C 84 % 2.43 C
503 11-02-2014 17:50:00 4.8 C 84 % 2.33 C
504 11-02-2014 17:55:00 4.7 C 85 % 2.4 C
505 11-02-2014 18:00:00 4.7 C 83 % 2.07 C
506 11-02-2014 18:05:00 4.7 C 84 % 2.23 C
507 11-02-2014 18:10:00 4.6 C 84 % 2.14 C
508 11-02-2014 18:15:00 4.6 C 85 % 2.3 C
509 11-02-2014 18:20:00 4.6 C 85 % 2.3 C
510 11-02-2014 18:25:00 4.6 C 86 % 2.47 C
511 11-02-2014 18:30:00 4.5 C 85 % 2.2 C
512 11-02-2014 18:35:00 4.5 C 86 % 2.37 C
513 11-02-2014 18:40:00 4.4 C 86 % 2.27 C
514 11-02-2014 18:45:00 4.5 C 85 % 2.2 C
515 11-02-2014 18:50:00 4.6 C 85 % 2.3 C
516 11-02-2014 18:55:00 4.6 C 85 % 2.3 C
517 11-02-2014 19:00:00 4.6 C 86 % 2.47 C
518 11-02-2014 19:05:00 4.6 C 85 % 2.3 C
519 11-02-2014 19:10:00 4.6 C 86 % 2.47 C
520 11-02-2014 19:15:00 4.6 C 86 % 2.47 C
521 11-02-2014 19:20:00 4.6 C 86 % 2.47 C
522 11-02-2014 19:25:00 4.5 C 86 % 2.37 C
523 11-02-2014 19:30:00 4.6 C 86 % 2.47 C
524 11-02-2014 19:35:00 4.6 C 84 % 2.14 C
525 11-02-2014 19:40:00 4.7 C 82 % 1.9 C
Sensor: Nr:Datum:Temp:Feuchte:Taupunkt:
Aussen-T/F 526 11-02-2014 19:45:00 4.9 C 83 % 2.26 C
527 11-02-2014 19:50:00 4.8 C 84 % 2.33 C
528 11-02-2014 19:55:00 4.7 C 85 % 2.4 C
529 11-02-2014 20:00:00 4.7 C 85 % 2.4 C
530 11-02-2014 20:05:00 4.7 C 85 % 2.4 C
531 11-02-2014 20:10:00 4.7 C 84 % 2.23 C
532 11-02-2014 20:15:00 4.8 C 84 % 2.33 C
533 11-02-2014 20:20:00 4.8 C 85 % 2.5 C
534 11-02-2014 20:25:00 4.7 C 84 % 2.23 C
535 11-02-2014 20:30:00 4.7 C 85 % 2.4 C
536 11-02-2014 20:35:00 4.6 C 85 % 2.3 C
537 11-02-2014 20:40:00 4.6 C 84 % 2.14 C
538 11-02-2014 20:45:00 4.7 C 86 % 2.56 C
539 11-02-2014 20:50:00 4.6 C 85 % 2.3 C
540 11-02-2014 20:55:00 4.6 C 86 % 2.47 C
541 11-02-2014 21:00:00 4.6 C 86 % 2.47 C
542 11-02-2014 21:05:00 4.6 C 85 % 2.3 C
543 11-02-2014 21:10:00 4.7 C 83 % 2.07 C
544 11-02-2014 21:15:00 4.9 C 82 % 2.09 C
545 11-02-2014 21:20:00 5.1 C 82 % 2.29 C
546 11-02-2014 21:25:00 5.3 C 79 % 1.96 C
547 11-02-2014 21:30:00 5.4 C 80 % 2.23 C
548 11-02-2014 21:35:00 5.5 C 79 % 2.16 C
549 11-02-2014 21:40:00 5.6 C 80 % 2.43 C
550 11-02-2014 21:45:00 5.6 C 78 % 2.07 C
Sensor: Nr:Datum:Temp:Feuchte:Taupunkt:
Aussen-T/F 551 11-02-2014 21:50:00 5.7 C 79 % 2.35 C
552 11-02-2014 21:55:00 5.7 C 76 % 1.81 C
553 11-02-2014 22:00:00 5.7 C 78 % 2.17 C
554 11-02-2014 22:05:00 5.7 C 79 % 2.35 C
555 11-02-2014 22:10:00 5.6 C 81 % 2.6 C
556 11-02-2014 22:15:00 5.4 C 80 % 2.23 C
557 11-02-2014 22:20:00 5.5 C 79 % 2.16 C
558 11-02-2014 22:25:00 5.6 C 80 % 2.43 C
559 11-02-2014 22:30:00 5.5 C 79 % 2.16 C
560 11-02-2014 22:35:00 5.6 C 78 % 2.07 C
561 11-02-2014 22:40:00 5.7 C 78 % 2.17 C
562 11-02-2014 22:45:00 5.7 C 79 % 2.35 C
563 11-02-2014 22:50:00 5.8 C 79 % 2.45 C
564 11-02-2014 22:55:00 5.7 C 81 % 2.7 C
565 11-02-2014 23:00:00 5.6 C 82 % 2.78 C
566 11-02-2014 23:05:00 5.6 C 78 % 2.07 C
567 11-02-2014 23:10:00 5.7 C 79 % 2.35 C
568 11-02-2014 23:15:00 5.8 C 78 % 2.27 C
569 11-02-2014 23:20:00 6 C 77 % 2.28 C
570 11-02-2014 23:25:00 6 C 79 % 2.64 C
571 11-02-2014 23:30:00 5.9 C 80 % 2.72 C
572 11-02-2014 23:35:00 5.8 C 80 % 2.62 C
573 11-02-2014 23:40:00 5.7 C 82 % 2.87 C
574 11-02-2014 23:45:00 5.7 C 80 % 2.53 C
575 11-02-2014 23:50:00 5.7 C 82 % 2.87 C
Sensor: Nr:Datum:Temp:Feuchte:Taupunkt:
Aussen-T/F 576 11-02-2014 23:55:00 5.6 C 82 % 2.78 C
577 12-02-2014 00:00:00 5.6 C 82 % 2.78 C
578 12-02-2014 00:05:00 5.7 C 81 % 2.7 C
579 12-02-2014 00:10:00 5.8 C 81 % 2.8 C
580 12-02-2014 00:15:00 5.7 C 84 % 3.21 C
581 12-02-2014 00:20:00 5.7 C 84 % 3.21 C
582 12-02-2014 00:25:00 5.6 C 85 % 3.28 C
583 12-02-2014 00:30:00 5.5 C 85 % 3.18 C
584 12-02-2014 00:35:00 5.3 C 87 % 3.32 C
585 12-02-2014 00:40:00 5.2 C 87 % 3.22 C
586 12-02-2014 00:45:00 5.1 C 87 % 3.12 C
587 12-02-2014 00:50:00 5.1 C 86 % 2.96 C
588 12-02-2014 00:55:00 5.1 C 87 % 3.12 C
589 12-02-2014 01:00:00 5.1 C 88 % 3.28 C
590 12-02-2014 01:05:00 5.1 C 87 % 3.12 C
591 12-02-2014 01:10:00 5.2 C 86 % 3.05 C
592 12-02-2014 01:15:00 5.4 C 86 % 3.25 C
593 12-02-2014 01:20:00 5.4 C 86 % 3.25 C
594 12-02-2014 01:25:00 5.4 C 86 % 3.25 C
595 12-02-2014 01:30:00 5.4 C 86 % 3.25 C
596 12-02-2014 01:35:00 5.4 C 86 % 3.25 C
597 12-02-2014 01:40:00 5.4 C 86 % 3.25 C
598 12-02-2014 01:45:00 5.4 C 86 % 3.25 C
599 12-02-2014 01:50:00 5.3 C 86 % 3.15 C
600 12-02-2014 01:55:00 5.3 C 87 % 3.32 C
Sensor: Nr:Datum:Temp:Feuchte:Taupunkt:
Aussen-T/F 601 12-02-2014 02:00:00 5.3 C 87 % 3.32 C
602 12-02-2014 02:05:00 5.3 C 87 % 3.32 C
603 12-02-2014 02:10:00 5.2 C 87 % 3.22 C
604 12-02-2014 02:15:00 5.2 C 87 % 3.22 C
605 12-02-2014 02:20:00 5.1 C 88 % 3.28 C
606 12-02-2014 02:25:00 5.1 C 88 % 3.28 C
607 12-02-2014 02:30:00 5.1 C 88 % 3.28 C
608 12-02-2014 02:35:00 5.1 C 88 % 3.28 C
609 12-02-2014 02:40:00 5.1 C 88 % 3.28 C
610 12-02-2014 02:45:00 5.1 C 88 % 3.28 C
611 12-02-2014 02:50:00 5.1 C 88 % 3.28 C
612 12-02-2014 02:55:00 5.1 C 88 % 3.28 C
613 12-02-2014 03:00:00 5.1 C 88 % 3.28 C
614 12-02-2014 03:05:00 5.1 C 88 % 3.28 C
615 12-02-2014 03:10:00 5.1 C 88 % 3.28 C
616 12-02-2014 03:15:00 5.1 C 88 % 3.28 C
617 12-02-2014 03:20:00 5.1 C 88 % 3.28 C
618 12-02-2014 03:25:00 5.1 C 88 % 3.28 C
619 12-02-2014 03:30:00 5.1 C 88 % 3.28 C
620 12-02-2014 03:35:00 5 C 88 % 3.18 C
621 12-02-2014 03:40:00 4.9 C 88 % 3.08 C
622 12-02-2014 03:45:00 4.9 C 88 % 3.08 C
623 12-02-2014 03:50:00 4.8 C 88 % 2.99 C
624 12-02-2014 03:55:00 4.8 C 88 % 2.99 C
625 12-02-2014 04:00:00 4.8 C 88 % 2.99 C
Sensor: Nr:Datum:Temp:Feuchte:Taupunkt:
Aussen-T/F 626 12-02-2014 04:05:00 4.7 C 88 % 2.89 C
627 12-02-2014 04:10:00 4.5 C 88 % 2.69 C
628 12-02-2014 04:15:00 4.4 C 88 % 2.59 C
629 12-02-2014 04:20:00 4.2 C 89 % 2.55 C
630 12-02-2014 04:25:00 4.1 C 90 % 2.61 C
631 12-02-2014 04:30:00 4.2 C 90 % 2.71 C
632 12-02-2014 04:35:00 4.2 C 90 % 2.71 C
633 12-02-2014 04:40:00 4.2 C 90 % 2.71 C
634 12-02-2014 04:45:00 4 C 90 % 2.51 C
635 12-02-2014 04:50:00 3.8 C 90 % 2.31 C
636 12-02-2014 04:55:00 3.6 C 91 % 2.27 C
637 12-02-2014 05:00:00 3.7 C 91 % 2.37 C
638 12-02-2014 05:05:00 3.8 C 91 % 2.47 C
639 12-02-2014 05:10:00 3.9 C 90 % 2.41 C
640 12-02-2014 05:15:00 4 C 90 % 2.51 C
641 12-02-2014 05:20:00 3.9 C 90 % 2.41 C
642 12-02-2014 05:25:00 3.9 C 90 % 2.41 C
643 12-02-2014 05:30:00 3.7 C 90 % 2.22 C
644 12-02-2014 05:35:00 3.6 C 90 % 2.12 C
645 12-02-2014 05:40:00 3.4 C 91 % 2.07 C
646 12-02-2014 05:45:00 3.5 C 92 % 2.33 C
647 12-02-2014 05:50:00 3.6 C 91 % 2.27 C
648 12-02-2014 05:55:00 3.8 C 91 % 2.47 C
649 12-02-2014 06:00:00 3.8 C 91 % 2.47 C
650 12-02-2014 06:05:00 3.9 C 90 % 2.41 C
Sensor: Nr:Datum:Temp:Feuchte:Taupunkt:
Aussen-T/F 651 12-02-2014 06:10:00 4 C 89 % 2.36 C
652 12-02-2014 06:15:00 4.1 C 89 % 2.45 C
653 12-02-2014 06:20:00 4.1 C 88 % 2.3 C
654 12-02-2014 06:25:00 3.9 C 88 % 2.1 C
655 12-02-2014 06:30:00 3.6 C 88 % 1.8 C
656 12-02-2014 06:35:00 3.3 C 89 % 1.67 C
657 12-02-2014 06:40:00 3.2 C 90 % 1.72 C
658 12-02-2014 06:45:00 3.1 C 91 % 1.78 C
659 12-02-2014 06:50:00 3.2 C 91 % 1.88 C
660 12-02-2014 06:55:00 3.2 C 90 % 1.72 C
661 12-02-2014 07:00:00 3.2 C 91 % 1.88 C
662 12-02-2014 07:05:00 3.3 C 91 % 1.98 C
663 12-02-2014 07:10:00 3.5 C 91 % 2.17 C
664 12-02-2014 07:15:00 3.7 C 91 % 2.37 C
665 12-02-2014 07:20:00 3.8 C 89 % 2.16 C
666 12-02-2014 07:25:00 3.9 C 90 % 2.41 C
667 12-02-2014 07:30:00 4.1 C 89 % 2.45 C
668 12-02-2014 07:35:00 4.3 C 88 % 2.49 C
669 12-02-2014 07:40:00 4.3 C 88 % 2.49 C
670 12-02-2014 07:45:00 4.2 C 88 % 2.39 C
671 12-02-2014 07:50:00 4.2 C 88 % 2.39 C
672 12-02-2014 07:55:00 4.1 C 88 % 2.3 C
673 12-02-2014 08:00:00 3.9 C 89 % 2.26 C
674 12-02-2014 08:05:00 3.9 C 89 % 2.26 C
675 12-02-2014 08:10:00 4 C 89 % 2.36 C
Sensor: Nr:Datum:Temp:Feuchte:Taupunkt:
Aussen-T/F 676 12-02-2014 08:15:00 4 C 89 % 2.36 C
677 12-02-2014 08:20:00 3.9 C 89 % 2.26 C
678 12-02-2014 08:25:00 3.7 C 89 % 2.06 C
679 12-02-2014 08:30:00 3.6 C 90 % 2.12 C
680 12-02-2014 08:35:00 3.4 C 90 % 1.92 C
681 12-02-2014 08:40:00 3.2 C 90 % 1.72 C
682 12-02-2014 08:45:00 3 C 91 % 1.68 C
683 12-02-2014 08:50:00 2.9 C 92 % 1.73 C
684 12-02-2014 08:55:00 3.1 C 92 % 1.93 C
685 12-02-2014 09:00:00 3.2 C 92 % 2.03 C
686 12-02-2014 09:05:00 3.3 C 92 % 2.13 C
687 12-02-2014 09:10:00 3.3 C 91 % 1.98 C
688 12-02-2014 09:15:00 3.2 C 92 % 2.03 C
689 12-02-2014 09:20:00 3.2 C 92 % 2.03 C
690 12-02-2014 09:25:00 3.2 C 92 % 2.03 C
691 12-02-2014 09:30:00 3.7 C 91 % 2.37 C
692 12-02-2014 09:35:00 3.9 C 90 % 2.41 C
693 12-02-2014 09:40:00 4.2 C 89 % 2.55 C
694 12-02-2014 09:45:00 4.3 C 87 % 2.33 C
695 12-02-2014 09:50:00 4.4 C 87 % 2.43 C
696 12-02-2014 09:55:00 4.4 C 87 % 2.43 C
697 12-02-2014 10:00:00 4.6 C 86 % 2.47 C
698 12-02-2014 10:05:00 4.8 C 85 % 2.5 C
699 12-02-2014 10:10:00 5.1 C 84 % 2.63 C
700 12-02-2014 10:15:00 5.1 C 82 % 2.29 C
Sensor: Nr:Datum:Temp:Feuchte:Taupunkt:
Aussen-T/F 701 12-02-2014 10:20:00 5.3 C 82 % 2.48 C
702 12-02-2014 10:25:00 5.6 C 80 % 2.43 C
703 12-02-2014 10:30:00 5.7 C 80 % 2.53 C
704 12-02-2014 10:35:00 5.8 C 80 % 2.62 C
705 12-02-2014 10:40:00 5.9 C 79 % 2.54 C
706 12-02-2014 10:45:00 5.9 C 79 % 2.54 C
707 12-02-2014 10:50:00 5.9 C 79 % 2.54 C
708 12-02-2014 10:55:00 6 C 78 % 2.46 C
709 12-02-2014 11:00:00 6.1 C 78 % 2.56 C
710 12-02-2014 11:05:00 6.1 C 78 % 2.56 C
711 12-02-2014 11:10:00 6.2 C 78 % 2.66 C
712 12-02-2014 11:15:00 6.2 C 76 % 2.29 C
713 12-02-2014 11:20:00 6.3 C 74 % 2.02 C
714 12-02-2014 11:25:00 6.3 C 74 % 2.02 C
715 12-02-2014 11:30:00 6.3 C 74 % 2.02 C
716 12-02-2014 11:35:00 6.3 C 74 % 2.02 C
717 12-02-2014 11:40:00 6.4 C 75 % 2.3 C
718 12-02-2014 11:45:00 6.4 C 75 % 2.3 C
719 12-02-2014 11:50:00 6.4 C 75 % 2.3 C
720 12-02-2014 11:55:00 6.5 C 75 % 2.4 C
721 12-02-2014 12:00:00 6.5 C 74 % 2.21 C
722 12-02-2014 12:05:00 6.5 C 74 % 2.21 C
723 12-02-2014 12:10:00 6.6 C 75 % 2.49 C
724 12-02-2014 12:15:00 6.7 C 75 % 2.59 C
725 12-02-2014 12:20:00 6.7 C 75 % 2.59 C
Sensor: Nr:Datum:Temp:Feuchte:Taupunkt:
Aussen-T/F 726 12-02-2014 12:25:00 6.8 C 74 % 2.5 C
727 12-02-2014 12:30:00 6.8 C 74 % 2.5 C
728 12-02-2014 12:35:00 6.8 C 73 % 2.31 C
729 12-02-2014 12:40:00 6.8 C 73 % 2.31 C
730 12-02-2014 12:45:00 6.9 C 73 % 2.4 C
731 12-02-2014 12:50:00 7 C 73 % 2.5 C
732 12-02-2014 12:55:00 7 C 72 % 2.31 C
733 12-02-2014 13:00:00 7.1 C 72 % 2.4 C
734 12-02-2014 13:05:00 7.3 C 70 % 2.2 C
735 12-02-2014 13:10:00 7.6 C 70 % 2.49 C
736 12-02-2014 13:15:00 7.9 C 68 % 2.37 C
737 12-02-2014 13:20:00 8.1 C 68 % 2.56 C
738 12-02-2014 13:25:00 8.2 C 68 % 2.66 C
739 12-02-2014 13:30:00 8.2 C 66 % 2.24 C
740 12-02-2014 13:35:00 8.2 C 66 % 2.24 C
741 12-02-2014 13:40:00 8.1 C 64 % 1.71 C
742 12-02-2014 13:45:00 8.2 C 65 % 2.02 C
743 12-02-2014 13:50:00 8.3 C 65 % 2.12 C
744 12-02-2014 13:55:00 8.3 C 65 % 2.12 C
745 12-02-2014 14:00:00 8.2 C 66 % 2.24 C
746 12-02-2014 14:05:00 8.2 C 65 % 2.02 C
747 12-02-2014 14:10:00 8.2 C 66 % 2.24 C
748 12-02-2014 14:15:00 8.3 C 66 % 2.33 C
749 12-02-2014 14:20:00 8.2 C 66 % 2.24 C
750 12-02-2014 14:25:00 8.1 C 66 % 2.14 C
Sensor: Nr:Datum:Temp:Feuchte:Taupunkt:
Aussen-T/F 751 12-02-2014 14:30:00 8.1 C 66 % 2.14 C
752 12-02-2014 14:35:00 8.1 C 66 % 2.14 C
753 12-02-2014 14:40:00 8 C 66 % 2.05 C
754 12-02-2014 14:45:00 8 C 67 % 2.26 C
755 12-02-2014 14:50:00 8.1 C 66 % 2.14 C
756 12-02-2014 14:55:00 8.2 C 65 % 2.02 C
757 12-02-2014 15:00:00 8.4 C 65 % 2.21 C
758 12-02-2014 15:05:00 8.4 C 62 % 1.55 C
759 12-02-2014 15:10:00 8.4 C 63 % 1.78 C
760 12-02-2014 15:15:00 8.4 C 62 % 1.55 C
761 12-02-2014 15:20:00 8.4 C 63 % 1.78 C
762 12-02-2014 15:25:00 8.3 C 63 % 1.68 C
763 12-02-2014 15:30:00 8.3 C 63 % 1.68 C
764 12-02-2014 15:35:00 8.4 C 64 % 2 C
765 12-02-2014 15:40:00 8.4 C 63 % 1.78 C
766 12-02-2014 15:45:00 8.4 C 64 % 2 C
767 12-02-2014 15:50:00 8.2 C 63 % 1.59 C
768 12-02-2014 15:55:00 8.1 C 64 % 1.71 C
769 12-02-2014 16:00:00 8.1 C 63 % 1.49 C
770 12-02-2014 16:05:00 8 C 64 % 1.62 C
771 12-02-2014 16:10:00 7.9 C 65 % 1.74 C
772 12-02-2014 16:15:00 7.9 C 67 % 2.16 C
773 12-02-2014 16:20:00 7.7 C 66 % 1.76 C
774 12-02-2014 16:25:00 7.7 C 65 % 1.55 C
775 12-02-2014 16:30:00 7.5 C 65 % 1.36 C
Sensor: Nr:Datum:Temp:Feuchte:Taupunkt:
Aussen-T/F 776 12-02-2014 16:35:00 7.2 C 71 % 2.3 C
777 12-02-2014 16:40:00 6.8 C 73 % 2.31 C
778 12-02-2014 16:45:00 6.5 C 73 % 2.02 C
779 12-02-2014 16:50:00 6.3 C 75 % 2.2 C
780 12-02-2014 16:55:00 6.2 C 75 % 2.11 C
781 12-02-2014 17:00:00 6.1 C 75 % 2.01 C
782 12-02-2014 17:05:00 6 C 75 % 1.91 C
783 12-02-2014 17:10:00 5.9 C 75 % 1.82 C
784 12-02-2014 17:15:00 5.7 C 76 % 1.81 C
785 12-02-2014 17:20:00 5.7 C 76 % 1.81 C
786 12-02-2014 17:25:00 5.7 C 76 % 1.81 C
787 12-02-2014 17:30:00 5.7 C 75 % 1.62 C
788 12-02-2014 17:35:00 5.7 C 74 % 1.44 C
789 12-02-2014 17:40:00 5.9 C 75 % 1.82 C
790 12-02-2014 17:45:00 5.8 C 75 % 1.72 C
791 12-02-2014 17:50:00 5.6 C 75 % 1.53 C
792 12-02-2014 17:55:00 5.3 C 77 % 1.6 C
793 12-02-2014 18:00:00 5 C 79 % 1.67 C
794 12-02-2014 18:05:00 4.8 C 79 % 1.47 C
795 12-02-2014 18:10:00 4.8 C 80 % 1.65 C
796 12-02-2014 18:15:00 4.7 C 81 % 1.73 C
797 12-02-2014 18:20:00 4.5 C 82 % 1.7 C
798 12-02-2014 18:25:00 4.4 C 82 % 1.6 C
799 12-02-2014 18:30:00 4.3 C 83 % 1.67 C
800 12-02-2014 18:35:00 4.3 C 83 % 1.67 C
Sensor: Nr:Datum:Temp:Feuchte:Taupunkt:
Aussen-T/F 801 12-02-2014 18:40:00 4.4 C 82 % 1.6 C
802 12-02-2014 18:45:00 4.4 C 82 % 1.6 C
803 12-02-2014 18:50:00 4.5 C 83 % 1.87 C
804 12-02-2014 18:55:00 4.4 C 82 % 1.6 C
805 12-02-2014 19:00:00 4.3 C 83 % 1.67 C
806 12-02-2014 19:05:00 4.2 C 83 % 1.58 C
807 12-02-2014 19:10:00 4.3 C 83 % 1.67 C
808 12-02-2014 19:15:00 4.4 C 84 % 1.94 C
809 12-02-2014 19:20:00 4.5 C 84 % 2.04 C
810 12-02-2014 19:25:00 4.4 C 84 % 1.94 C
811 12-02-2014 19:30:00 4.4 C 84 % 1.94 C
812 12-02-2014 19:35:00 4.3 C 85 % 2.01 C
813 12-02-2014 19:40:00 4.3 C 85 % 2.01 C
814 12-02-2014 19:45:00 4.3 C 86 % 2.17 C
815 12-02-2014 19:50:00 4.3 C 86 % 2.17 C
816 12-02-2014 19:55:00 4.3 C 85 % 2.01 C
817 12-02-2014 20:00:00 4.4 C 85 % 2.11 C
818 12-02-2014 20:05:00 4.4 C 85 % 2.11 C
819 12-02-2014 20:10:00 4.4 C 85 % 2.11 C
820 12-02-2014 20:15:00 4.4 C 84 % 1.94 C
821 12-02-2014 20:20:00 4.5 C 84 % 2.04 C
822 12-02-2014 20:25:00 4.5 C 85 % 2.2 C
823 12-02-2014 20:30:00 4.5 C 85 % 2.2 C
824 12-02-2014 20:35:00 4.6 C 84 % 2.14 C
825 12-02-2014 20:40:00 4.7 C 84 % 2.23 C
Sensor: Nr:Datum:Temp:Feuchte:Taupunkt:
Aussen-T/F 826 12-02-2014 20:45:00 4.8 C 84 % 2.33 C
827 12-02-2014 20:50:00 4.9 C 84 % 2.43 C
828 12-02-2014 20:55:00 4.9 C 84 % 2.43 C
829 12-02-2014 21:00:00 4.8 C 84 % 2.33 C
830 12-02-2014 21:05:00 4.8 C 85 % 2.5 C
831 12-02-2014 21:10:00 4.8 C 85 % 2.5 C
832 12-02-2014 21:15:00 4.8 C 84 % 2.33 C
833 12-02-2014 21:20:00 4.8 C 84 % 2.33 C
834 12-02-2014 21:25:00 4.8 C 84 % 2.33 C
835 12-02-2014 21:30:00 4.9 C 85 % 2.6 C
836 12-02-2014 21:35:00 4.9 C 84 % 2.43 C
837 12-02-2014 21:40:00 4.9 C 84 % 2.43 C
838 12-02-2014 21:45:00 4.9 C 82 % 2.09 C
839 12-02-2014 21:50:00 5.1 C 82 % 2.29 C
840 12-02-2014 21:55:00 5.2 C 81 % 2.21 C
841 12-02-2014 22:00:00 5.3 C 82 % 2.48 C
842 12-02-2014 22:05:00 5.4 C 79 % 2.06 C
843 12-02-2014 22:10:00 5.8 C 77 % 2.09 C
844 12-02-2014 22:15:00 6.1 C 76 % 2.2 C
845 12-02-2014 22:20:00 6.4 C 73 % 1.92 C
846 12-02-2014 22:25:00 6.7 C 72 % 2.02 C
847 12-02-2014 22:30:00 6.8 C 71 % 1.92 C
848 12-02-2014 22:35:00 7 C 70 % 1.91 C
849 12-02-2014 22:40:00 7.1 C 71 % 2.21 C
850 12-02-2014 22:45:00 7.2 C 72 % 2.5 C
Sensor: Nr:Datum:Temp:Feuchte:Taupunkt:
Aussen-T/F 851 12-02-2014 22:50:00 7.1 C 75 % 2.98 C
852 12-02-2014 22:55:00 6.8 C 77 % 3.06 C
853 12-02-2014 23:00:00 6.6 C 78 % 3.05 C
854 12-02-2014 23:05:00 6.5 C 81 % 3.48 C
855 12-02-2014 23:10:00 6.3 C 81 % 3.29 C
856 12-02-2014 23:15:00 6.2 C 82 % 3.36 C
857 12-02-2014 23:20:00 6.2 C 82 % 3.36 C
858 12-02-2014 23:25:00 6.1 C 83 % 3.44 C
859 12-02-2014 23:30:00 6 C 83 % 3.34 C
860 12-02-2014 23:35:00 5.9 C 83 % 3.24 C
861 12-02-2014 23:40:00 5.9 C 83 % 3.24 C
862 12-02-2014 23:45:00 5.8 C 84 % 3.31 C
863 12-02-2014 23:50:00 5.7 C 85 % 3.38 C
864 12-02-2014 23:55:00 5.7 C 85 % 3.38 C
865 13-02-2014 00:00:00 5.6 C 85 % 3.28 C
866 13-02-2014 00:05:00 5.6 C 86 % 3.45 C
867 13-02-2014 00:10:00 5.5 C 86 % 3.35 C
868 13-02-2014 00:15:00 5.5 C 86 % 3.35 C
869 13-02-2014 00:20:00 5.4 C 86 % 3.25 C
870 13-02-2014 00:25:00 5.4 C 86 % 3.25 C
871 13-02-2014 00:30:00 5.6 C 85 % 3.28 C
872 13-02-2014 00:35:00 5.7 C 85 % 3.38 C
873 13-02-2014 00:40:00 5.7 C 85 % 3.38 C
874 13-02-2014 00:45:00 5.8 C 84 % 3.31 C
875 13-02-2014 00:50:00 5.8 C 84 % 3.31 C
Sensor: Nr:Datum:Temp:Feuchte:Taupunkt:
Aussen-T/F 876 13-02-2014 00:55:00 5.9 C 84 % 3.41 C
877 13-02-2014 01:00:00 5.9 C 84 % 3.41 C
878 13-02-2014 01:05:00 5.9 C 84 % 3.41 C
879 13-02-2014 01:10:00 5.9 C 84 % 3.41 C
880 13-02-2014 01:15:00 5.9 C 84 % 3.41 C
881 13-02-2014 01:20:00 6 C 84 % 3.51 C
882 13-02-2014 01:25:00 6 C 84 % 3.51 C
883 13-02-2014 01:30:00 6.1 C 84 % 3.61 C
884 13-02-2014 01:35:00 6.1 C 85 % 3.77 C
885 13-02-2014 01:40:00 6.1 C 86 % 3.94 C
886 13-02-2014 01:45:00 6 C 86 % 3.84 C
887 13-02-2014 01:50:00 6 C 86 % 3.84 C
888 13-02-2014 01:55:00 5.9 C 86 % 3.74 C
889 13-02-2014 02:00:00 5.8 C 87 % 3.81 C
890 13-02-2014 02:05:00 5.8 C 87 % 3.81 C
891 13-02-2014 02:10:00 5.9 C 87 % 3.91 C
892 13-02-2014 02:15:00 5.9 C 87 % 3.91 C
893 13-02-2014 02:20:00 6 C 87 % 4 C
894 13-02-2014 02:25:00 6 C 87 % 4 C
895 13-02-2014 02:30:00 6.1 C 87 % 4.1 C
896 13-02-2014 02:35:00 6 C 88 % 4.17 C
897 13-02-2014 02:40:00 5.9 C 88 % 4.07 C
898 13-02-2014 02:45:00 5.9 C 88 % 4.07 C
899 13-02-2014 02:50:00 5.9 C 88 % 4.07 C
900 13-02-2014 02:55:00 5.9 C 89 % 4.23 C
Sensor: Nr:Datum:Temp:Feuchte:Taupunkt:
Aussen-T/F 901 13-02-2014 03:00:00 5.9 C 89 % 4.23 C
902 13-02-2014 03:05:00 5.8 C 89 % 4.13 C
903 13-02-2014 03:10:00 5.8 C 90 % 4.29 C
904 13-02-2014 03:15:00 5.7 C 90 % 4.19 C
905 13-02-2014 03:20:00 5.7 C 91 % 4.35 C
906 13-02-2014 03:25:00 5.7 C 92 % 4.5 C
907 13-02-2014 03:30:00 5.7 C 93 % 4.66 C
908 13-02-2014 03:35:00 5.7 C 93 % 4.66 C
909 13-02-2014 03:40:00 5.6 C 94 % 4.71 C
910 13-02-2014 03:45:00 5.8 C 94 % 4.91 C
911 13-02-2014 03:50:00 6 C 93 % 4.96 C
912 13-02-2014 03:55:00 6.3 C 91 % 4.94 C
913 13-02-2014 04:00:00 6.4 C 91 % 5.04 C
914 13-02-2014 04:05:00 6.3 C 92 % 5.1 C
915 13-02-2014 04:10:00 6.3 C 92 % 5.1 C
916 13-02-2014 04:15:00 6.2 C 93 % 5.15 C
917 13-02-2014 04:20:00 6.1 C 93 % 5.06 C
918 13-02-2014 04:25:00 6.1 C 92 % 4.9 C
919 13-02-2014 04:30:00 6.2 C 91 % 4.84 C
920 13-02-2014 04:35:00 6.2 C 90 % 4.69 C
921 13-02-2014 04:40:00 6.2 C 88 % 4.36 C
922 13-02-2014 04:45:00 6.3 C 88 % 4.46 C
923 13-02-2014 04:50:00 6.2 C 88 % 4.36 C
924 13-02-2014 04:55:00 5.9 C 89 % 4.23 C
925 13-02-2014 05:00:00 6.2 C 89 % 4.53 C
Sensor: Nr:Datum:Temp:Feuchte:Taupunkt:
Aussen-T/F 926 13-02-2014 05:05:00 6.4 C 89 % 4.72 C
927 13-02-2014 05:10:00 6.5 C 88 % 4.66 C
928 13-02-2014 05:15:00 6.4 C 88 % 4.56 C
929 13-02-2014 05:20:00 6.5 C 87 % 4.5 C
930 13-02-2014 05:25:00 6.6 C 86 % 4.43 C
931 13-02-2014 05:30:00 6.6 C 86 % 4.43 C
932 13-02-2014 05:35:00 6.3 C 86 % 4.14 C
933 13-02-2014 05:40:00 5.9 C 87 % 3.91 C
934 13-02-2014 05:45:00 5.7 C 88 % 3.87 C
935 13-02-2014 05:50:00 5.6 C 88 % 3.77 C
936 13-02-2014 05:55:00 5.3 C 89 % 3.64 C
937 13-02-2014 06:00:00 5.1 C 90 % 3.6 C
938 13-02-2014 06:05:00 4.9 C 90 % 3.4 C
939 13-02-2014 06:10:00 5.1 C 90 % 3.6 C
940 13-02-2014 06:15:00 5.3 C 90 % 3.8 C
941 13-02-2014 06:20:00 5.2 C 90 % 3.7 C
942 13-02-2014 06:25:00 5.2 C 91 % 3.85 C
943 13-02-2014 06:30:00 5.3 C 91 % 3.95 C
944 13-02-2014 06:35:00 5.4 C 90 % 3.89 C
945 13-02-2014 06:40:00 5.7 C 88 % 3.87 C
946 13-02-2014 06:45:00 6.1 C 87 % 4.1 C
947 13-02-2014 06:50:00 6.1 C 86 % 3.94 C
948 13-02-2014 06:55:00 5.8 C 87 % 3.81 C
949 13-02-2014 07:00:00 5.8 C 88 % 3.97 C
950 13-02-2014 07:05:00 5.7 C 88 % 3.87 C
Sensor: Nr:Datum:Temp:Feuchte:Taupunkt:
Aussen-T/F 951 13-02-2014 07:10:00 5.5 C 89 % 3.84 C
952 13-02-2014 07:15:00 5.5 C 89 % 3.84 C
953 13-02-2014 07:20:00 5.3 C 89 % 3.64 C
954 13-02-2014 07:25:00 5.3 C 89 % 3.64 C
955 13-02-2014 07:30:00 5.4 C 88 % 3.58 C
956 13-02-2014 07:35:00 5.3 C 89 % 3.64 C
957 13-02-2014 07:40:00 5.3 C 89 % 3.64 C
958 13-02-2014 07:45:00 5.2 C 90 % 3.7 C
959 13-02-2014 07:50:00 5.2 C 90 % 3.7 C
960 13-02-2014 07:55:00 5.6 C 88 % 3.77 C
961 13-02-2014 08:00:00 6 C 88 % 4.17 C
962 13-02-2014 08:05:00 6 C 88 % 4.17 C
963 13-02-2014 08:10:00 5.9 C 89 % 4.23 C
964 13-02-2014 08:15:00 5.8 C 89 % 4.13 C
965 13-02-2014 08:20:00 5.9 C 88 % 4.07 C
966 13-02-2014 08:25:00 5.9 C 88 % 4.07 C
967 13-02-2014 08:30:00 5.8 C 89 % 4.13 C
968 13-02-2014 08:35:00 5.8 C 89 % 4.13 C
969 13-02-2014 08:40:00 5.7 C 89 % 4.03 C
970 13-02-2014 08:45:00 5.8 C 89 % 4.13 C
971 13-02-2014 08:50:00 5.9 C 88 % 4.07 C
972 13-02-2014 08:55:00 6.1 C 88 % 4.27 C
973 13-02-2014 09:00:00 6.2 C 87 % 4.2 C
974 13-02-2014 09:05:00 6.2 C 88 % 4.36 C
975 13-02-2014 09:10:00 6.1 C 87 % 4.1 C
Sensor: Nr:Datum:Temp:Feuchte:Taupunkt:
Aussen-T/F 976 13-02-2014 09:15:00 6.2 C 88 % 4.36 C
977 13-02-2014 09:20:00 6.2 C 88 % 4.36 C
978 13-02-2014 09:25:00 6.2 C 89 % 4.53 C
979 13-02-2014 09:30:00 6.2 C 89 % 4.53 C
980 13-02-2014 09:35:00 6.2 C 89 % 4.53 C
981 13-02-2014 09:40:00 6.3 C 88 % 4.46 C
982 13-02-2014 09:45:00 6.4 C 87 % 4.4 C
983 13-02-2014 09:50:00 6.7 C 85 % 4.36 C
984 13-02-2014 09:55:00 6.8 C 85 % 4.46 C
985 13-02-2014 10:00:00 6.9 C 84 % 4.39 C
986 13-02-2014 10:05:00 7.1 C 84 % 4.58 C
987 13-02-2014 10:10:00 7.2 C 83 % 4.51 C
988 13-02-2014 10:15:00 7.3 C 82 % 4.44 C
989 13-02-2014 10:20:00 7.4 C 82 % 4.53 C
990 13-02-2014 10:25:00 7.6 C 82 % 4.73 C
991 13-02-2014 10:30:00 7.6 C 82 % 4.73 C
992 13-02-2014 10:35:00 7.7 C 82 % 4.83 C
993 13-02-2014 10:40:00 7.7 C 82 % 4.83 C
994 13-02-2014 10:45:00 7.8 C 81 % 4.75 C
995 13-02-2014 10:50:00 7.8 C 81 % 4.75 C
996 13-02-2014 10:55:00 7.9 C 82 % 5.02 C
997 13-02-2014 11:00:00 7.9 C 82 % 5.02 C
998 13-02-2014 11:05:00 7.9 C 81 % 4.85 C
999 13-02-2014 11:10:00 7.9 C 83 % 5.2 C
1000 13-02-2014 11:15:00 7.9 C 82 % 5.02 C
Sensor: Nr:Datum:Temp:Feuchte:Taupunkt:
Aussen-T/F 1001 13-02-2014 11:20:00 7.9 C 82 % 5.02 C
1002 13-02-2014 11:25:00 7.9 C 82 % 5.02 C
1003 13-02-2014 11:30:00 7.9 C 82 % 5.02 C
1004 13-02-2014 11:35:00 7.9 C 82 % 5.02 C
1005 13-02-2014 11:40:00 7.9 C 83 % 5.2 C
1006 13-02-2014 11:45:00 8 C 83 % 5.29 C
1007 13-02-2014 11:50:00 7.9 C 84 % 5.37 C
1008 13-02-2014 11:55:00 7.9 C 84 % 5.37 C
1009 13-02-2014 12:00:00 7.9 C 85 % 5.54 C
1010 13-02-2014 12:05:00 7.8 C 86 % 5.61 C
1011 13-02-2014 12:10:00 7.8 C 86 % 5.61 C
1012 13-02-2014 12:15:00 7.7 C 88 % 5.84 C
1013 13-02-2014 12:20:00 7.6 C 88 % 5.74 C
1014 13-02-2014 12:25:00 7.4 C 90 % 5.87 C
1015 13-02-2014 12:30:00 7.2 C 91 % 5.83 C
1016 13-02-2014 12:35:00 7.1 C 91 % 5.73 C
1017 13-02-2014 12:40:00 6.8 C 88 % 4.96 C
1018 13-02-2014 12:45:00 6.8 C 90 % 5.28 C
1019 13-02-2014 12:50:00 6.7 C 91 % 5.34 C
1020 13-02-2014 12:55:00 6.6 C 91 % 5.24 C
1021 13-02-2014 13:00:00 6.5 C 92 % 5.3 C
1022 13-02-2014 13:05:00 6.3 C 91 % 4.94 C
1023 13-02-2014 13:10:00 6.2 C 91 % 4.84 C
1024 13-02-2014 13:15:00 6.1 C 91 % 4.74 C
1025 13-02-2014 13:20:00 5.9 C 91 % 4.55 C
Sensor: Nr:Datum:Temp:Feuchte:Taupunkt:
Aussen-T/F 1026 13-02-2014 13:25:00 5.9 C 92 % 4.7 C
1027 13-02-2014 13:30:00 5.8 C 91 % 4.45 C
1028 13-02-2014 13:35:00 5.8 C 92 % 4.6 C
1029 13-02-2014 13:40:00 5.8 C 92 % 4.6 C
1030 13-02-2014 13:45:00 5.7 C 92 % 4.5 C
1031 13-02-2014 13:50:00 5.6 C 92 % 4.41 C
1032 13-02-2014 13:55:00 5.4 C 91 % 4.05 C
1033 13-02-2014 14:00:00 5.4 C 91 % 4.05 C
1034 13-02-2014 14:05:00 5.3 C 92 % 4.11 C
1035 13-02-2014 14:10:00 5.3 C 92 % 4.11 C
1036 13-02-2014 14:15:00 5.2 C 92 % 4.01 C
1037 13-02-2014 14:20:00 5.1 C 92 % 3.91 C
1038 13-02-2014 14:25:00 5 C 92 % 3.81 C
1039 13-02-2014 14:30:00 4.8 C 92 % 3.61 C
1040 13-02-2014 14:35:00 4.8 C 92 % 3.61 C
1041 13-02-2014 14:40:00 4.7 C 93 % 3.67 C
1042 13-02-2014 14:45:00 4.7 C 93 % 3.67 C
1043 13-02-2014 14:50:00 4.6 C 92 % 3.42 C
1044 13-02-2014 14:55:00 4.6 C 93 % 3.57 C
1045 13-02-2014 15:00:00 4.6 C 92 % 3.42 C
1046 13-02-2014 15:05:00 4.6 C 93 % 3.57 C
1047 13-02-2014 15:10:00 4.6 C 93 % 3.57 C
1048 13-02-2014 15:15:00 4.6 C 93 % 3.57 C
1049 13-02-2014 15:20:00 4.6 C 93 % 3.57 C
1050 13-02-2014 15:25:00 4.7 C 94 % 3.82 C
Sensor: Nr:Datum:Temp:Feuchte:Taupunkt:
Aussen-T/F 1051 13-02-2014 15:30:00 4.7 C 94 % 3.82 C
1052 13-02-2014 15:35:00 4.6 C 94 % 3.72 C
1053 13-02-2014 15:40:00 4.6 C 94 % 3.72 C
1054 13-02-2014 15:45:00 4.6 C 94 % 3.72 C
1055 13-02-2014 15:50:00 4.6 C 94 % 3.72 C
1056 13-02-2014 15:55:00 4.6 C 94 % 3.72 C
1057 13-02-2014 16:00:00 4.6 C 94 % 3.72 C
1058 13-02-2014 16:05:00 4.6 C 94 % 3.72 C
1059 13-02-2014 16:10:00 4.6 C 94 % 3.72 C
1060 13-02-2014 16:15:00 4.6 C 94 % 3.72 C
1061 13-02-2014 16:20:00 4.6 C 94 % 3.72 C
1062 13-02-2014 16:25:00 4.6 C 94 % 3.72 C
1063 13-02-2014 16:30:00 4.6 C 94 % 3.72 C
1064 13-02-2014 16:35:00 4.5 C 93 % 3.47 C
1065 13-02-2014 16:40:00 4.5 C 94 % 3.62 C
1066 13-02-2014 16:45:00 4.5 C 94 % 3.62 C
1067 13-02-2014 16:50:00 4.5 C 94 % 3.62 C
1068 13-02-2014 16:55:00 4.4 C 94 % 3.52 C
1069 13-02-2014 17:00:00 4.4 C 94 % 3.52 C
1070 13-02-2014 17:05:00 4.4 C 94 % 3.52 C
1071 13-02-2014 17:10:00 4.5 C 94 % 3.62 C
1072 13-02-2014 17:15:00 4.5 C 94 % 3.62 C
1073 13-02-2014 17:20:00 4.6 C 94 % 3.72 C
1074 13-02-2014 17:25:00 4.6 C 93 % 3.57 C
1075 13-02-2014 17:30:00 4.6 C 93 % 3.57 C
Sensor: Nr:Datum:Temp:Feuchte:Taupunkt:
Aussen-T/F 1076 13-02-2014 17:35:00 4.7 C 93 % 3.67 C
1077 13-02-2014 17:40:00 4.7 C 93 % 3.67 C
1078 13-02-2014 17:45:00 4.7 C 93 % 3.67 C
1079 13-02-2014 17:50:00 4.7 C 93 % 3.67 C
1080 13-02-2014 17:55:00 4.7 C 93 % 3.67 C
1081 13-02-2014 18:00:00 4.8 C 93 % 3.77 C
1082 13-02-2014 18:05:00 4.8 C 93 % 3.77 C
1083 13-02-2014 18:10:00 4.8 C 93 % 3.77 C
1084 13-02-2014 18:15:00 4.9 C 92 % 3.71 C
1085 13-02-2014 18:20:00 5 C 92 % 3.81 C
1086 13-02-2014 18:25:00 5.1 C 92 % 3.91 C
1087 13-02-2014 18:30:00 5.2 C 92 % 4.01 C
1088 13-02-2014 18:35:00 5.2 C 91 % 3.85 C
1089 13-02-2014 18:40:00 5.2 C 91 % 3.85 C
1090 13-02-2014 18:45:00 5.3 C 91 % 3.95 C
1091 13-02-2014 18:50:00 5.4 C 90 % 3.89 C
1092 13-02-2014 18:55:00 5.5 C 90 % 3.99 C
1093 13-02-2014 19:00:00 5.6 C 90 % 4.09 C
1094 13-02-2014 19:05:00 5.7 C 89 % 4.03 C
1095 13-02-2014 19:10:00 5.7 C 89 % 4.03 C
1096 13-02-2014 19:15:00 5.7 C 89 % 4.03 C
1097 13-02-2014 19:20:00 5.7 C 90 % 4.19 C
1098 13-02-2014 19:25:00 5.6 C 90 % 4.09 C
1099 13-02-2014 19:30:00 5.6 C 91 % 4.25 C
1100 13-02-2014 19:35:00 5.6 C 91 % 4.25 C
Sensor: Nr:Datum:Temp:Feuchte:Taupunkt:
Aussen-T/F 1101 13-02-2014 19:40:00 5.5 C 91 % 4.15 C
1102 13-02-2014 19:45:00 5.4 C 91 % 4.05 C
1103 13-02-2014 19:50:00 5.5 C 91 % 4.15 C
1104 13-02-2014 19:55:00 5.5 C 91 % 4.15 C
1105 13-02-2014 20:00:00 5.6 C 91 % 4.25 C
1106 13-02-2014 20:05:00 5.7 C 90 % 4.19 C
1107 13-02-2014 20:10:00 5.7 C 90 % 4.19 C
1108 13-02-2014 20:15:00 5.7 C 90 % 4.19 C
1109 13-02-2014 20:20:00 5.6 C 90 % 4.09 C
1110 13-02-2014 20:25:00 5.6 C 89 % 3.93 C
1111 13-02-2014 20:30:00 5.6 C 88 % 3.77 C
1112 13-02-2014 20:35:00 5.7 C 88 % 3.87 C
1113 13-02-2014 20:40:00 5.7 C 87 % 3.71 C
1114 13-02-2014 20:45:00 5.7 C 87 % 3.71 C
1115 13-02-2014 20:50:00 5.6 C 87 % 3.61 C
1116 13-02-2014 20:55:00 5.5 C 87 % 3.51 C
1117 13-02-2014 21:00:00 5.4 C 86 % 3.25 C
1118 13-02-2014 21:05:00 5.4 C 86 % 3.25 C
1119 13-02-2014 21:10:00 5.6 C 86 % 3.45 C
1120 13-02-2014 21:15:00 5.6 C 86 % 3.45 C
1121 13-02-2014 21:20:00 5.5 C 86 % 3.35 C
1122 13-02-2014 21:25:00 5.4 C 85 % 3.09 C
1123 13-02-2014 21:30:00 5.3 C 86 % 3.15 C
1124 13-02-2014 21:35:00 5.3 C 85 % 2.99 C
1125 13-02-2014 21:40:00 5.3 C 85 % 2.99 C
Sensor: Nr:Datum:Temp:Feuchte:Taupunkt:
Aussen-T/F 1126 13-02-2014 21:45:00 5.4 C 84 % 2.92 C
1127 13-02-2014 21:50:00 5.4 C 83 % 2.75 C
1128 13-02-2014 21:55:00 5.4 C 83 % 2.75 C
1129 13-02-2014 22:00:00 5.3 C 83 % 2.65 C
1130 13-02-2014 22:05:00 5.3 C 82 % 2.48 C
1131 13-02-2014 22:10:00 5.2 C 82 % 2.39 C
1132 13-02-2014 22:15:00 5.3 C 81 % 2.31 C
1133 13-02-2014 22:20:00 5.3 C 81 % 2.31 C
1134 13-02-2014 22:25:00 5.2 C 82 % 2.39 C
1135 13-02-2014 22:30:00 5.1 C 83 % 2.46 C
1136 13-02-2014 22:35:00 4.9 C 84 % 2.43 C
1137 13-02-2014 22:40:00 4.6 C 85 % 2.3 C
1138 13-02-2014 22:45:00 4.4 C 85 % 2.11 C
1139 13-02-2014 22:50:00 4.4 C 85 % 2.11 C
1140 13-02-2014 22:55:00 4.6 C 84 % 2.14 C
1141 13-02-2014 23:00:00 4.7 C 83 % 2.07 C
1142 13-02-2014 23:05:00 4.8 C 83 % 2.16 C
1143 13-02-2014 23:10:00 4.8 C 83 % 2.16 C
1144 13-02-2014 23:15:00 4.7 C 84 % 2.23 C
1145 13-02-2014 23:20:00 4.5 C 85 % 2.2 C
1146 13-02-2014 23:25:00 4.3 C 86 % 2.17 C
1147 13-02-2014 23:30:00 4.3 C 85 % 2.01 C
1148 13-02-2014 23:35:00 4.3 C 86 % 2.17 C
1149 13-02-2014 23:40:00 4.1 C 86 % 1.97 C
1150 13-02-2014 23:45:00 4.1 C 86 % 1.97 C
Sensor: Nr:Datum:Temp:Feuchte:Taupunkt:
Aussen-T/F 1151 13-02-2014 23:50:00 4.2 C 86 % 2.07 C
1152 13-02-2014 23:55:00 4.3 C 85 % 2.01 C
1153 14-02-2014 00:00:00 4.6 C 84 % 2.14 C
1154 14-02-2014 00:05:00 4.7 C 84 % 2.23 C
1155 14-02-2014 00:10:00 4.8 C 84 % 2.33 C
1156 14-02-2014 00:15:00 4.8 C 85 % 2.5 C
1157 14-02-2014 00:20:00 4.6 C 86 % 2.47 C
1158 14-02-2014 00:25:00 4.4 C 85 % 2.11 C
1159 14-02-2014 00:30:00 4.2 C 86 % 2.07 C
1160 14-02-2014 00:35:00 4.2 C 86 % 2.07 C
1161 14-02-2014 00:40:00 4.2 C 87 % 2.23 C
1162 14-02-2014 00:45:00 4.3 C 86 % 2.17 C
1163 14-02-2014 00:50:00 4.4 C 86 % 2.27 C
1164 14-02-2014 00:55:00 4.3 C 86 % 2.17 C
1165 14-02-2014 01:00:00 4.3 C 86 % 2.17 C
1166 14-02-2014 01:05:00 4.3 C 86 % 2.17 C
1167 14-02-2014 01:10:00 4.3 C 86 % 2.17 C
1168 14-02-2014 01:15:00 4.4 C 86 % 2.27 C
1169 14-02-2014 01:20:00 4.4 C 86 % 2.27 C
1170 14-02-2014 01:25:00 4.4 C 86 % 2.27 C
1171 14-02-2014 01:30:00 4.3 C 86 % 2.17 C
1172 14-02-2014 01:35:00 4.2 C 86 % 2.07 C
1173 14-02-2014 01:40:00 4.2 C 86 % 2.07 C
1174 14-02-2014 01:45:00 4.4 C 85 % 2.11 C
1175 14-02-2014 01:50:00 4.5 C 85 % 2.2 C
Sensor: Nr:Datum:Temp:Feuchte:Taupunkt:
Aussen-T/F 1176 14-02-2014 01:55:00 4.7 C 84 % 2.23 C
1177 14-02-2014 02:00:00 4.7 C 84 % 2.23 C
1178 14-02-2014 02:05:00 4.8 C 84 % 2.33 C
1179 14-02-2014 02:10:00 4.7 C 84 % 2.23 C
1180 14-02-2014 02:15:00 4.7 C 84 % 2.23 C
1181 14-02-2014 02:20:00 4.8 C 83 % 2.16 C
1182 14-02-2014 02:25:00 4.8 C 83 % 2.16 C
1183 14-02-2014 02:30:00 4.9 C 84 % 2.43 C
1184 14-02-2014 02:35:00 5 C 83 % 2.36 C
1185 14-02-2014 02:40:00 5.1 C 83 % 2.46 C
1186 14-02-2014 02:45:00 5.1 C 82 % 2.29 C
1187 14-02-2014 02:50:00 5.2 C 82 % 2.39 C
1188 14-02-2014 02:55:00 5.2 C 82 % 2.39 C
1189 14-02-2014 03:00:00 5.1 C 82 % 2.29 C
1190 14-02-2014 03:05:00 5 C 83 % 2.36 C
1191 14-02-2014 03:10:00 4.9 C 83 % 2.26 C
1192 14-02-2014 03:15:00 4.9 C 83 % 2.26 C
1193 14-02-2014 03:20:00 4.9 C 83 % 2.26 C
1194 14-02-2014 03:25:00 4.9 C 83 % 2.26 C
1195 14-02-2014 03:30:00 4.9 C 83 % 2.26 C
1196 14-02-2014 03:35:00 5 C 82 % 2.19 C
1197 14-02-2014 03:40:00 5.1 C 82 % 2.29 C
1198 14-02-2014 03:45:00 5 C 82 % 2.19 C
1199 14-02-2014 03:50:00 5.1 C 82 % 2.29 C
1200 14-02-2014 03:55:00 5 C 81 % 2.02 C
Sensor: Nr:Datum:Temp:Feuchte:Taupunkt:
Aussen-T/F 1201 14-02-2014 04:00:00 5 C 81 % 2.02 C
1202 14-02-2014 04:05:00 4.9 C 81 % 1.92 C
1203 14-02-2014 04:10:00 4.9 C 82 % 2.09 C
1204 14-02-2014 04:15:00 4.8 C 83 % 2.16 C
1205 14-02-2014 04:20:00 4.7 C 82 % 1.9 C
1206 14-02-2014 04:25:00 4.7 C 83 % 2.07 C
1207 14-02-2014 04:30:00 4.6 C 83 % 1.97 C
1208 14-02-2014 04:35:00 4.6 C 83 % 1.97 C
1209 14-02-2014 04:40:00 4.6 C 82 % 1.8 C
1210 14-02-2014 04:45:00 4.6 C 82 % 1.8 C
1211 14-02-2014 04:50:00 4.5 C 83 % 1.87 C
1212 14-02-2014 04:55:00 4.4 C 83 % 1.77 C
1213 14-02-2014 05:00:00 4.2 C 84 % 1.74 C
1214 14-02-2014 05:05:00 4.2 C 84 % 1.74 C
1215 14-02-2014 05:10:00 4.2 C 84 % 1.74 C
1216 14-02-2014 05:15:00 4.3 C 84 % 1.84 C
1217 14-02-2014 05:20:00 4.4 C 83 % 1.77 C
1218 14-02-2014 05:25:00 4.3 C 83 % 1.67 C
1219 14-02-2014 05:30:00 4.3 C 83 % 1.67 C
1220 14-02-2014 05:35:00 4.2 C 84 % 1.74 C
1221 14-02-2014 05:40:00 4.2 C 84 % 1.74 C
1222 14-02-2014 05:45:00 4.1 C 84 % 1.65 C
1223 14-02-2014 05:50:00 4 C 85 % 1.71 C
1224 14-02-2014 05:55:00 3.9 C 85 % 1.61 C
1225 14-02-2014 06:00:00 3.8 C 86 % 1.68 C
Sensor: Nr:Datum:Temp:Feuchte:Taupunkt:
Aussen-T/F 1226 14-02-2014 06:05:00 3.9 C 85 % 1.61 C
1227 14-02-2014 06:10:00 3.9 C 85 % 1.61 C
1228 14-02-2014 06:15:00 3.9 C 85 % 1.61 C
1229 14-02-2014 06:20:00 4 C 85 % 1.71 C
1230 14-02-2014 06:25:00 4 C 85 % 1.71 C
1231 14-02-2014 06:30:00 3.9 C 84 % 1.45 C
1232 14-02-2014 06:35:00 4 C 84 % 1.55 C
1233 14-02-2014 06:40:00 4.1 C 83 % 1.48 C
1234 14-02-2014 06:45:00 4.1 C 83 % 1.48 C
1235 14-02-2014 06:50:00 3.9 C 84 % 1.45 C
1236 14-02-2014 06:55:00 3.6 C 86 % 1.48 C
1237 14-02-2014 07:00:00 3.3 C 87 % 1.35 C
1238 14-02-2014 07:05:00 3 C 88 % 1.21 C
1239 14-02-2014 07:10:00 2.9 C 89 % 1.27 C
1240 14-02-2014 07:15:00 2.7 C 89 % 1.07 C
1241 14-02-2014 07:20:00 2.6 C 90 % 1.13 C
1242 14-02-2014 07:25:00 2.6 C 90 % 1.13 C
1243 14-02-2014 07:30:00 2.7 C 90 % 1.23 C
1244 14-02-2014 07:35:00 2.8 C 90 % 1.33 C
1245 14-02-2014 07:40:00 2.8 C 90 % 1.33 C
1246 14-02-2014 07:45:00 2.8 C 91 % 1.48 C
1247 14-02-2014 07:50:00 2.8 C 92 % 1.63 C
1248 14-02-2014 07:55:00 2.9 C 92 % 1.73 C
1249 14-02-2014 08:00:00 3 C 92 % 1.83 C
1250 14-02-2014 08:05:00 3.2 C 91 % 1.88 C
Sensor: Nr:Datum:Temp:Feuchte:Taupunkt:
Aussen-T/F 1251 14-02-2014 08:10:00 3.3 C 91 % 1.98 C
1252 14-02-2014 08:15:00 3.3 C 91 % 1.98 C
1253 14-02-2014 08:20:00 3.4 C 91 % 2.07 C
1254 14-02-2014 08:25:00 3.6 C 91 % 2.27 C
1255 14-02-2014 08:30:00 3.7 C 90 % 2.22 C
1256 14-02-2014 08:35:00 3.8 C 90 % 2.31 C
1257 14-02-2014 08:40:00 3.9 C 90 % 2.41 C
1258 14-02-2014 08:45:00 4 C 89 % 2.36 C
1259 14-02-2014 08:50:00 4.2 C 89 % 2.55 C
1260 14-02-2014 08:55:00 4.3 C 88 % 2.49 C
1261 14-02-2014 09:00:00 4.5 C 87 % 2.53 C
1262 14-02-2014 09:05:00 4.7 C 87 % 2.73 C
1263 14-02-2014 09:10:00 4.8 C 86 % 2.66 C
1264 14-02-2014 09:15:00 4.9 C 85 % 2.6 C
1265 14-02-2014 09:20:00 5.1 C 85 % 2.79 C
1266 14-02-2014 09:25:00 5.2 C 85 % 2.89 C
1267 14-02-2014 09:30:00 5.3 C 84 % 2.82 C
1268 14-02-2014 09:35:00 5.4 C 83 % 2.75 C
1269 14-02-2014 09:40:00 5.5 C 83 % 2.85 C
1270 14-02-2014 09:45:00 5.6 C 83 % 2.95 C
1271 14-02-2014 09:50:00 5.6 C 82 % 2.78 C
1272 14-02-2014 09:55:00 5.7 C 82 % 2.87 C
1273 14-02-2014 10:00:00 5.7 C 82 % 2.87 C
1274 14-02-2014 10:05:00 5.7 C 82 % 2.87 C
1275 14-02-2014 10:10:00 5.7 C 81 % 2.7 C
Sensor: Nr:Datum:Temp:Feuchte:Taupunkt:
Aussen-T/F 1276 14-02-2014 10:15:00 5.8 C 81 % 2.8 C
1277 14-02-2014 10:20:00 5.8 C 82 % 2.97 C
1278 14-02-2014 10:25:00 5.8 C 83 % 3.14 C
1279 14-02-2014 10:30:00 5.9 C 82 % 3.07 C
1280 14-02-2014 10:35:00 5.9 C 82 % 3.07 C
1281 14-02-2014 10:40:00 6 C 81 % 2.99 C
1282 14-02-2014 10:45:00 6.1 C 81 % 3.09 C
1283 14-02-2014 10:50:00 6.1 C 81 % 3.09 C
1284 14-02-2014 10:55:00 6.2 C 82 % 3.36 C
1285 14-02-2014 11:00:00 6.3 C 82 % 3.46 C
1286 14-02-2014 11:05:00 6.3 C 81 % 3.29 C
1287 14-02-2014 11:10:00 6.4 C 81 % 3.38 C
1288 14-02-2014 11:15:00 6.4 C 80 % 3.21 C
1289 14-02-2014 11:20:00 6.6 C 80 % 3.4 C
1290 14-02-2014 11:25:00 6.6 C 79 % 3.23 C
1291 14-02-2014 11:30:00 6.7 C 79 % 3.32 C
1292 14-02-2014 11:35:00 6.7 C 79 % 3.32 C
1293 14-02-2014 11:40:00 6.7 C 80 % 3.5 C
1294 14-02-2014 11:45:00 6.8 C 79 % 3.42 C
1295 14-02-2014 11:50:00 7 C 80 % 3.79 C
1296 14-02-2014 11:55:00 7.2 C 79 % 3.81 C
1297 14-02-2014 12:00:00 7.3 C 78 % 3.73 C
1298 14-02-2014 12:05:00 7.4 C 78 % 3.82 C
1299 14-02-2014 12:10:00 7.5 C 77 % 3.74 C
1300 14-02-2014 12:15:00 7.6 C 78 % 4.02 C
Sensor: Nr:Datum:Temp:Feuchte:Taupunkt:
Aussen-T/F 1301 14-02-2014 12:20:00 7.7 C 77 % 3.93 C
1302 14-02-2014 12:25:00 7.8 C 76 % 3.84 C
1303 14-02-2014 12:30:00 7.8 C 76 % 3.84 C
1304 14-02-2014 12:35:00 7.9 C 76 % 3.94 C
1305 14-02-2014 12:40:00 8.1 C 78 % 4.5 C
1306 14-02-2014 12:45:00 8.1 C 76 % 4.13 C
1307 14-02-2014 12:50:00 8.1 C 76 % 4.13 C
1308 14-02-2014 12:55:00 8.1 C 77 % 4.32 C
1309 14-02-2014 13:00:00 8.1 C 77 % 4.32 C
1310 14-02-2014 13:05:00 8.1 C 75 % 3.94 C
1311 14-02-2014 13:10:00 8.1 C 75 % 3.94 C
1312 14-02-2014 13:15:00 8.1 C 77 % 4.32 C
1313 14-02-2014 13:20:00 8.1 C 76 % 4.13 C
1314 14-02-2014 13:25:00 8.2 C 76 % 4.23 C
1315 14-02-2014 13:30:00 8.2 C 75 % 4.04 C
1316 14-02-2014 13:35:00 8.2 C 76 % 4.23 C
1317 14-02-2014 13:40:00 8.2 C 76 % 4.23 C
1318 14-02-2014 13:45:00 8.3 C 75 % 4.14 C
1319 14-02-2014 13:50:00 8.2 C 76 % 4.23 C
1320 14-02-2014 13:55:00 8.2 C 76 % 4.23 C
1321 14-02-2014 14:00:00 8.1 C 76 % 4.13 C
1322 14-02-2014 14:05:00 8.1 C 77 % 4.32 C
1323 14-02-2014 14:10:00 8.1 C 78 % 4.5 C
1324 14-02-2014 14:15:00 8.1 C 77 % 4.32 C
1325 14-02-2014 14:20:00 8.1 C 76 % 4.13 C
Sensor: Nr:Datum:Temp:Feuchte:Taupunkt:
Aussen-T/F 1326 14-02-2014 14:25:00 8.2 C 77 % 4.42 C
1327 14-02-2014 14:30:00 8.2 C 76 % 4.23 C
1328 14-02-2014 14:35:00 8.2 C 76 % 4.23 C
1329 14-02-2014 14:40:00 8.3 C 78 % 4.7 C
1330 14-02-2014 14:45:00 8.3 C 76 % 4.33 C
1331 14-02-2014 14:50:00 8.3 C 76 % 4.33 C
1332 14-02-2014 14:55:00 8.3 C 76 % 4.33 C
1333 14-02-2014 15:00:00 8.2 C 77 % 4.42 C
1334 14-02-2014 15:05:00 8.2 C 78 % 4.6 C
1335 14-02-2014 15:10:00 8.2 C 77 % 4.42 C
1336 14-02-2014 15:15:00 8.2 C 77 % 4.42 C
1337 14-02-2014 15:20:00 8.2 C 78 % 4.6 C
1338 14-02-2014 15:25:00 8.3 C 77 % 4.51 C
1339 14-02-2014 15:30:00 8.3 C 78 % 4.7 C
1340 14-02-2014 15:35:00 8.4 C 78 % 4.79 C
1341 14-02-2014 15:40:00 8.4 C 78 % 4.79 C
1342 14-02-2014 15:45:00 8.4 C 78 % 4.79 C
1343 14-02-2014 15:50:00 8.4 C 78 % 4.79 C
1344 14-02-2014 15:55:00 8.4 C 77 % 4.61 C
1345 14-02-2014 16:00:00 8.4 C 77 % 4.61 C
1346 14-02-2014 16:05:00 8.4 C 78 % 4.79 C
1347 14-02-2014 16:10:00 8.4 C 77 % 4.61 C
1348 14-02-2014 16:15:00 8.4 C 78 % 4.79 C
1349 14-02-2014 16:20:00 8.3 C 78 % 4.7 C
1350 14-02-2014 16:25:00 8.1 C 82 % 5.22 C
Sensor: Nr:Datum:Temp:Feuchte:Taupunkt:
Aussen-T/F 1351 14-02-2014 16:30:00 7.8 C 83 % 5.1 C
1352 14-02-2014 16:35:00 7.7 C 85 % 5.34 C
1353 14-02-2014 16:40:00 7.4 C 87 % 5.38 C
1354 14-02-2014 16:45:00 7.2 C 88 % 5.35 C
1355 14-02-2014 16:50:00 7.1 C 90 % 5.57 C
1356 14-02-2014 16:55:00 6.8 C 91 % 5.44 C
1357 14-02-2014 17:00:00 6.7 C 92 % 5.49 C
1358 14-02-2014 17:05:00 6.5 C 92 % 5.3 C
1359 14-02-2014 17:10:00 6.4 C 93 % 5.35 C
1360 14-02-2014 17:15:00 6.4 C 93 % 5.35 C
1361 14-02-2014 17:20:00 6.3 C 93 % 5.25 C
1362 14-02-2014 17:25:00 6.2 C 92 % 5 C
1363 14-02-2014 17:30:00 6.2 C 92 % 5 C
1364 14-02-2014 17:35:00 6.1 C 91 % 4.74 C
1365 14-02-2014 17:40:00 6.1 C 91 % 4.74 C
1366 14-02-2014 17:45:00 6.1 C 91 % 4.74 C
1367 14-02-2014 17:50:00 6.1 C 90 % 4.59 C
1368 14-02-2014 17:55:00 6 C 90 % 4.49 C
1369 14-02-2014 18:00:00 5.9 C 91 % 4.55 C
1370 14-02-2014 18:05:00 5.9 C 90 % 4.39 C
1371 14-02-2014 18:10:00 5.9 C 91 % 4.55 C
1372 14-02-2014 18:15:00 5.9 C 90 % 4.39 C
1373 14-02-2014 18:20:00 5.9 C 91 % 4.55 C
1374 14-02-2014 18:25:00 5.8 C 90 % 4.29 C
1375 14-02-2014 18:30:00 5.9 C 90 % 4.39 C
Sensor: Nr:Datum:Temp:Feuchte:Taupunkt:
Aussen-T/F 1376 14-02-2014 18:35:00 5.9 C 90 % 4.39 C
1377 14-02-2014 18:40:00 5.9 C 90 % 4.39 C
1378 14-02-2014 18:45:00 5.9 C 90 % 4.39 C
1379 14-02-2014 18:50:00 5.9 C 90 % 4.39 C
1380 14-02-2014 18:55:00 5.9 C 90 % 4.39 C
1381 14-02-2014 19:00:00 5.8 C 90 % 4.29 C
1382 14-02-2014 19:05:00 5.8 C 91 % 4.45 C
1383 14-02-2014 19:10:00 5.8 C 91 % 4.45 C
1384 14-02-2014 19:15:00 5.7 C 92 % 4.5 C
1385 14-02-2014 19:20:00 5.6 C 92 % 4.41 C
1386 14-02-2014 19:25:00 5.6 C 93 % 4.56 C
1387 14-02-2014 19:30:00 5.5 C 93 % 4.46 C
1388 14-02-2014 19:35:00 5.4 C 94 % 4.51 C
1389 14-02-2014 19:40:00 5.4 C 94 % 4.51 C
1390 14-02-2014 19:45:00 5.4 C 94 % 4.51 C
1391 14-02-2014 19:50:00 5.4 C 94 % 4.51 C
1392 14-02-2014 19:55:00 5.4 C 94 % 4.51 C
1393 14-02-2014 20:00:00 5.4 C 94 % 4.51 C
1394 14-02-2014 20:05:00 5.4 C 94 % 4.51 C
1395 14-02-2014 20:10:00 5.4 C 94 % 4.51 C
1396 14-02-2014 20:15:00 5.3 C 94 % 4.41 C
1397 14-02-2014 20:20:00 5.2 C 94 % 4.32 C
1398 14-02-2014 20:25:00 5.1 C 94 % 4.22 C
1399 14-02-2014 20:30:00 5 C 94 % 4.12 C
1400 14-02-2014 20:35:00 5 C 95 % 4.27 C
Sensor: Nr:Datum:Temp:Feuchte:Taupunkt:
Aussen-T/F 1401 14-02-2014 20:40:00 4.9 C 95 % 4.17 C
1402 14-02-2014 20:45:00 4.8 C 95 % 4.07 C
1403 14-02-2014 20:50:00 4.8 C 95 % 4.07 C
1404 14-02-2014 20:55:00 4.8 C 95 % 4.07 C
1405 14-02-2014 21:00:00 4.8 C 95 % 4.07 C
1406 14-02-2014 21:05:00 4.8 C 95 % 4.07 C
1407 14-02-2014 21:10:00 4.9 C 95 % 4.17 C
1408 14-02-2014 21:15:00 5 C 95 % 4.27 C
1409 14-02-2014 21:20:00 5.1 C 95 % 4.37 C
1410 14-02-2014 21:25:00 5.2 C 95 % 4.47 C
1411 14-02-2014 21:30:00 5.2 C 95 % 4.47 C
1412 14-02-2014 21:35:00 5.2 C 95 % 4.47 C
1413 14-02-2014 21:40:00 5.2 C 95 % 4.47 C
1414 14-02-2014 21:45:00 5.2 C 95 % 4.47 C
1415 14-02-2014 21:50:00 5.2 C 96 % 4.62 C
1416 14-02-2014 21:55:00 5.3 C 96 % 4.72 C
1417 14-02-2014 22:00:00 5.4 C 96 % 4.81 C
1418 14-02-2014 22:05:00 5.4 C 96 % 4.81 C
1419 14-02-2014 22:10:00 5.6 C 96 % 5.01 C
1420 14-02-2014 22:15:00 5.7 C 96 % 5.11 C
1421 14-02-2014 22:20:00 5.8 C 96 % 5.21 C
1422 14-02-2014 22:25:00 5.9 C 95 % 5.16 C
1423 14-02-2014 22:30:00 6.1 C 94 % 5.21 C
1424 14-02-2014 22:35:00 6.2 C 94 % 5.31 C
1425 14-02-2014 22:40:00 6.2 C 94 % 5.31 C
Sensor: Nr:Datum:Temp:Feuchte:Taupunkt:
Aussen-T/F 1426 14-02-2014 22:45:00 6.1 C 94 % 5.21 C
1427 14-02-2014 22:50:00 6.1 C 94 % 5.21 C
1428 14-02-2014 22:55:00 6.1 C 94 % 5.21 C
1429 14-02-2014 23:00:00 6 C 94 % 5.11 C
1430 14-02-2014 23:05:00 5.9 C 94 % 5.01 C
1431 14-02-2014 23:10:00 5.8 C 94 % 4.91 C
1432 14-02-2014 23:15:00 5.8 C 94 % 4.91 C
1433 14-02-2014 23:20:00 5.7 C 94 % 4.81 C
1434 14-02-2014 23:25:00 5.7 C 94 % 4.81 C
1435 14-02-2014 23:30:00 5.6 C 95 % 4.86 C
1436 14-02-2014 23:35:00 5.6 C 95 % 4.86 C
1437 14-02-2014 23:40:00 5.6 C 95 % 4.86 C
1438 14-02-2014 23:45:00 5.7 C 95 % 4.96 C
1439 14-02-2014 23:50:00 5.8 C 95 % 5.06 C
1440 14-02-2014 23:55:00 5.8 C 94 % 4.91 C
1441 15-02-2014 00:00:00 5.8 C 94 % 4.91 C
1442 15-02-2014 00:05:00 5.8 C 94 % 4.91 C
1443 15-02-2014 00:10:00 5.9 C 94 % 5.01 C
1444 15-02-2014 00:15:00 5.9 C 94 % 5.01 C
1445 15-02-2014 00:20:00 5.8 C 94 % 4.91 C
1446 15-02-2014 00:25:00 5.8 C 94 % 4.91 C
1447 15-02-2014 00:30:00 5.7 C 94 % 4.81 C
1448 15-02-2014 00:35:00 5.7 C 94 % 4.81 C
1449 15-02-2014 00:40:00 5.7 C 94 % 4.81 C
1450 15-02-2014 00:45:00 5.7 C 94 % 4.81 C
Sensor: Nr:Datum:Temp:Feuchte:Taupunkt:
Aussen-T/F 1451 15-02-2014 00:50:00 5.7 C 94 % 4.81 C
1452 15-02-2014 00:55:00 5.7 C 94 % 4.81 C
1453 15-02-2014 01:00:00 5.6 C 94 % 4.71 C
1454 15-02-2014 01:05:00 5.7 C 95 % 4.96 C
1455 15-02-2014 01:10:00 5.9 C 95 % 5.16 C
1456 15-02-2014 01:15:00 6.2 C 94 % 5.31 C
1457 15-02-2014 01:20:00 6.4 C 93 % 5.35 C
1458 15-02-2014 01:25:00 6.6 C 93 % 5.55 C
1459 15-02-2014 01:30:00 6.7 C 92 % 5.49 C
1460 15-02-2014 01:35:00 6.8 C 92 % 5.59 C
1461 15-02-2014 01:40:00 6.8 C 92 % 5.59 C
1462 15-02-2014 01:45:00 6.8 C 93 % 5.75 C
1463 15-02-2014 01:50:00 6.9 C 92 % 5.69 C
1464 15-02-2014 01:55:00 6.9 C 92 % 5.69 C
1465 15-02-2014 02:00:00 7.2 C 92 % 5.99 C
1466 15-02-2014 02:05:00 7.4 C 91 % 6.03 C
1467 15-02-2014 02:10:00 7.5 C 91 % 6.13 C
1468 15-02-2014 02:15:00 7.5 C 91 % 6.13 C
1469 15-02-2014 02:20:00 7.4 C 91 % 6.03 C
1470 15-02-2014 02:25:00 7.5 C 92 % 6.29 C
1471 15-02-2014 02:30:00 7.6 C 92 % 6.39 C
1472 15-02-2014 02:35:00 7.8 C 91 % 6.43 C
1473 15-02-2014 02:40:00 8.2 C 89 % 6.5 C
1474 15-02-2014 02:45:00 8.3 C 89 % 6.6 C
1475 15-02-2014 02:50:00 8.3 C 89 % 6.6 C
Sensor: Nr:Datum:Temp:Feuchte:Taupunkt:
Aussen-T/F 1476 15-02-2014 02:55:00 8.3 C 90 % 6.76 C
1477 15-02-2014 03:00:00 8.3 C 89 % 6.6 C
1478 15-02-2014 03:05:00 8.4 C 88 % 6.53 C
1479 15-02-2014 03:10:00 8.4 C 88 % 6.53 C
1480 15-02-2014 03:15:00 8.2 C 87 % 6.17 C
1481 15-02-2014 03:20:00 8 C 88 % 6.14 C
1482 15-02-2014 03:25:00 7.8 C 89 % 6.1 C
1483 15-02-2014 03:30:00 7.7 C 89 % 6 C
1484 15-02-2014 03:35:00 7.4 C 90 % 5.87 C
1485 15-02-2014 03:40:00 7.4 C 90 % 5.87 C
1486 15-02-2014 03:45:00 7.3 C 90 % 5.77 C
1487 15-02-2014 03:50:00 7.3 C 90 % 5.77 C
1488 15-02-2014 03:55:00 7.2 C 91 % 5.83 C
1489 15-02-2014 04:00:00 7.3 C 91 % 5.93 C
1490 15-02-2014 04:05:00 7.4 C 91 % 6.03 C
1491 15-02-2014 04:10:00 7.5 C 90 % 5.97 C
1492 15-02-2014 04:15:00 7.4 C 90 % 5.87 C
1493 15-02-2014 04:20:00 7.3 C 91 % 5.93 C
1494 15-02-2014 04:25:00 7.3 C 91 % 5.93 C
1495 15-02-2014 04:30:00 7.4 C 91 % 6.03 C
1496 15-02-2014 04:35:00 7.4 C 91 % 6.03 C
1497 15-02-2014 04:40:00 7.4 C 92 % 6.19 C
1498 15-02-2014 04:45:00 7.8 C 91 % 6.43 C
1499 15-02-2014 04:50:00 7.9 C 90 % 6.36 C
1500 15-02-2014 04:55:00 7.9 C 90 % 6.36 C
Sensor: Nr:Datum:Temp:Feuchte:Taupunkt:
Aussen-T/F 1501 15-02-2014 05:00:00 7.9 C 90 % 6.36 C
1502 15-02-2014 05:05:00 8 C 90 % 6.46 C
1503 15-02-2014 05:10:00 8.1 C 91 % 6.72 C
1504 15-02-2014 05:15:00 8.1 C 91 % 6.72 C
1505 15-02-2014 05:20:00 8.1 C 91 % 6.72 C
1506 15-02-2014 05:25:00 8.2 C 91 % 6.82 C
1507 15-02-2014 05:30:00 8.4 C 90 % 6.86 C
1508 15-02-2014 05:35:00 8.8 C 89 % 7.09 C
1509 15-02-2014 05:40:00 9 C 88 % 7.12 C
1510 15-02-2014 05:45:00 8.9 C 89 % 7.19 C
1511 15-02-2014 05:50:00 8.8 C 90 % 7.25 C
1512 15-02-2014 05:55:00 8.7 C 91 % 7.32 C
1513 15-02-2014 06:00:00 8.8 C 90 % 7.25 C
1514 15-02-2014 06:05:00 9.1 C 89 % 7.39 C
1515 15-02-2014 06:10:00 8.9 C 89 % 7.19 C
1516 15-02-2014 06:15:00 8.8 C 90 % 7.25 C
1517 15-02-2014 06:20:00 8.9 C 90 % 7.35 C
1518 15-02-2014 06:25:00 9.4 C 88 % 7.52 C
1519 15-02-2014 06:30:00 9.9 C 86 % 7.67 C
1520 15-02-2014 06:35:00 10 C 86 % 7.77 C
1521 15-02-2014 06:40:00 9.9 C 85 % 7.5 C
1522 15-02-2014 06:45:00 10.4 C 82 % 7.46 C
1523 15-02-2014 06:50:00 10.5 C 81 % 7.38 C
1524 15-02-2014 06:55:00 10.1 C 83 % 7.35 C
1525 15-02-2014 07:00:00 10.3 C 82 % 7.37 C
Sensor: Nr:Datum:Temp:Feuchte:Taupunkt:
Aussen-T/F 1526 15-02-2014 07:05:00 10.3 C 82 % 7.37 C
1527 15-02-2014 07:10:00 10.5 C 81 % 7.38 C
1528 15-02-2014 07:15:00 10.5 C 83 % 7.74 C
1529 15-02-2014 07:20:00 10.4 C 83 % 7.64 C
1530 15-02-2014 07:25:00 10.4 C 81 % 7.28 C
1531 15-02-2014 07:30:00 10.8 C 81 % 7.67 C
1532 15-02-2014 07:35:00 11.1 C 78 % 7.41 C
1533 15-02-2014 07:40:00 11.5 C 74 % 7.03 C
1534 15-02-2014 07:45:00 11.6 C 74 % 7.13 C
1535 15-02-2014 07:50:00 11.6 C 72 % 6.73 C
1536 15-02-2014 07:55:00 11.6 C 72 % 6.73 C
1537 15-02-2014 08:00:00 11.3 C 73 % 6.64 C
1538 15-02-2014 08:05:00 11.1 C 74 % 6.65 C
1539 15-02-2014 08:10:00 11.1 C 75 % 6.84 C
1540 15-02-2014 08:15:00 11.3 C 74 % 6.84 C
1541 15-02-2014 08:20:00 11.4 C 73 % 6.74 C
1542 15-02-2014 08:25:00 11.4 C 73 % 6.74 C
1543 15-02-2014 08:30:00 11.4 C 73 % 6.74 C
1544 15-02-2014 08:35:00 11.4 C 73 % 6.74 C
1545 15-02-2014 08:40:00 11.3 C 73 % 6.64 C
1546 15-02-2014 08:45:00 11.4 C 72 % 6.54 C
1547 15-02-2014 08:50:00 11.4 C 72 % 6.54 C
1548 15-02-2014 08:55:00 11.6 C 71 % 6.53 C
1549 15-02-2014 09:00:00 11.6 C 71 % 6.53 C
1550 15-02-2014 09:05:00 11.7 C 71 % 6.62 C
Sensor: Nr:Datum:Temp:Feuchte:Taupunkt:
Aussen-T/F 1551 15-02-2014 09:10:00 11.7 C 72 % 6.83 C
1552 15-02-2014 09:15:00 11.7 C 71 % 6.62 C
1553 15-02-2014 09:20:00 11.8 C 70 % 6.51 C
1554 15-02-2014 09:25:00 11.8 C 70 % 6.51 C
1555 15-02-2014 09:30:00 11.8 C 70 % 6.51 C
1556 15-02-2014 09:35:00 11.8 C 69 % 6.31 C
1557 15-02-2014 09:40:00 11.9 C 69 % 6.4 C
1558 15-02-2014 09:45:00 11.9 C 70 % 6.61 C
1559 15-02-2014 09:50:00 11.9 C 68 % 6.19 C
1560 15-02-2014 09:55:00 11.9 C 68 % 6.19 C
1561 15-02-2014 10:00:00 12 C 68 % 6.29 C
1562 15-02-2014 10:05:00 12 C 69 % 6.5 C
1563 15-02-2014 10:10:00 12 C 69 % 6.5 C
1564 15-02-2014 10:15:00 12 C 69 % 6.5 C
1565 15-02-2014 10:20:00 12 C 69 % 6.5 C
1566 15-02-2014 10:25:00 12 C 69 % 6.5 C
1567 15-02-2014 10:30:00 12 C 69 % 6.5 C
1568 15-02-2014 10:50:00 11.9 C 68 % 6.19 C
1569 15-02-2014 10:55:00 12.1 C 67 % 6.17 C
1570 15-02-2014 11:00:00 12.1 C 66 % 5.95 C
1571 15-02-2014 11:15:00 12.2 C 67 % 6.26 C
1572 15-02-2014 11:20:00 12.2 C 67 % 6.26 C
1573 15-02-2014 11:25:00 12.2 C 67 % 6.26 C
1574 15-02-2014 11:30:00 12.2 C 66 % 6.04 C
1575 15-02-2014 11:35:00 12.3 C 66 % 6.14 C
Sensor: Nr:Datum:Temp:Feuchte:Taupunkt:
Aussen-T/F 1576 15-02-2014 11:40:00 12.2 C 66 % 6.04 C
1577 15-02-2014 11:45:00 12.3 C 66 % 6.14 C
1578 15-02-2014 11:50:00 12.3 C 67 % 6.36 C
1579 15-02-2014 11:55:00 12.3 C 66 % 6.14 C
1580 15-02-2014 12:00:00 12.2 C 65 % 5.82 C
1581 15-02-2014 12:05:00 12.1 C 65 % 5.73 C
1582 15-02-2014 12:10:00 12.1 C 66 % 5.95 C
1583 15-02-2014 12:15:00 12.2 C 65 % 5.82 C
1584 15-02-2014 12:20:00 12.1 C 66 % 5.95 C
1585 15-02-2014 12:25:00 12.1 C 65 % 5.73 C
1586 15-02-2014 12:30:00 12.2 C 66 % 6.04 C
1587 15-02-2014 12:35:00 12.2 C 65 % 5.82 C
1588 15-02-2014 12:40:00 12.2 C 65 % 5.82 C
1589 15-02-2014 12:45:00 12.2 C 65 % 5.82 C
1590 15-02-2014 12:50:00 12.2 C 65 % 5.82 C
1591 15-02-2014 12:55:00 12.2 C 65 % 5.82 C
1592 15-02-2014 13:00:00 12.2 C 65 % 5.82 C
1593 15-02-2014 13:05:00 12.2 C 65 % 5.82 C
1594 15-02-2014 13:10:00 12.2 C 66 % 6.04 C
1595 15-02-2014 13:15:00 12.1 C 66 % 5.95 C
1596 15-02-2014 13:20:00 12.1 C 67 % 6.17 C
1597 15-02-2014 13:25:00 12.1 C 67 % 6.17 C
1598 15-02-2014 13:30:00 12.2 C 67 % 6.26 C
1599 15-02-2014 13:35:00 12.1 C 68 % 6.38 C
1600 15-02-2014 13:40:00 12.1 C 68 % 6.38 C
Sensor: Nr:Datum:Temp:Feuchte:Taupunkt:
Aussen-T/F 1601 15-02-2014 13:45:00 12.1 C 68 % 6.38 C
1602 15-02-2014 13:50:00 12.1 C 68 % 6.38 C
1603 15-02-2014 13:55:00 12.1 C 68 % 6.38 C
1604 15-02-2014 14:00:00 12.2 C 68 % 6.48 C
1605 15-02-2014 14:05:00 12.3 C 68 % 6.57 C
1606 15-02-2014 14:10:00 12.3 C 68 % 6.57 C
1607 15-02-2014 14:15:00 12.3 C 69 % 6.78 C
1608 15-02-2014 14:20:00 12.3 C 69 % 6.78 C
1609 15-02-2014 14:25:00 12.3 C 69 % 6.78 C
1610 15-02-2014 14:30:00 12.4 C 68 % 6.67 C
1611 15-02-2014 14:35:00 12.3 C 69 % 6.78 C
1612 15-02-2014 14:40:00 12.4 C 69 % 6.88 C
1613 15-02-2014 14:45:00 12.4 C 69 % 6.88 C
1614 15-02-2014 14:50:00 12.3 C 68 % 6.57 C
1615 15-02-2014 14:55:00 12.2 C 69 % 6.69 C
1616 15-02-2014 15:00:00 12.2 C 69 % 6.69 C
1617 15-02-2014 15:05:00 12.2 C 69 % 6.69 C
1618 15-02-2014 15:10:00 12.1 C 69 % 6.59 C
1619 15-02-2014 15:15:00 12.1 C 69 % 6.59 C
1620 15-02-2014 15:20:00 12 C 69 % 6.5 C
1621 15-02-2014 15:25:00 11.9 C 68 % 6.19 C
1622 15-02-2014 15:30:00 11.9 C 67 % 5.98 C
1623 15-02-2014 15:35:00 11.9 C 68 % 6.19 C
1624 15-02-2014 15:40:00 11.8 C 67 % 5.88 C
1625 15-02-2014 15:45:00 11.8 C 68 % 6.09 C
Sensor: Nr:Datum:Temp:Feuchte:Taupunkt:
Aussen-T/F 1626 15-02-2014 15:50:00 11.7 C 68 % 6 C
1627 15-02-2014 15:55:00 11.7 C 69 % 6.21 C
1628 15-02-2014 16:00:00 11.6 C 69 % 6.11 C
1629 15-02-2014 16:00:00 11.6 C 69 % 6.11 C
1630 15-02-2014 16:05:00 11.6 C 69 % 6.11 C
1631 15-02-2014 16:10:00 11.4 C 69 % 5.92 C
1632 15-02-2014 16:15:00 11.4 C 69 % 5.92 C
1633 15-02-2014 16:20:00 11.3 C 69 % 5.83 C
1634 15-02-2014 16:25:00 11.3 C 70 % 6.03 C
1635 15-02-2014 16:30:00 11.3 C 70 % 6.03 C
1636 15-02-2014 16:35:00 11.2 C 70 % 5.94 C
1637 15-02-2014 16:40:00 11.2 C 70 % 5.94 C
1638 15-02-2014 16:45:00 11.1 C 70 % 5.84 C
1639 15-02-2014 16:50:00 11.1 C 70 % 5.84 C
1640 15-02-2014 16:55:00 11 C 70 % 5.75 C
1641 15-02-2014 17:00:00 11 C 71 % 5.95 C
1642 15-02-2014 17:05:00 10.9 C 71 % 5.86 C
1643 15-02-2014 17:10:00 10.8 C 71 % 5.76 C
1644 15-02-2014 17:15:00 10.8 C 71 % 5.76 C
1645 15-02-2014 17:20:00 10.7 C 71 % 5.66 C
1646 15-02-2014 17:25:00 10.7 C 72 % 5.87 C
1647 15-02-2014 17:30:00 10.6 C 72 % 5.77 C
1648 15-02-2014 17:35:00 10.5 C 72 % 5.67 C
1649 15-02-2014 17:40:00 10.4 C 73 % 5.78 C
1650 15-02-2014 17:45:00 10.3 C 73 % 5.68 C
Sensor: Nr:Datum:Temp:Feuchte:Taupunkt:
Aussen-T/F 1651 15-02-2014 17:50:00 10.2 C 73 % 5.58 C
1652 15-02-2014 17:55:00 10.2 C 74 % 5.78 C
1653 15-02-2014 18:00:00 10.2 C 73 % 5.58 C
1654 15-02-2014 18:05:00 10.1 C 74 % 5.68 C
1655 15-02-2014 18:10:00 10.1 C 74 % 5.68 C
1656 15-02-2014 18:15:00 10 C 74 % 5.59 C
1657 15-02-2014 18:20:00 10.1 C 74 % 5.68 C
1658 15-02-2014 18:25:00 10 C 74 % 5.59 C
1659 15-02-2014 18:30:00 9.9 C 74 % 5.49 C
1660 15-02-2014 18:35:00 9.9 C 75 % 5.68 C
1661 15-02-2014 18:40:00 9.9 C 75 % 5.68 C
1662 15-02-2014 18:45:00 9.8 C 75 % 5.59 C
1663 15-02-2014 18:50:00 9.8 C 75 % 5.59 C
1664 15-02-2014 18:55:00 9.8 C 75 % 5.59 C
1665 15-02-2014 19:00:00 9.8 C 75 % 5.59 C
1666 15-02-2014 19:05:00 9.8 C 75 % 5.59 C
1667 15-02-2014 19:10:00 9.8 C 76 % 5.78 C
1668 15-02-2014 19:15:00 9.8 C 78 % 6.15 C
1669 15-02-2014 19:20:00 9.5 C 81 % 6.41 C
1670 15-02-2014 19:25:00 9.3 C 84 % 6.74 C
1671 15-02-2014 19:30:00 9 C 84 % 6.45 C
1672 15-02-2014 19:35:00 8.8 C 85 % 6.42 C
1673 15-02-2014 19:40:00 8.8 C 85 % 6.42 C
1674 15-02-2014 19:45:00 8.7 C 87 % 6.66 C
1675 15-02-2014 19:50:00 8.4 C 89 % 6.7 C
Sensor: Nr:Datum:Temp:Feuchte:Taupunkt:
Aussen-T/F 1676 15-02-2014 19:55:00 8.3 C 90 % 6.76 C
1677 15-02-2014 20:00:00 8.1 C 91 % 6.72 C
1678 15-02-2014 20:05:00 7.9 C 92 % 6.68 C
1679 15-02-2014 20:10:00 7.8 C 92 % 6.58 C
1680 15-02-2014 20:15:00 7.7 C 93 % 6.64 C
1681 15-02-2014 20:20:00 7.6 C 93 % 6.54 C
1682 15-02-2014 20:25:00 7.4 C 93 % 6.34 C
1683 15-02-2014 20:30:00 7.3 C 93 % 6.25 C
1684 15-02-2014 20:35:00 7.3 C 93 % 6.25 C
1685 15-02-2014 20:40:00 7.3 C 93 % 6.25 C
1686 15-02-2014 20:45:00 7.2 C 93 % 6.15 C
1687 15-02-2014 20:50:00 7.2 C 93 % 6.15 C
1688 15-02-2014 20:55:00 7.2 C 93 % 6.15 C
1689 15-02-2014 21:00:00 7.3 C 92 % 6.09 C
1690 15-02-2014 21:05:00 7.3 C 92 % 6.09 C
1691 15-02-2014 21:10:00 7.4 C 92 % 6.19 C
1692 15-02-2014 21:15:00 7.6 C 91 % 6.23 C
1693 15-02-2014 21:20:00 7.7 C 90 % 6.17 C
1694 15-02-2014 21:25:00 7.8 C 88 % 5.94 C
1695 15-02-2014 21:30:00 8 C 88 % 6.14 C
1696 15-02-2014 21:35:00 8 C 88 % 6.14 C
1697 15-02-2014 21:40:00 8.1 C 87 % 6.07 C
1698 15-02-2014 21:45:00 8.1 C 86 % 5.9 C
1699 15-02-2014 21:50:00 8.2 C 87 % 6.17 C
1700 15-02-2014 21:55:00 8.3 C 85 % 5.93 C
Sensor: Nr:Datum:Temp:Feuchte:Taupunkt:
Aussen-T/F 1701 15-02-2014 22:00:00 8.4 C 84 % 5.86 C
1702 15-02-2014 22:05:00 8.5 C 84 % 5.96 C
1703 15-02-2014 22:10:00 8.6 C 84 % 6.05 C
1704 15-02-2014 22:15:00 8.5 C 83 % 5.78 C
1705 15-02-2014 22:20:00 8.6 C 83 % 5.88 C
1706 15-02-2014 22:25:00 8.7 C 81 % 5.63 C
1707 15-02-2014 22:30:00 8.7 C 81 % 5.63 C
1708 15-02-2014 22:35:00 8.7 C 82 % 5.8 C
1709 15-02-2014 22:40:00 8.7 C 81 % 5.63 C
1710 15-02-2014 22:45:00 8.7 C 81 % 5.63 C
1711 15-02-2014 22:50:00 8.8 C 80 % 5.55 C
1712 15-02-2014 22:55:00 8.8 C 80 % 5.55 C
1713 15-02-2014 23:00:00 8.8 C 80 % 5.55 C
1714 15-02-2014 23:05:00 8.7 C 80 % 5.45 C
1715 15-02-2014 23:10:00 8.7 C 80 % 5.45 C
1716 15-02-2014 23:15:00 8.7 C 80 % 5.45 C
1717 15-02-2014 23:20:00 8.8 C 79 % 5.36 C
1718 15-02-2014 23:25:00 8.8 C 79 % 5.36 C
1719 15-02-2014 23:30:00 8.8 C 78 % 5.18 C
1720 15-02-2014 23:35:00 8.9 C 78 % 5.28 C
1721 15-02-2014 23:40:00 8.9 C 77 % 5.09 C
1722 15-02-2014 23:45:00 8.9 C 77 % 5.09 C
1723 15-02-2014 23:50:00 8.9 C 77 % 5.09 C
1724 15-02-2014 23:55:00 8.8 C 78 % 5.18 C
1725 16-02-2014 00:00:00 8.7 C 79 % 5.27 C
Sensor: Nr:Datum:Temp:Feuchte:Taupunkt:
Aussen-T/F 1726 16-02-2014 00:05:00 8.5 C 79 % 5.07 C
1727 16-02-2014 00:10:00 8.4 C 80 % 5.16 C
1728 16-02-2014 00:15:00 8.4 C 80 % 5.16 C
1729 16-02-2014 00:20:00 8.3 C 80 % 5.06 C
1730 16-02-2014 00:25:00 8.3 C 80 % 5.06 C
1731 16-02-2014 00:30:00 8.3 C 80 % 5.06 C
1732 16-02-2014 00:35:00 8.4 C 80 % 5.16 C
1733 16-02-2014 00:40:00 8.4 C 80 % 5.16 C
1734 16-02-2014 00:45:00 8.4 C 80 % 5.16 C
1735 16-02-2014 00:50:00 8.4 C 79 % 4.98 C
1736 16-02-2014 00:55:00 8.4 C 79 % 4.98 C
1737 16-02-2014 01:00:00 8.6 C 78 % 4.99 C
1738 16-02-2014 01:05:00 8.6 C 78 % 4.99 C
1739 16-02-2014 01:10:00 8.6 C 77 % 4.8 C
1740 16-02-2014 01:15:00 8.6 C 77 % 4.8 C
1741 16-02-2014 01:20:00 8.5 C 77 % 4.71 C
1742 16-02-2014 01:25:00 8.4 C 77 % 4.61 C
1743 16-02-2014 01:30:00 8.4 C 78 % 4.79 C
1744 16-02-2014 01:35:00 8.4 C 78 % 4.79 C
1745 16-02-2014 01:40:00 8.4 C 78 % 4.79 C
1746 16-02-2014 01:45:00 8.3 C 79 % 4.88 C
1747 16-02-2014 01:50:00 8.3 C 79 % 4.88 C
1748 16-02-2014 01:55:00 8.3 C 79 % 4.88 C
1749 16-02-2014 02:00:00 8.4 C 78 % 4.79 C
1750 16-02-2014 02:05:00 8.4 C 78 % 4.79 C
Sensor: Nr:Datum:Temp:Feuchte:Taupunkt:
Aussen-T/F 1751 16-02-2014 02:10:00 8.4 C 78 % 4.79 C
1752 16-02-2014 02:15:00 8.3 C 78 % 4.7 C
1753 16-02-2014 02:20:00 8.3 C 78 % 4.7 C
1754 16-02-2014 02:25:00 8.3 C 78 % 4.7 C
1755 16-02-2014 02:30:00 8.2 C 78 % 4.6 C
1756 16-02-2014 02:35:00 8.2 C 78 % 4.6 C
1757 16-02-2014 02:40:00 8.2 C 79 % 4.78 C
1758 16-02-2014 02:45:00 8.2 C 78 % 4.6 C
1759 16-02-2014 02:50:00 8.2 C 78 % 4.6 C
1760 16-02-2014 02:55:00 8.2 C 78 % 4.6 C
1761 16-02-2014 03:00:00 8.2 C 77 % 4.42 C
1762 16-02-2014 03:05:00 8.2 C 77 % 4.42 C
1763 16-02-2014 03:10:00 7.9 C 78 % 4.31 C
1764 16-02-2014 03:15:00 7.9 C 78 % 4.31 C
1765 16-02-2014 03:20:00 7.8 C 78 % 4.21 C
1766 16-02-2014 03:25:00 7.7 C 79 % 4.3 C
1767 16-02-2014 03:30:00 7.7 C 79 % 4.3 C
1768 16-02-2014 03:35:00 7.8 C 78 % 4.21 C
1769 16-02-2014 03:40:00 7.9 C 78 % 4.31 C
1770 16-02-2014 03:45:00 8.1 C 77 % 4.32 C
1771 16-02-2014 03:50:00 8.2 C 77 % 4.42 C
1772 16-02-2014 03:55:00 8.1 C 77 % 4.32 C
1773 16-02-2014 04:00:00 8.1 C 77 % 4.32 C
1774 16-02-2014 04:05:00 8.1 C 76 % 4.13 C
1775 16-02-2014 04:10:00 8.1 C 76 % 4.13 C
Sensor: Nr:Datum:Temp:Feuchte:Taupunkt:
Aussen-T/F 1776 16-02-2014 04:15:00 8.1 C 75 % 3.94 C
1777 16-02-2014 04:20:00 8.2 C 75 % 4.04 C
1778 16-02-2014 04:25:00 8.2 C 75 % 4.04 C
1779 16-02-2014 04:30:00 8.2 C 75 % 4.04 C
1780 16-02-2014 04:35:00 8.1 C 75 % 3.94 C
1781 16-02-2014 04:40:00 8.1 C 76 % 4.13 C
1782 16-02-2014 04:45:00 8.1 C 75 % 3.94 C
1783 16-02-2014 04:50:00 8.1 C 76 % 4.13 C
1784 16-02-2014 04:55:00 8.1 C 76 % 4.13 C
1785 16-02-2014 05:00:00 7.9 C 77 % 4.12 C
1786 16-02-2014 05:05:00 7.8 C 78 % 4.21 C
1787 16-02-2014 05:10:00 7.6 C 79 % 4.2 C
1788 16-02-2014 05:15:00 7.6 C 79 % 4.2 C
1789 16-02-2014 05:20:00 7.8 C 77 % 4.03 C
1790 16-02-2014 05:25:00 7.8 C 77 % 4.03 C
1791 16-02-2014 05:30:00 7.8 C 77 % 4.03 C
1792 16-02-2014 05:35:00 7.8 C 77 % 4.03 C
1793 16-02-2014 05:40:00 7.8 C 77 % 4.03 C
1794 16-02-2014 05:45:00 7.8 C 77 % 4.03 C
1795 16-02-2014 05:50:00 7.8 C 77 % 4.03 C
1796 16-02-2014 05:55:00 7.8 C 77 % 4.03 C
1797 16-02-2014 06:00:00 7.9 C 77 % 4.12 C
1798 16-02-2014 06:05:00 7.8 C 77 % 4.03 C
1799 16-02-2014 06:10:00 7.8 C 78 % 4.21 C
1800 16-02-2014 06:15:00 7.7 C 79 % 4.3 C
Sensor: Nr:Datum:Temp:Feuchte:Taupunkt:
Aussen-T/F 1801 16-02-2014 06:20:00 7.7 C 79 % 4.3 C
1802 16-02-2014 06:25:00 7.6 C 79 % 4.2 C
1803 16-02-2014 06:30:00 7.6 C 79 % 4.2 C
1804 16-02-2014 06:35:00 7.6 C 79 % 4.2 C
1805 16-02-2014 06:40:00 7.6 C 79 % 4.2 C
1806 16-02-2014 06:45:00 7.6 C 79 % 4.2 C
1807 16-02-2014 06:50:00 7.7 C 79 % 4.3 C
1808 16-02-2014 06:55:00 7.7 C 79 % 4.3 C
1809 16-02-2014 07:00:00 7.7 C 79 % 4.3 C
1810 16-02-2014 07:05:00 7.7 C 79 % 4.3 C
1811 16-02-2014 07:10:00 7.7 C 79 % 4.3 C
1812 16-02-2014 07:15:00 7.7 C 79 % 4.3 C
1813 16-02-2014 07:20:00 7.6 C 79 % 4.2 C
1814 16-02-2014 07:25:00 7.6 C 79 % 4.2 C
1815 16-02-2014 07:30:00 7.6 C 80 % 4.38 C
1816 16-02-2014 07:35:00 7.6 C 80 % 4.38 C
1817 16-02-2014 07:40:00 7.5 C 81 % 4.46 C
1818 16-02-2014 07:45:00 7.4 C 81 % 4.36 C
1819 16-02-2014 07:50:00 7.4 C 81 % 4.36 C
1820 16-02-2014 07:55:00 7.4 C 81 % 4.36 C
1821 16-02-2014 08:00:00 7.4 C 81 % 4.36 C
1822 16-02-2014 08:05:00 7.3 C 81 % 4.26 C
1823 16-02-2014 08:10:00 7.4 C 81 % 4.36 C
1824 16-02-2014 08:15:00 7.4 C 80 % 4.18 C
1825 16-02-2014 08:20:00 7.4 C 80 % 4.18 C
Sensor: Nr:Datum:Temp:Feuchte:Taupunkt:
Aussen-T/F 1826 16-02-2014 08:25:00 7.4 C 80 % 4.18 C
1827 16-02-2014 08:30:00 7.4 C 80 % 4.18 C
1828 16-02-2014 08:35:00 7.4 C 80 % 4.18 C
1829 16-02-2014 08:40:00 7.3 C 80 % 4.09 C
1830 16-02-2014 08:45:00 7.3 C 80 % 4.09 C
1831 16-02-2014 08:50:00 7.3 C 81 % 4.26 C
1832 16-02-2014 08:55:00 7.3 C 80 % 4.09 C
1833 16-02-2014 09:00:00 7.3 C 81 % 4.26 C
1834 16-02-2014 09:05:00 7.2 C 83 % 4.51 C
1835 16-02-2014 09:10:00 7.2 C 84 % 4.68 C
1836 16-02-2014 09:15:00 7.2 C 84 % 4.68 C
1837 16-02-2014 09:20:00 7.2 C 84 % 4.68 C
1838 16-02-2014 09:25:00 7.4 C 82 % 4.53 C
1839 16-02-2014 09:30:00 7.5 C 82 % 4.63 C
1840 16-02-2014 09:35:00 7.6 C 81 % 4.55 C
1841 16-02-2014 09:40:00 7.7 C 80 % 4.47 C
1842 16-02-2014 09:45:00 7.8 C 80 % 4.57 C
1843 16-02-2014 09:50:00 7.9 C 79 % 4.49 C
1844 16-02-2014 09:55:00 7.9 C 79 % 4.49 C
1845 16-02-2014 10:00:00 7.9 C 79 % 4.49 C
1846 16-02-2014 10:05:00 8.1 C 79 % 4.68 C
1847 16-02-2014 10:10:00 8.1 C 79 % 4.68 C
1848 16-02-2014 10:15:00 8 C 80 % 4.77 C
1849 16-02-2014 10:20:00 7.9 C 81 % 4.85 C
1850 16-02-2014 10:25:00 7.9 C 81 % 4.85 C
Sensor: Nr:Datum:Temp:Feuchte:Taupunkt:
Aussen-T/F 1851 16-02-2014 10:30:00 7.9 C 80 % 4.67 C
1852 16-02-2014 10:35:00 8 C 79 % 4.59 C
1853 16-02-2014 10:40:00 8 C 79 % 4.59 C
1854 16-02-2014 10:45:00 8 C 79 % 4.59 C
1855 16-02-2014 10:50:00 8.1 C 79 % 4.68 C
1856 16-02-2014 10:55:00 8.2 C 78 % 4.6 C
1857 16-02-2014 11:00:00 8.3 C 78 % 4.7 C
1858 16-02-2014 11:05:00 8.4 C 77 % 4.61 C
1859 16-02-2014 11:10:00 8.4 C 77 % 4.61 C
1860 16-02-2014 11:15:00 8.6 C 76 % 4.62 C
1861 16-02-2014 11:20:00 8.6 C 77 % 4.8 C
1862 16-02-2014 11:25:00 8.7 C 76 % 4.71 C
1863 16-02-2014 11:30:00 8.6 C 76 % 4.62 C
1864 16-02-2014 11:35:00 8.7 C 77 % 4.9 C
1865 16-02-2014 11:40:00 8.7 C 77 % 4.9 C
1866 16-02-2014 11:45:00 8.7 C 77 % 4.9 C
1867 16-02-2014 11:50:00 8.6 C 77 % 4.8 C
1868 16-02-2014 11:55:00 8.5 C 78 % 4.89 C
1869 16-02-2014 12:00:00 8.4 C 79 % 4.98 C
1870 16-02-2014 12:05:00 8.4 C 79 % 4.98 C
1871 16-02-2014 12:10:00 8.5 C 80 % 5.25 C
1872 16-02-2014 12:15:00 8.7 C 79 % 5.27 C
1873 16-02-2014 12:20:00 8.8 C 77 % 5 C
1874 16-02-2014 12:25:00 9 C 77 % 5.19 C
1875 16-02-2014 12:30:00 8.9 C 75 % 4.72 C
Sensor: Nr:Datum:Temp:Feuchte:Taupunkt:
Aussen-T/F 1876 16-02-2014 12:35:00 8.7 C 79 % 5.27 C
1877 16-02-2014 12:40:00 8.3 C 83 % 5.59 C
1878 16-02-2014 12:45:00 8 C 85 % 5.64 C
1879 16-02-2014 12:50:00 7.9 C 85 % 5.54 C
1880 16-02-2014 12:55:00 7.9 C 86 % 5.71 C
1881 16-02-2014 13:00:00 8 C 86 % 5.81 C
1882 16-02-2014 13:05:00 8.2 C 85 % 5.83 C
1883 16-02-2014 13:10:00 8.4 C 82 % 5.51 C
1884 16-02-2014 13:15:00 8.6 C 80 % 5.35 C
1885 16-02-2014 13:20:00 8.7 C 79 % 5.27 C
1886 16-02-2014 13:25:00 8.8 C 78 % 5.18 C
1887 16-02-2014 13:30:00 8.9 C 78 % 5.28 C
1888 16-02-2014 13:35:00 8.9 C 78 % 5.28 C
1889 16-02-2014 13:40:00 8.9 C 78 % 5.28 C
1890 16-02-2014 13:45:00 8.9 C 78 % 5.28 C
1891 16-02-2014 13:50:00 8.9 C 77 % 5.09 C
1892 16-02-2014 13:55:00 9 C 77 % 5.19 C
1893 16-02-2014 14:00:00 9.2 C 77 % 5.38 C
1894 16-02-2014 14:05:00 9.4 C 75 % 5.2 C
1895 16-02-2014 14:10:00 9.4 C 75 % 5.2 C
1896 16-02-2014 14:15:00 9.3 C 75 % 5.1 C
1897 16-02-2014 14:20:00 9.3 C 75 % 5.1 C
1898 16-02-2014 14:25:00 9.3 C 76 % 5.29 C
1899 16-02-2014 14:30:00 9.3 C 74 % 4.91 C
1900 16-02-2014 14:35:00 9.1 C 75 % 4.91 C
Sensor: Nr:Datum:Temp:Feuchte:Taupunkt:
Aussen-T/F 1901 16-02-2014 14:40:00 9 C 75 % 4.81 C
1902 16-02-2014 14:45:00 9 C 76 % 5 C
1903 16-02-2014 14:50:00 9.1 C 76 % 5.1 C
1904 16-02-2014 14:55:00 9.2 C 76 % 5.2 C
1905 16-02-2014 15:00:00 9.2 C 75 % 5.01 C
1906 16-02-2014 15:05:00 9.2 C 74 % 4.81 C
1907 16-02-2014 15:10:00 9.3 C 74 % 4.91 C
1908 16-02-2014 15:15:00 9.4 C 73 % 4.81 C
1909 16-02-2014 15:20:00 9.4 C 73 % 4.81 C
1910 16-02-2014 15:25:00 9.4 C 73 % 4.81 C
1911 16-02-2014 15:30:00 9.3 C 72 % 4.52 C
1912 16-02-2014 15:35:00 9.3 C 72 % 4.52 C
1913 16-02-2014 15:40:00 9.3 C 72 % 4.52 C
1914 16-02-2014 15:45:00 9.3 C 73 % 4.72 C
1915 16-02-2014 15:50:00 9.4 C 73 % 4.81 C
1916 16-02-2014 15:55:00 9.4 C 73 % 4.81 C
1917 16-02-2014 16:00:00 9.5 C 73 % 4.91 C
1918 16-02-2014 16:05:00 9.6 C 72 % 4.81 C
1919 16-02-2014 16:10:00 9.6 C 73 % 5.01 C
1920 16-02-2014 16:15:00 9.7 C 72 % 4.9 C
1921 16-02-2014 16:20:00 9.7 C 72 % 4.9 C
1922 16-02-2014 16:25:00 9.7 C 72 % 4.9 C
1923 16-02-2014 16:30:00 9.7 C 72 % 4.9 C
1924 16-02-2014 16:35:00 9.7 C 72 % 4.9 C
1925 16-02-2014 16:40:00 9.6 C 72 % 4.81 C
Sensor: Nr:Datum:Temp:Feuchte:Taupunkt:
Aussen-T/F 1926 16-02-2014 16:45:00 9.6 C 71 % 4.61 C
1927 16-02-2014 16:50:00 9.6 C 71 % 4.61 C
1928 16-02-2014 16:55:00 9.5 C 71 % 4.51 C
1929 16-02-2014 17:00:00 9.4 C 71 % 4.42 C
1930 16-02-2014 17:05:00 9.4 C 71 % 4.42 C
1931 16-02-2014 17:10:00 9.3 C 70 % 4.12 C
1932 16-02-2014 17:15:00 9.3 C 71 % 4.32 C
1933 16-02-2014 17:20:00 9.3 C 71 % 4.32 C
1934 16-02-2014 17:25:00 9.2 C 70 % 4.02 C
1935 16-02-2014 17:30:00 9.1 C 72 % 4.33 C
1936 16-02-2014 17:35:00 8.8 C 72 % 4.04 C
1937 16-02-2014 17:40:00 8.6 C 75 % 4.43 C
1938 16-02-2014 17:45:00 8.2 C 77 % 4.42 C
1939 16-02-2014 17:50:00 7.7 C 79 % 4.3 C
1940 16-02-2014 17:55:00 7.3 C 80 % 4.09 C
1941 16-02-2014 18:00:00 7.1 C 82 % 4.24 C
1942 16-02-2014 18:05:00 6.8 C 83 % 4.12 C
1943 16-02-2014 18:10:00 6.6 C 83 % 3.92 C
1944 16-02-2014 18:15:00 6.4 C 85 % 4.07 C
1945 16-02-2014 18:20:00 6.3 C 85 % 3.97 C
1946 16-02-2014 18:25:00 6.2 C 85 % 3.87 C
1947 16-02-2014 18:30:00 6.1 C 85 % 3.77 C
1948 16-02-2014 18:35:00 6.1 C 86 % 3.94 C
1949 16-02-2014 18:40:00 5.9 C 86 % 3.74 C
1950 16-02-2014 18:45:00 5.7 C 87 % 3.71 C
Sensor: Nr:Datum:Temp:Feuchte:Taupunkt:
Aussen-T/F 1951 16-02-2014 18:50:00 5.6 C 87 % 3.61 C
1952 16-02-2014 18:55:00 5.5 C 88 % 3.67 C
1953 16-02-2014 19:00:00 5.4 C 88 % 3.58 C
1954 16-02-2014 19:05:00 5.3 C 89 % 3.64 C
1955 16-02-2014 19:10:00 5.2 C 89 % 3.54 C
1956 16-02-2014 19:15:00 5.2 C 89 % 3.54 C
1957 16-02-2014 19:20:00 5.2 C 89 % 3.54 C
1958 16-02-2014 19:25:00 5.4 C 88 % 3.58 C
1959 16-02-2014 19:30:00 5.4 C 88 % 3.58 C
1960 16-02-2014 19:35:00 5.3 C 88 % 3.48 C
1961 16-02-2014 19:40:00 5.2 C 88 % 3.38 C
1962 16-02-2014 19:45:00 5.2 C 88 % 3.38 C
1963 16-02-2014 19:50:00 5.1 C 88 % 3.28 C
1964 16-02-2014 19:55:00 5 C 89 % 3.34 C
1965 16-02-2014 20:00:00 4.9 C 89 % 3.24 C
1966 16-02-2014 20:05:00 4.8 C 89 % 3.14 C
1967 16-02-2014 20:10:00 4.7 C 89 % 3.05 C
1968 16-02-2014 20:15:00 4.7 C 90 % 3.2 C
1969 16-02-2014 20:20:00 4.7 C 90 % 3.2 C
1970 16-02-2014 20:25:00 4.6 C 90 % 3.1 C
1971 16-02-2014 20:30:00 4.5 C 90 % 3.01 C
1972 16-02-2014 20:35:00 4.4 C 90 % 2.91 C
1973 16-02-2014 20:40:00 4.3 C 90 % 2.81 C
1974 16-02-2014 20:45:00 4.2 C 91 % 2.87 C
1975 16-02-2014 20:50:00 4.1 C 91 % 2.77 C
Sensor: Nr:Datum:Temp:Feuchte:Taupunkt:
Aussen-T/F 1976 16-02-2014 20:55:00 4.1 C 91 % 2.77 C
1977 16-02-2014 21:00:00 4 C 91 % 2.67 C
1978 16-02-2014 21:05:00 3.9 C 92 % 2.72 C
1979 16-02-2014 21:10:00 3.9 C 92 % 2.72 C
1980 16-02-2014 21:15:00 3.8 C 92 % 2.62 C
1981 16-02-2014 21:20:00 3.9 C 92 % 2.72 C
1982 16-02-2014 21:25:00 3.9 C 92 % 2.72 C
1983 16-02-2014 21:30:00 3.9 C 92 % 2.72 C
1984 16-02-2014 21:35:00 3.9 C 92 % 2.72 C
1985 16-02-2014 21:40:00 3.8 C 92 % 2.62 C
1986 16-02-2014 21:45:00 3.8 C 92 % 2.62 C
1987 16-02-2014 21:50:00 3.8 C 92 % 2.62 C
1988 16-02-2014 21:55:00 3.8 C 92 % 2.62 C
1989 16-02-2014 22:00:00 3.8 C 92 % 2.62 C
1990 16-02-2014 22:05:00 3.8 C 92 % 2.62 C
1991 16-02-2014 22:10:00 3.8 C 91 % 2.47 C
1992 16-02-2014 22:15:00 3.8 C 91 % 2.47 C
1993 16-02-2014 22:20:00 3.9 C 90 % 2.41 C
1994 16-02-2014 22:25:00 3.8 C 90 % 2.31 C
1995 16-02-2014 22:30:00 3.8 C 90 % 2.31 C
1996 16-02-2014 22:35:00 3.9 C 90 % 2.41 C
1997 16-02-2014 22:40:00 3.8 C 90 % 2.31 C
1998 16-02-2014 22:45:00 3.8 C 90 % 2.31 C
1999 16-02-2014 22:50:00 3.8 C 90 % 2.31 C
2000 16-02-2014 22:55:00 3.8 C 90 % 2.31 C
Sensor: Nr:Datum:Temp:Feuchte:Taupunkt:
Aussen-T/F 2001 16-02-2014 23:00:00 3.8 C 90 % 2.31 C
2002 16-02-2014 23:05:00 3.7 C 90 % 2.22 C
2003 16-02-2014 23:10:00 3.5 C 90 % 2.02 C
2004 16-02-2014 23:15:00 3.4 C 91 % 2.07 C
2005 16-02-2014 23:20:00 3.3 C 91 % 1.98 C
2006 16-02-2014 23:25:00 3.3 C 91 % 1.98 C
2007 16-02-2014 23:30:00 3.3 C 91 % 1.98 C
2008 16-02-2014 23:35:00 3.3 C 91 % 1.98 C
2009 16-02-2014 23:40:00 3.3 C 91 % 1.98 C
2010 16-02-2014 23:45:00 3.2 C 91 % 1.88 C
2011 16-02-2014 23:50:00 3.1 C 92 % 1.93 C
2012 16-02-2014 23:55:00 3 C 92 % 1.83 C
2013 17-02-2014 00:00:00 3 C 92 % 1.83 C
2014 17-02-2014 00:05:00 3 C 93 % 1.98 C
2015 17-02-2014 00:10:00 3.1 C 93 % 2.08 C
2016 17-02-2014 00:15:00 3.1 C 92 % 1.93 C
2017 17-02-2014 00:20:00 3.1 C 92 % 1.93 C
2018 17-02-2014 00:25:00 3.1 C 92 % 1.93 C
2019 17-02-2014 00:30:00 2.9 C 92 % 1.73 C
2020 17-02-2014 00:35:00 2.8 C 91 % 1.48 C
2021 17-02-2014 00:40:00 2.6 C 92 % 1.43 C
2022 17-02-2014 00:45:00 2.4 C 92 % 1.24 C
2023 17-02-2014 00:50:00 2.2 C 92 % 1.04 C
2024 17-02-2014 00:55:00 2 C 92 % 0.84 C
2025 17-02-2014 01:00:00 1.9 C 93 % 0.89 C
Sensor: Nr:Datum:Temp:Feuchte:Taupunkt:
Aussen-T/F 2026 17-02-2014 01:05:00 1.8 C 93 % 0.79 C
2027 17-02-2014 01:10:00 1.8 C 94 % 0.94 C
2028 17-02-2014 01:15:00 1.8 C 94 % 0.94 C
2029 17-02-2014 01:20:00 1.8 C 94 % 0.94 C
2030 17-02-2014 01:25:00 1.8 C 94 % 0.94 C
2031 17-02-2014 01:30:00 1.7 C 94 % 0.84 C
2032 17-02-2014 01:35:00 1.6 C 94 % 0.74 C
2033 17-02-2014 01:40:00 1.6 C 94 % 0.74 C
2034 17-02-2014 01:45:00 1.5 C 94 % 0.64 C
2035 17-02-2014 01:50:00 1.5 C 94 % 0.64 C
2036 17-02-2014 01:55:00 1.5 C 95 % 0.79 C
2037 17-02-2014 02:00:00 1.5 C 95 % 0.79 C
2038 17-02-2014 02:05:00 1.4 C 95 % 0.69 C
2039 17-02-2014 02:10:00 1.4 C 95 % 0.69 C
2040 17-02-2014 02:15:00 1.3 C 95 % 0.59 C
2041 17-02-2014 02:20:00 1.3 C 95 % 0.59 C
2042 17-02-2014 02:25:00 1.3 C 95 % 0.59 C
2043 17-02-2014 02:30:00 1.2 C 95 % 0.49 C
2044 17-02-2014 02:35:00 1.2 C 95 % 0.49 C
2045 17-02-2014 02:40:00 1.2 C 95 % 0.49 C
2046 17-02-2014 02:45:00 1.1 C 95 % 0.39 C
2047 17-02-2014 02:50:00 1.1 C 95 % 0.39 C
2048 17-02-2014 02:55:00 0.9 C 95 % 0.19 C
2049 17-02-2014 03:00:00 0.8 C 95 % 0.09 C
2050 17-02-2014 03:05:00 0.7 C 95 % -0.01 C
Sensor: Nr:Datum:Temp:Feuchte:Taupunkt:
Aussen-T/F 2051 17-02-2014 03:10:00 0.7 C 95 % -0.01 C
2052 17-02-2014 03:15:00 0.7 C 95 % -0.01 C
2053 17-02-2014 03:20:00 0.7 C 95 % -0.01 C
2054 17-02-2014 03:25:00 0.6 C 95 % -0.11 C
2055 17-02-2014 03:30:00 0.6 C 95 % -0.11 C
2056 17-02-2014 03:35:00 0.5 C 95 % -0.21 C
2057 17-02-2014 03:40:00 0.4 C 95 % -0.31 C
2058 17-02-2014 03:45:00 0.4 C 95 % -0.31 C
2059 17-02-2014 03:50:00 0.3 C 96 % -0.26 C
2060 17-02-2014 03:55:00 0.3 C 96 % -0.26 C
2061 17-02-2014 04:00:00 0.3 C 96 % -0.26 C
2062 17-02-2014 04:05:00 0.2 C 96 % -0.36 C
2063 17-02-2014 04:10:00 0.2 C 96 % -0.36 C
2064 17-02-2014 04:15:00 0.2 C 96 % -0.36 C
2065 17-02-2014 04:20:00 0.2 C 96 % -0.36 C
2066 17-02-2014 04:25:00 0.2 C 96 % -0.36 C
2067 17-02-2014 04:30:00 0.2 C 96 % -0.36 C
2068 17-02-2014 04:35:00 0.1 C 96 % -0.46 C
2069 17-02-2014 04:40:00 0.1 C 96 % -0.46 C
2070 17-02-2014 04:45:00 0.1 C 96 % -0.46 C
2071 17-02-2014 04:50:00 0.1 C 96 % -0.46 C
2072 17-02-2014 04:55:00 0.1 C 96 % -0.46 C
2073 17-02-2014 05:00:00 0.1 C 96 % -0.46 C
2074 17-02-2014 05:05:00 0.1 C 96 % -0.46 C
2075 17-02-2014 05:10:00 0 C 96 % -0.56 C
Sensor: Nr:Datum:Temp:Feuchte:Taupunkt:
Aussen-T/F 2076 17-02-2014 05:15:00 0 C 96 % -0.56 C
2077 17-02-2014 05:20:00 0 C 96 % -0.56 C
2078 17-02-2014 05:25:00 -0.1 C 96 % -0.66 C
2079 17-02-2014 05:30:00 -0.1 C 96 % -0.66 C
2080 17-02-2014 05:35:00 -0.1 C 96 % -0.66 C
2081 17-02-2014 05:40:00 -0.2 C 96 % -0.76 C
2082 17-02-2014 05:45:00 -0.1 C 96 % -0.66 C
2083 17-02-2014 05:50:00 -0.1 C 96 % -0.66 C
2084 17-02-2014 05:55:00 0 C 96 % -0.56 C
2085 17-02-2014 06:00:00 0.1 C 97 % -0.32 C
2086 17-02-2014 06:05:00 0.2 C 96 % -0.36 C
2087 17-02-2014 06:10:00 0.2 C 96 % -0.36 C
2088 17-02-2014 06:15:00 0.1 C 96 % -0.46 C
2089 17-02-2014 06:20:00 0.2 C 96 % -0.36 C
2090 17-02-2014 06:25:00 0.1 C 96 % -0.46 C
2091 17-02-2014 06:30:00 0.1 C 96 % -0.46 C
2092 17-02-2014 06:35:00 0 C 97 % -0.42 C
2093 17-02-2014 06:40:00 0.1 C 97 % -0.32 C
2094 17-02-2014 06:45:00 0.1 C 97 % -0.32 C
2095 17-02-2014 06:50:00 0.2 C 97 % -0.22 C
2096 17-02-2014 06:55:00 0.2 C 97 % -0.22 C
2097 17-02-2014 07:00:00 0.2 C 97 % -0.22 C
2098 17-02-2014 07:05:00 0.2 C 97 % -0.22 C
2099 17-02-2014 07:10:00 0.3 C 97 % -0.12 C
2100 17-02-2014 07:15:00 0.3 C 97 % -0.12 C
Sensor: Nr:Datum:Temp:Feuchte:Taupunkt:
Aussen-T/F 2101 17-02-2014 07:20:00 0.3 C 97 % -0.12 C
2102 17-02-2014 07:25:00 0.4 C 97 % -0.02 C
2103 17-02-2014 07:30:00 0.6 C 97 % 0.18 C
2104 17-02-2014 07:35:00 0.6 C 97 % 0.18 C
2105 17-02-2014 07:40:00 0.7 C 97 % 0.28 C
2106 17-02-2014 07:45:00 0.7 C 97 % 0.28 C
2107 17-02-2014 07:50:00 0.8 C 97 % 0.38 C
2108 17-02-2014 07:55:00 0.8 C 97 % 0.38 C
2109 17-02-2014 08:00:00 0.9 C 97 % 0.48 C
2110 17-02-2014 08:05:00 0.9 C 97 % 0.48 C
2111 17-02-2014 08:10:00 1 C 97 % 0.58 C
2112 17-02-2014 08:15:00 1.1 C 97 % 0.68 C
2113 17-02-2014 08:20:00 1.1 C 97 % 0.68 C
2114 17-02-2014 08:25:00 1.2 C 97 % 0.78 C
2115 17-02-2014 08:30:00 1.3 C 97 % 0.88 C
2116 17-02-2014 08:35:00 1.3 C 97 % 0.88 C
2117 17-02-2014 08:40:00 1.3 C 97 % 0.88 C
2118 17-02-2014 08:45:00 1.5 C 97 % 1.08 C
2119 17-02-2014 08:50:00 1.7 C 97 % 1.28 C
2120 17-02-2014 08:55:00 1.7 C 97 % 1.28 C
2121 17-02-2014 09:00:00 1.8 C 97 % 1.38 C
2122 17-02-2014 09:05:00 1.8 C 97 % 1.38 C
2123 17-02-2014 09:10:00 1.9 C 97 % 1.48 C
2124 17-02-2014 09:15:00 1.9 C 97 % 1.48 C
2125 17-02-2014 09:20:00 2.1 C 97 % 1.67 C
Sensor: Nr:Datum:Temp:Feuchte:Taupunkt:
Aussen-T/F 2126 17-02-2014 09:25:00 2.2 C 97 % 1.77 C
2127 17-02-2014 09:30:00 2.3 C 97 % 1.87 C
2128 17-02-2014 09:35:00 2.4 C 97 % 1.97 C
2129 17-02-2014 09:40:00 2.5 C 97 % 2.07 C
2130 17-02-2014 09:45:00 2.6 C 97 % 2.17 C
2131 17-02-2014 09:50:00 2.7 C 97 % 2.27 C
2132 17-02-2014 09:55:00 2.7 C 97 % 2.27 C
2133 17-02-2014 10:00:00 2.8 C 97 % 2.37 C
2134 17-02-2014 10:05:00 2.8 C 97 % 2.37 C
2135 17-02-2014 10:10:00 2.9 C 97 % 2.47 C
2136 17-02-2014 10:15:00 3.1 C 97 % 2.67 C
2137 17-02-2014 10:20:00 3.3 C 97 % 2.87 C
2138 17-02-2014 10:25:00 3.5 C 97 % 3.07 C
2139 17-02-2014 10:30:00 3.6 C 97 % 3.17 C
2140 17-02-2014 10:35:00 3.8 C 97 % 3.37 C
2141 17-02-2014 10:40:00 3.9 C 96 % 3.32 C
2142 17-02-2014 10:45:00 4.1 C 96 % 3.52 C
2143 17-02-2014 10:50:00 4.2 C 96 % 3.62 C
2144 17-02-2014 10:55:00 4.2 C 95 % 3.47 C
2145 17-02-2014 11:00:00 4.3 C 95 % 3.57 C
2146 17-02-2014 11:05:00 4.3 C 95 % 3.57 C
2147 17-02-2014 11:10:00 4.4 C 94 % 3.52 C
2148 17-02-2014 11:15:00 4.6 C 94 % 3.72 C
2149 17-02-2014 11:20:00 4.7 C 94 % 3.82 C
2150 17-02-2014 11:25:00 4.9 C 94 % 4.02 C
Sensor: Nr:Datum:Temp:Feuchte:Taupunkt:
Aussen-T/F 2151 17-02-2014 11:30:00 5.1 C 94 % 4.22 C
2152 17-02-2014 11:35:00 5.2 C 94 % 4.32 C
2153 17-02-2014 11:40:00 5.4 C 93 % 4.36 C
2154 17-02-2014 11:45:00 5.5 C 93 % 4.46 C
2155 17-02-2014 11:50:00 5.7 C 92 % 4.5 C
2156 17-02-2014 11:55:00 5.8 C 92 % 4.6 C
2157 17-02-2014 12:00:00 6.1 C 91 % 4.74 C
2158 17-02-2014 12:05:00 6.4 C 91 % 5.04 C
2159 17-02-2014 12:10:00 6.7 C 89 % 5.02 C
2160 17-02-2014 12:15:00 6.8 C 89 % 5.12 C
2161 17-02-2014 12:20:00 6.9 C 88 % 5.05 C
2162 17-02-2014 12:25:00 7 C 88 % 5.15 C
2163 17-02-2014 12:30:00 7.1 C 87 % 5.09 C
2164 17-02-2014 12:35:00 7.1 C 87 % 5.09 C
2165 17-02-2014 12:40:00 7.2 C 87 % 5.19 C
2166 17-02-2014 12:45:00 7.2 C 87 % 5.19 C
2167 17-02-2014 12:50:00 7.3 C 86 % 5.12 C
2168 17-02-2014 12:55:00 7.4 C 86 % 5.22 C
2169 17-02-2014 13:00:00 7.4 C 86 % 5.22 C
2170 17-02-2014 13:05:00 7.4 C 85 % 5.05 C
2171 17-02-2014 13:10:00 7.4 C 85 % 5.05 C
2172 17-02-2014 13:15:00 7.4 C 84 % 4.88 C
2173 17-02-2014 13:20:00 7.4 C 84 % 4.88 C
2174 17-02-2014 13:25:00 7.6 C 83 % 4.9 C
2175 17-02-2014 13:30:00 7.6 C 84 % 5.07 C
Sensor: Nr:Datum:Temp:Feuchte:Taupunkt:
Aussen-T/F 2176 17-02-2014 13:35:00 7.8 C 83 % 5.1 C
2177 17-02-2014 13:40:00 7.9 C 82 % 5.02 C
2178 17-02-2014 13:45:00 7.9 C 82 % 5.02 C
2179 17-02-2014 13:50:00 8 C 82 % 5.12 C
2180 17-02-2014 13:55:00 8.1 C 82 % 5.22 C
2181 17-02-2014 14:00:00 8.2 C 81 % 5.14 C
2182 17-02-2014 14:05:00 8.3 C 82 % 5.41 C
2183 17-02-2014 14:10:00 8.5 C 81 % 5.43 C
2184 17-02-2014 14:15:00 8.6 C 80 % 5.35 C
2185 17-02-2014 14:20:00 8.6 C 79 % 5.17 C
2186 17-02-2014 14:25:00 8.7 C 79 % 5.27 C
2187 17-02-2014 14:30:00 8.7 C 79 % 5.27 C
2188 17-02-2014 14:35:00 8.8 C 78 % 5.18 C
2189 17-02-2014 14:40:00 8.9 C 77 % 5.09 C
2190 17-02-2014 14:45:00 9 C 76 % 5 C
2191 17-02-2014 14:50:00 9.1 C 76 % 5.1 C
2192 17-02-2014 14:55:00 9.2 C 76 % 5.2 C
2193 17-02-2014 15:00:00 9.2 C 76 % 5.2 C
2194 17-02-2014 15:05:00 9.3 C 76 % 5.29 C
2195 17-02-2014 15:10:00 9.3 C 75 % 5.1 C
2196 17-02-2014 15:15:00 9.5 C 75 % 5.3 C
2197 17-02-2014 15:20:00 9.6 C 75 % 5.39 C
2198 17-02-2014 15:25:00 9.4 C 75 % 5.2 C
2199 17-02-2014 15:30:00 9.4 C 74 % 5.01 C
2200 17-02-2014 15:35:00 9.4 C 74 % 5.01 C
Sensor: Nr:Datum:Temp:Feuchte:Taupunkt:
Aussen-T/F 2201 17-02-2014 15:40:00 9.4 C 74 % 5.01 C
2202 17-02-2014 15:45:00 9.4 C 75 % 5.2 C
2203 17-02-2014 15:50:00 9.2 C 75 % 5.01 C
2204 17-02-2014 15:55:00 9.2 C 75 % 5.01 C
2205 17-02-2014 16:00:00 9.1 C 75 % 4.91 C
2206 17-02-2014 16:05:00 9 C 75 % 4.81 C
2207 17-02-2014 16:10:00 9 C 75 % 4.81 C
2208 17-02-2014 16:15:00 9 C 77 % 5.19 C
2209 17-02-2014 16:20:00 8.9 C 77 % 5.09 C
2210 17-02-2014 16:25:00 8.9 C 76 % 4.91 C
2211 17-02-2014 16:30:00 8.8 C 78 % 5.18 C
2212 17-02-2014 16:35:00 8.6 C 80 % 5.35 C
2213 17-02-2014 16:40:00 8.3 C 81 % 5.24 C
2214 17-02-2014 16:45:00 8.1 C 82 % 5.22 C
2215 17-02-2014 16:50:00 7.8 C 83 % 5.1 C
2216 17-02-2014 16:55:00 7.6 C 84 % 5.07 C
2217 17-02-2014 17:00:00 7.3 C 85 % 4.95 C
2218 17-02-2014 17:05:00 7.2 C 86 % 5.02 C
2219 17-02-2014 17:10:00 7 C 86 % 4.82 C
2220 17-02-2014 17:15:00 6.9 C 86 % 4.72 C
2221 17-02-2014 17:20:00 6.8 C 86 % 4.63 C
2222 17-02-2014 17:25:00 6.7 C 87 % 4.69 C
2223 17-02-2014 17:30:00 6.5 C 87 % 4.5 C
2224 17-02-2014 17:35:00 6.3 C 88 % 4.46 C
2225 17-02-2014 17:40:00 6.2 C 88 % 4.36 C
Sensor: Nr:Datum:Temp:Feuchte:Taupunkt:
Aussen-T/F 2226 17-02-2014 17:45:00 5.9 C 88 % 4.07 C
2227 17-02-2014 17:50:00 5.8 C 89 % 4.13 C
2228 17-02-2014 17:55:00 5.6 C 89 % 3.93 C
2229 17-02-2014 18:00:00 5.4 C 90 % 3.89 C
2230 17-02-2014 18:05:00 5.3 C 90 % 3.8 C
2231 17-02-2014 18:10:00 5.2 C 91 % 3.85 C
2232 17-02-2014 18:15:00 5.2 C 91 % 3.85 C
2233 17-02-2014 18:20:00 5.1 C 91 % 3.76 C
2234 17-02-2014 18:25:00 5.1 C 92 % 3.91 C
2235 17-02-2014 18:30:00 5 C 92 % 3.81 C
2236 17-02-2014 18:35:00 5 C 92 % 3.81 C
2237 17-02-2014 18:40:00 4.9 C 92 % 3.71 C
2238 17-02-2014 18:45:00 4.8 C 92 % 3.61 C
2239 17-02-2014 18:50:00 4.7 C 92 % 3.51 C
2240 17-02-2014 18:55:00 4.7 C 93 % 3.67 C
2241 17-02-2014 19:00:00 4.6 C 92 % 3.42 C
2242 17-02-2014 19:05:00 4.4 C 92 % 3.22 C
2243 17-02-2014 19:10:00 4.4 C 93 % 3.37 C
2244 17-02-2014 19:15:00 4.5 C 93 % 3.47 C
2245 17-02-2014 19:20:00 4.4 C 93 % 3.37 C
2246 17-02-2014 19:25:00 4.3 C 93 % 3.27 C
2247 17-02-2014 19:30:00 4.2 C 93 % 3.17 C
2248 17-02-2014 19:35:00 4.1 C 93 % 3.07 C
2249 17-02-2014 19:40:00 4.1 C 93 % 3.07 C
2250 17-02-2014 19:45:00 3.9 C 93 % 2.87 C
Sensor: Nr:Datum:Temp:Feuchte:Taupunkt:
Aussen-T/F 2251 17-02-2014 19:50:00 3.9 C 94 % 3.02 C
2252 17-02-2014 19:55:00 3.8 C 94 % 2.93 C
2253 17-02-2014 20:00:00 3.8 C 94 % 2.93 C
2254 17-02-2014 20:05:00 3.8 C 94 % 2.93 C
2255 17-02-2014 20:10:00 3.8 C 94 % 2.93 C
2256 17-02-2014 20:15:00 3.8 C 95 % 3.07 C
2257 17-02-2014 20:20:00 3.8 C 94 % 2.93 C
2258 17-02-2014 20:25:00 3.8 C 94 % 2.93 C
2259 17-02-2014 20:30:00 3.7 C 94 % 2.83 C
2260 17-02-2014 20:35:00 3.6 C 94 % 2.73 C
2261 17-02-2014 20:40:00 3.6 C 94 % 2.73 C
2262 17-02-2014 20:45:00 3.5 C 94 % 2.63 C
2263 17-02-2014 20:50:00 3.4 C 94 % 2.53 C
2264 17-02-2014 20:55:00 3.3 C 94 % 2.43 C
2265 17-02-2014 21:00:00 3.3 C 94 % 2.43 C
2266 17-02-2014 21:05:00 3.3 C 95 % 2.58 C
2267 17-02-2014 21:10:00 3.2 C 95 % 2.48 C
2268 17-02-2014 21:15:00 3.2 C 95 % 2.48 C
2269 17-02-2014 21:20:00 3.1 C 94 % 2.23 C
2270 17-02-2014 21:25:00 3 C 94 % 2.13 C
2271 17-02-2014 21:30:00 2.9 C 95 % 2.18 C
2272 17-02-2014 21:35:00 2.8 C 94 % 1.93 C
2273 17-02-2014 21:40:00 2.7 C 94 % 1.83 C
2274 17-02-2014 21:45:00 2.7 C 95 % 1.98 C
2275 17-02-2014 21:50:00 2.7 C 95 % 1.98 C
Sensor: Nr:Datum:Temp:Feuchte:Taupunkt:
Aussen-T/F 2276 17-02-2014 21:55:00 2.5 C 95 % 1.78 C
2277 17-02-2014 22:00:00 2.4 C 95 % 1.68 C
2278 17-02-2014 22:05:00 2.3 C 95 % 1.58 C
2279 17-02-2014 22:10:00 2.2 C 95 % 1.48 C
2280 17-02-2014 22:15:00 2.2 C 95 % 1.48 C
2281 17-02-2014 22:20:00 2.1 C 95 % 1.38 C
2282 17-02-2014 22:25:00 2.1 C 95 % 1.38 C
2283 17-02-2014 22:30:00 2 C 95 % 1.29 C
2284 17-02-2014 22:35:00 2.1 C 95 % 1.38 C
2285 17-02-2014 22:40:00 2 C 96 % 1.43 C
2286 17-02-2014 22:45:00 2 C 96 % 1.43 C
2287 17-02-2014 22:50:00 1.9 C 96 % 1.33 C
2288 17-02-2014 22:55:00 1.8 C 96 % 1.23 C
2289 17-02-2014 23:00:00 1.8 C 95 % 1.09 C
2290 17-02-2014 23:05:00 1.7 C 96 % 1.13 C
2291 17-02-2014 23:10:00 1.7 C 96 % 1.13 C
2292 17-02-2014 23:15:00 1.7 C 96 % 1.13 C
2293 17-02-2014 23:20:00 1.6 C 96 % 1.03 C
2294 17-02-2014 23:25:00 1.5 C 96 % 0.93 C
2295 17-02-2014 23:30:00 1.5 C 96 % 0.93 C
2296 17-02-2014 23:35:00 1.6 C 96 % 1.03 C
2297 17-02-2014 23:40:00 1.6 C 96 % 1.03 C
2298 17-02-2014 23:45:00 1.6 C 96 % 1.03 C
2299 17-02-2014 23:50:00 1.6 C 96 % 1.03 C
2300 17-02-2014 23:55:00 1.6 C 96 % 1.03 C
Sensor: Nr:Datum:Temp:Feuchte:Taupunkt:
Aussen-T/F 2301 18-02-2014 00:00:00 1.5 C 96 % 0.93 C
2302 18-02-2014 00:05:00 1.5 C 96 % 0.93 C
2303 18-02-2014 00:10:00 1.5 C 96 % 0.93 C
2304 18-02-2014 00:15:00 1.4 C 96 % 0.83 C
2305 18-02-2014 00:20:00 1.4 C 96 % 0.83 C
2306 18-02-2014 00:25:00 1.3 C 96 % 0.73 C
2307 18-02-2014 00:30:00 1.3 C 96 % 0.73 C
2308 18-02-2014 00:35:00 1.2 C 96 % 0.63 C
2309 18-02-2014 00:40:00 1.2 C 96 % 0.63 C
2310 18-02-2014 00:45:00 1.1 C 96 % 0.54 C
2311 18-02-2014 00:50:00 1.1 C 96 % 0.54 C
2312 18-02-2014 00:55:00 1.1 C 96 % 0.54 C
2313 18-02-2014 01:00:00 1.1 C 96 % 0.54 C
2314 18-02-2014 01:05:00 1.1 C 96 % 0.54 C
2315 18-02-2014 01:10:00 1 C 96 % 0.44 C
2316 18-02-2014 01:15:00 1 C 96 % 0.44 C
2317 18-02-2014 01:20:00 0.9 C 96 % 0.34 C
2318 18-02-2014 01:25:00 0.9 C 96 % 0.34 C
2319 18-02-2014 01:30:00 0.8 C 96 % 0.24 C
2320 18-02-2014 01:35:00 0.8 C 96 % 0.24 C
2321 18-02-2014 01:40:00 0.8 C 96 % 0.24 C
2322 18-02-2014 01:45:00 0.8 C 96 % 0.24 C
2323 18-02-2014 01:50:00 0.8 C 97 % 0.38 C
2324 18-02-2014 01:55:00 0.8 C 96 % 0.24 C
2325 18-02-2014 02:00:00 0.8 C 97 % 0.38 C
Sensor: Nr:Datum:Temp:Feuchte:Taupunkt:
Aussen-T/F 2326 18-02-2014 02:05:00 0.8 C 97 % 0.38 C
2327 18-02-2014 02:10:00 0.8 C 97 % 0.38 C
2328 18-02-2014 02:15:00 0.8 C 97 % 0.38 C
2329 18-02-2014 02:20:00 0.7 C 97 % 0.28 C
2330 18-02-2014 02:25:00 0.7 C 97 % 0.28 C
2331 18-02-2014 02:30:00 0.7 C 97 % 0.28 C
2332 18-02-2014 02:35:00 0.7 C 97 % 0.28 C
2333 18-02-2014 02:40:00 0.6 C 97 % 0.18 C
2334 18-02-2014 02:45:00 0.5 C 96 % -0.06 C
2335 18-02-2014 02:50:00 0.5 C 97 % 0.08 C
2336 18-02-2014 02:55:00 0.5 C 97 % 0.08 C
2337 18-02-2014 03:00:00 0.6 C 97 % 0.18 C
2338 18-02-2014 03:05:00 0.6 C 97 % 0.18 C
2339 18-02-2014 03:10:00 0.6 C 97 % 0.18 C
2340 18-02-2014 03:15:00 0.6 C 97 % 0.18 C
2341 18-02-2014 03:20:00 0.6 C 97 % 0.18 C
2342 18-02-2014 03:25:00 0.6 C 97 % 0.18 C
2343 18-02-2014 03:30:00 0.6 C 97 % 0.18 C
2344 18-02-2014 03:35:00 0.5 C 97 % 0.08 C
2345 18-02-2014 03:40:00 0.5 C 97 % 0.08 C
2346 18-02-2014 03:45:00 0.4 C 97 % -0.02 C
2347 18-02-2014 03:50:00 0.3 C 97 % -0.12 C
2348 18-02-2014 03:55:00 0.3 C 97 % -0.12 C
2349 18-02-2014 04:00:00 0.3 C 97 % -0.12 C
2350 18-02-2014 04:05:00 0.3 C 97 % -0.12 C
Sensor: Nr:Datum:Temp:Feuchte:Taupunkt:
Aussen-T/F 2351 18-02-2014 04:10:00 0.3 C 97 % -0.12 C
2352 18-02-2014 04:15:00 0.4 C 97 % -0.02 C
2353 18-02-2014 04:20:00 0.4 C 97 % -0.02 C
2354 18-02-2014 04:25:00 0.4 C 97 % -0.02 C
2355 18-02-2014 04:30:00 0.5 C 97 % 0.08 C
2356 18-02-2014 04:35:00 0.5 C 97 % 0.08 C
2357 18-02-2014 04:40:00 0.5 C 97 % 0.08 C
2358 18-02-2014 04:45:00 0.5 C 97 % 0.08 C
2359 18-02-2014 04:50:00 0.5 C 97 % 0.08 C
2360 18-02-2014 04:55:00 0.5 C 97 % 0.08 C
2361 18-02-2014 05:00:00 0.4 C 97 % -0.02 C
2362 18-02-2014 05:05:00 0.4 C 97 % -0.02 C
2363 18-02-2014 05:10:00 0.3 C 97 % -0.12 C
2364 18-02-2014 05:15:00 0.3 C 97 % -0.12 C
2365 18-02-2014 05:20:00 0.3 C 97 % -0.12 C
2366 18-02-2014 05:25:00 0.3 C 97 % -0.12 C
2367 18-02-2014 05:30:00 0.3 C 97 % -0.12 C
2368 18-02-2014 05:35:00 0.3 C 97 % -0.12 C
2369 18-02-2014 05:40:00 0.3 C 97 % -0.12 C
2370 18-02-2014 05:45:00 0.3 C 97 % -0.12 C
2371 18-02-2014 05:50:00 0.3 C 97 % -0.12 C
2372 18-02-2014 05:55:00 0.3 C 97 % -0.12 C
2373 18-02-2014 06:00:00 0.3 C 97 % -0.12 C
2374 18-02-2014 06:05:00 0.3 C 97 % -0.12 C
2375 18-02-2014 06:10:00 0.2 C 97 % -0.22 C
Sensor: Nr:Datum:Temp:Feuchte:Taupunkt:
Aussen-T/F 2376 18-02-2014 06:15:00 0.2 C 97 % -0.22 C
2377 18-02-2014 06:20:00 0.2 C 97 % -0.22 C
2378 18-02-2014 06:25:00 0.2 C 97 % -0.22 C
2379 18-02-2014 06:30:00 0.2 C 97 % -0.22 C
2380 18-02-2014 06:35:00 0.2 C 97 % -0.22 C
2381 18-02-2014 06:40:00 0.2 C 97 % -0.22 C
2382 18-02-2014 06:45:00 0.2 C 97 % -0.22 C
2383 18-02-2014 06:50:00 0.2 C 97 % -0.22 C
2384 18-02-2014 06:55:00 0.2 C 97 % -0.22 C
2385 18-02-2014 07:00:00 0.2 C 97 % -0.22 C
2386 18-02-2014 07:05:00 0.2 C 97 % -0.22 C
2387 18-02-2014 07:10:00 0.2 C 97 % -0.22 C
2388 18-02-2014 07:15:00 0.2 C 97 % -0.22 C
2389 18-02-2014 07:20:00 0.2 C 97 % -0.22 C
2390 18-02-2014 07:25:00 0.1 C 97 % -0.32 C
2391 18-02-2014 07:30:00 0.1 C 97 % -0.32 C
2392 18-02-2014 07:35:00 0 C 97 % -0.42 C
2393 18-02-2014 07:40:00 0 C 97 % -0.42 C
2394 18-02-2014 07:45:00 0 C 97 % -0.42 C
2395 18-02-2014 07:50:00 0 C 97 % -0.42 C
2396 18-02-2014 07:55:00 0 C 97 % -0.42 C
2397 18-02-2014 08:00:00 0.1 C 97 % -0.32 C
2398 18-02-2014 08:05:00 0.1 C 97 % -0.32 C
2399 18-02-2014 08:10:00 0.1 C 98 % -0.18 C
2400 18-02-2014 08:15:00 0.1 C 98 % -0.18 C
Sensor: Nr:Datum:Temp:Feuchte:Taupunkt:
Aussen-T/F 2401 18-02-2014 08:20:00 0.1 C 98 % -0.18 C
2402 18-02-2014 08:25:00 0.1 C 98 % -0.18 C
2403 18-02-2014 08:30:00 0.1 C 98 % -0.18 C
2404 18-02-2014 08:35:00 0.1 C 97 % -0.32 C
2405 18-02-2014 08:40:00 0.2 C 97 % -0.22 C
2406 18-02-2014 08:45:00 0.2 C 97 % -0.22 C
2407 18-02-2014 08:50:00 0.2 C 97 % -0.22 C
2408 18-02-2014 08:55:00 0.2 C 97 % -0.22 C
2409 18-02-2014 09:00:00 0.2 C 97 % -0.22 C
2410 18-02-2014 09:05:00 0.2 C 97 % -0.22 C
2411 18-02-2014 09:10:00 0.2 C 97 % -0.22 C
2412 18-02-2014 09:15:00 0.2 C 97 % -0.22 C
2413 18-02-2014 09:20:00 0.2 C 97 % -0.22 C
2414 18-02-2014 09:25:00 0.3 C 98 % 0.02 C
2415 18-02-2014 09:30:00 0.3 C 98 % 0.02 C
2416 18-02-2014 09:35:00 0.3 C 98 % 0.02 C
2417 18-02-2014 09:40:00 0.3 C 98 % 0.02 C
2418 18-02-2014 09:45:00 0.4 C 98 % 0.12 C
2419 18-02-2014 09:50:00 0.4 C 98 % 0.12 C
2420 18-02-2014 09:55:00 0.4 C 98 % 0.12 C
2421 18-02-2014 10:00:00 0.5 C 98 % 0.22 C
2422 18-02-2014 10:05:00 0.5 C 98 % 0.22 C
2423 18-02-2014 10:10:00 0.6 C 98 % 0.32 C
2424 18-02-2014 10:15:00 0.7 C 98 % 0.42 C
2425 18-02-2014 10:20:00 0.7 C 98 % 0.42 C
Sensor: Nr:Datum:Temp:Feuchte:Taupunkt:
Aussen-T/F 2426 18-02-2014 10:25:00 0.8 C 98 % 0.52 C
2427 18-02-2014 10:30:00 0.9 C 98 % 0.62 C
2428 18-02-2014 10:35:00 1 C 98 % 0.72 C
2429 18-02-2014 10:40:00 1.1 C 98 % 0.82 C
2430 18-02-2014 10:45:00 1.3 C 98 % 1.02 C
2431 18-02-2014 10:50:00 1.4 C 98 % 1.12 C
2432 18-02-2014 10:55:00 1.6 C 98 % 1.32 C
2433 18-02-2014 11:00:00 1.8 C 98 % 1.52 C
2434 18-02-2014 11:05:00 1.9 C 98 % 1.62 C
2435 18-02-2014 11:10:00 2.1 C 98 % 1.82 C
2436 18-02-2014 11:15:00 2.2 C 98 % 1.92 C
2437 18-02-2014 11:20:00 2.4 C 98 % 2.12 C
2438 18-02-2014 11:25:00 2.5 C 98 % 2.22 C
2439 18-02-2014 11:30:00 2.6 C 98 % 2.32 C
2440 18-02-2014 11:35:00 2.7 C 98 % 2.42 C
2441 18-02-2014 11:40:00 2.8 C 98 % 2.52 C
2442 18-02-2014 11:45:00 2.8 C 98 % 2.52 C
2443 18-02-2014 11:50:00 2.9 C 98 % 2.62 C
2444 18-02-2014 11:55:00 2.9 C 98 % 2.62 C
2445 18-02-2014 12:00:00 2.9 C 98 % 2.62 C
2446 18-02-2014 12:05:00 3 C 98 % 2.72 C
2447 18-02-2014 12:10:00 3.1 C 98 % 2.82 C
2448 18-02-2014 12:15:00 3.2 C 98 % 2.92 C
2449 18-02-2014 12:20:00 3.2 C 98 % 2.92 C
2450 18-02-2014 12:25:00 3.3 C 98 % 3.01 C
Sensor: Nr:Datum:Temp:Feuchte:Taupunkt:
Aussen-T/F 2451 18-02-2014 12:30:00 3.4 C 98 % 3.11 C
2452 18-02-2014 12:35:00 3.6 C 98 % 3.31 C
2453 18-02-2014 12:40:00 3.6 C 98 % 3.31 C
2454 18-02-2014 12:45:00 3.6 C 98 % 3.31 C
2455 18-02-2014 12:50:00 3.6 C 97 % 3.17 C
2456 18-02-2014 12:55:00 3.7 C 97 % 3.27 C
2457 18-02-2014 13:00:00 3.7 C 97 % 3.27 C
2458 18-02-2014 13:05:00 4 C 97 % 3.57 C
2459 18-02-2014 13:10:00 4.3 C 97 % 3.87 C
2460 18-02-2014 13:15:00 4.4 C 96 % 3.82 C
2461 18-02-2014 13:20:00 4.6 C 95 % 3.87 C
2462 18-02-2014 13:25:00 4.7 C 95 % 3.97 C
2463 18-02-2014 13:30:00 4.9 C 94 % 4.02 C
2464 18-02-2014 13:35:00 5.1 C 93 % 4.06 C
2465 18-02-2014 13:40:00 5.2 C 93 % 4.16 C
2466 18-02-2014 13:45:00 5.3 C 93 % 4.26 C
2467 18-02-2014 13:50:00 5.6 C 93 % 4.56 C
2468 18-02-2014 13:55:00 5.7 C 92 % 4.5 C
2469 18-02-2014 14:00:00 5.9 C 91 % 4.55 C
2470 18-02-2014 14:05:00 6 C 90 % 4.49 C
2471 18-02-2014 14:10:00 6.2 C 89 % 4.53 C
2472 18-02-2014 14:15:00 6.3 C 90 % 4.78 C
2473 18-02-2014 14:20:00 6.4 C 89 % 4.72 C
2474 18-02-2014 14:25:00 6.7 C 88 % 4.86 C
2475 18-02-2014 14:30:00 6.8 C 87 % 4.79 C
Sensor: Nr:Datum:Temp:Feuchte:Taupunkt:
Aussen-T/F 2476 18-02-2014 14:35:00 6.9 C 88 % 5.05 C
2477 18-02-2014 14:40:00 7 C 87 % 4.99 C
2478 18-02-2014 14:45:00 7.1 C 86 % 4.92 C
2479 18-02-2014 14:50:00 7.1 C 86 % 4.92 C
2480 18-02-2014 14:55:00 7.3 C 86 % 5.12 C
2481 18-02-2014 15:00:00 7.4 C 85 % 5.05 C
2482 18-02-2014 15:05:00 7.6 C 85 % 5.24 C
2483 18-02-2014 15:10:00 7.7 C 85 % 5.34 C
2484 18-02-2014 15:15:00 7.8 C 84 % 5.27 C
2485 18-02-2014 15:20:00 7.8 C 84 % 5.27 C
2486 18-02-2014 15:25:00 7.8 C 84 % 5.27 C
2487 18-02-2014 15:30:00 7.9 C 84 % 5.37 C
2488 18-02-2014 15:35:00 7.9 C 83 % 5.2 C
2489 18-02-2014 15:40:00 7.9 C 83 % 5.2 C
2490 18-02-2014 15:45:00 7.9 C 83 % 5.2 C
2491 18-02-2014 15:50:00 7.9 C 84 % 5.37 C
2492 18-02-2014 15:55:00 7.9 C 84 % 5.37 C
2493 18-02-2014 16:00:00 7.9 C 85 % 5.54 C
2494 18-02-2014 16:05:00 8 C 86 % 5.81 C
2495 18-02-2014 16:10:00 7.9 C 86 % 5.71 C
2496 18-02-2014 16:15:00 7.9 C 86 % 5.71 C
2497 18-02-2014 16:20:00 7.9 C 87 % 5.87 C
2498 18-02-2014 16:25:00 7.9 C 88 % 6.04 C
2499 18-02-2014 16:30:00 7.9 C 88 % 6.04 C
2500 18-02-2014 16:35:00 7.9 C 87 % 5.87 C
Sensor: Nr:Datum:Temp:Feuchte:Taupunkt:
Aussen-T/F 2501 18-02-2014 16:40:00 7.9 C 87 % 5.87 C
2502 18-02-2014 16:45:00 7.8 C 87 % 5.78 C
2503 18-02-2014 16:50:00 7.7 C 87 % 5.68 C
2504 18-02-2014 16:55:00 7.6 C 88 % 5.74 C
2505 18-02-2014 17:00:00 7.5 C 89 % 5.81 C
2506 18-02-2014 17:05:00 7.3 C 89 % 5.61 C
2507 18-02-2014 17:10:00 7.2 C 90 % 5.67 C
2508 18-02-2014 17:15:00 7.2 C 90 % 5.67 C
2509 18-02-2014 17:20:00 7.1 C 91 % 5.73 C
2510 18-02-2014 17:25:00 6.9 C 91 % 5.54 C
2511 18-02-2014 17:30:00 6.8 C 91 % 5.44 C
2512 18-02-2014 17:35:00 6.7 C 91 % 5.34 C
2513 18-02-2014 17:40:00 6.7 C 91 % 5.34 C
2514 18-02-2014 17:45:00 6.7 C 91 % 5.34 C
2515 18-02-2014 17:50:00 6.7 C 91 % 5.34 C
2516 18-02-2014 17:55:00 6.7 C 91 % 5.34 C
2517 18-02-2014 18:00:00 6.6 C 91 % 5.24 C
2518 18-02-2014 18:05:00 6.6 C 91 % 5.24 C
2519 18-02-2014 18:10:00 6.6 C 91 % 5.24 C
2520 18-02-2014 18:15:00 6.6 C 91 % 5.24 C
2521 18-02-2014 18:20:00 6.6 C 91 % 5.24 C
2522 18-02-2014 18:25:00 6.5 C 90 % 4.98 C
2523 18-02-2014 18:30:00 6.6 C 91 % 5.24 C
2524 18-02-2014 18:35:00 6.5 C 90 % 4.98 C
2525 18-02-2014 18:40:00 6.5 C 90 % 4.98 C
Sensor: Nr:Datum:Temp:Feuchte:Taupunkt:
Aussen-T/F 2526 18-02-2014 18:45:00 6.5 C 91 % 5.14 C
2527 18-02-2014 18:50:00 6.5 C 91 % 5.14 C
2528 18-02-2014 18:55:00 6.4 C 91 % 5.04 C
2529 18-02-2014 19:00:00 6.4 C 90 % 4.88 C
2530 18-02-2014 19:05:00 6.3 C 90 % 4.78 C
2531 18-02-2014 19:10:00 6.3 C 90 % 4.78 C
2532 18-02-2014 19:15:00 6.2 C 90 % 4.69 C
2533 18-02-2014 19:20:00 6.2 C 91 % 4.84 C
2534 18-02-2014 19:25:00 6.1 C 91 % 4.74 C
2535 18-02-2014 19:30:00 6 C 92 % 4.8 C
2536 18-02-2014 19:35:00 6 C 92 % 4.8 C
2537 18-02-2014 19:40:00 5.9 C 92 % 4.7 C
2538 18-02-2014 19:45:00 5.9 C 92 % 4.7 C
2539 18-02-2014 19:50:00 5.8 C 92 % 4.6 C
2540 18-02-2014 19:55:00 5.8 C 92 % 4.6 C
2541 18-02-2014 20:00:00 5.8 C 92 % 4.6 C
2542 18-02-2014 20:05:00 5.8 C 92 % 4.6 C
2543 18-02-2014 20:10:00 5.8 C 92 % 4.6 C
2544 18-02-2014 20:15:00 5.8 C 92 % 4.6 C
2545 18-02-2014 20:20:00 5.8 C 92 % 4.6 C
2546 18-02-2014 20:25:00 5.8 C 92 % 4.6 C
2547 18-02-2014 20:30:00 5.8 C 92 % 4.6 C
2548 18-02-2014 20:35:00 5.8 C 92 % 4.6 C
2549 18-02-2014 20:40:00 5.7 C 92 % 4.5 C
2550 18-02-2014 20:45:00 5.7 C 93 % 4.66 C
Sensor: Nr:Datum:Temp:Feuchte:Taupunkt:
Aussen-T/F 2551 18-02-2014 20:50:00 5.7 C 92 % 4.5 C
2552 18-02-2014 20:55:00 5.7 C 92 % 4.5 C
2553 18-02-2014 21:00:00 5.7 C 92 % 4.5 C
2554 18-02-2014 21:05:00 5.7 C 93 % 4.66 C
2555 18-02-2014 21:10:00 5.6 C 93 % 4.56 C
2556 18-02-2014 21:15:00 5.6 C 93 % 4.56 C
2557 18-02-2014 21:20:00 5.6 C 93 % 4.56 C
2558 18-02-2014 21:25:00 5.6 C 93 % 4.56 C
2559 18-02-2014 21:30:00 5.7 C 93 % 4.66 C
2560 18-02-2014 21:35:00 5.7 C 93 % 4.66 C
2561 18-02-2014 21:40:00 5.7 C 93 % 4.66 C
2562 18-02-2014 21:45:00 5.7 C 93 % 4.66 C
2563 18-02-2014 21:50:00 5.6 C 93 % 4.56 C
2564 18-02-2014 21:55:00 5.6 C 92 % 4.41 C
2565 18-02-2014 22:00:00 5.7 C 93 % 4.66 C
2566 18-02-2014 22:05:00 5.7 C 93 % 4.66 C
2567 18-02-2014 22:10:00 5.7 C 93 % 4.66 C
2568 18-02-2014 22:15:00 5.7 C 93 % 4.66 C
2569 18-02-2014 22:20:00 5.7 C 93 % 4.66 C
2570 18-02-2014 22:25:00 5.8 C 92 % 4.6 C
2571 18-02-2014 22:30:00 5.8 C 92 % 4.6 C
2572 18-02-2014 22:35:00 5.7 C 92 % 4.5 C
2573 18-02-2014 22:40:00 5.7 C 92 % 4.5 C
2574 18-02-2014 22:45:00 5.8 C 92 % 4.6 C
2575 18-02-2014 22:50:00 5.9 C 92 % 4.7 C
Sensor: Nr:Datum:Temp:Feuchte:Taupunkt:
Aussen-T/F 2576 18-02-2014 22:55:00 5.9 C 92 % 4.7 C
2577 18-02-2014 23:00:00 5.9 C 92 % 4.7 C
2578 18-02-2014 23:05:00 5.9 C 92 % 4.7 C
2579 18-02-2014 23:10:00 5.9 C 92 % 4.7 C
2580 18-02-2014 23:15:00 5.9 C 92 % 4.7 C
2581 18-02-2014 23:20:00 5.9 C 91 % 4.55 C
2582 18-02-2014 23:25:00 5.9 C 91 % 4.55 C
2583 18-02-2014 23:30:00 5.9 C 91 % 4.55 C
2584 18-02-2014 23:35:00 5.9 C 91 % 4.55 C
2585 18-02-2014 23:40:00 5.8 C 91 % 4.45 C
2586 18-02-2014 23:45:00 5.8 C 91 % 4.45 C
2587 18-02-2014 23:50:00 5.7 C 91 % 4.35 C
2588 18-02-2014 23:55:00 5.7 C 91 % 4.35 C
2589 19-02-2014 00:00:00 5.6 C 92 % 4.41 C
2590 19-02-2014 00:05:00 5.6 C 92 % 4.41 C
2591 19-02-2014 00:10:00 5.6 C 92 % 4.41 C
2592 19-02-2014 00:15:00 5.6 C 92 % 4.41 C
2593 19-02-2014 00:20:00 5.5 C 92 % 4.31 C
2594 19-02-2014 00:25:00 5.4 C 93 % 4.36 C
2595 19-02-2014 00:30:00 5.4 C 93 % 4.36 C
2596 19-02-2014 00:35:00 5.4 C 93 % 4.36 C
2597 19-02-2014 00:40:00 5.5 C 93 % 4.46 C
2598 19-02-2014 00:45:00 5.5 C 93 % 4.46 C
2599 19-02-2014 00:50:00 5.5 C 93 % 4.46 C
2600 19-02-2014 00:55:00 5.5 C 93 % 4.46 C
Sensor: Nr:Datum:Temp:Feuchte:Taupunkt:
Aussen-T/F 2601 19-02-2014 01:00:00 5.5 C 92 % 4.31 C
2602 19-02-2014 01:05:00 5.4 C 93 % 4.36 C
2603 19-02-2014 01:10:00 5.4 C 93 % 4.36 C
2604 19-02-2014 01:15:00 5.4 C 93 % 4.36 C
2605 19-02-2014 01:20:00 5.3 C 93 % 4.26 C
2606 19-02-2014 01:25:00 5.3 C 93 % 4.26 C
2607 19-02-2014 01:30:00 5.3 C 93 % 4.26 C
2608 19-02-2014 01:35:00 5.2 C 93 % 4.16 C
2609 19-02-2014 01:40:00 5.2 C 93 % 4.16 C
2610 19-02-2014 01:45:00 5.2 C 93 % 4.16 C
2611 19-02-2014 01:50:00 5.2 C 93 % 4.16 C
2612 19-02-2014 01:55:00 5.2 C 93 % 4.16 C
2613 19-02-2014 02:00:00 5.2 C 93 % 4.16 C
2614 19-02-2014 02:05:00 5.2 C 93 % 4.16 C
2615 19-02-2014 02:10:00 5.1 C 93 % 4.06 C
2616 19-02-2014 02:15:00 5.1 C 93 % 4.06 C
2617 19-02-2014 02:20:00 5.1 C 93 % 4.06 C
2618 19-02-2014 02:25:00 5.1 C 93 % 4.06 C
2619 19-02-2014 02:30:00 5.1 C 93 % 4.06 C
2620 19-02-2014 02:35:00 5.1 C 93 % 4.06 C
2621 19-02-2014 02:40:00 5.1 C 93 % 4.06 C
2622 19-02-2014 02:45:00 5 C 93 % 3.96 C
2623 19-02-2014 02:50:00 4.9 C 93 % 3.87 C
2624 19-02-2014 02:55:00 4.9 C 93 % 3.87 C
2625 19-02-2014 03:00:00 4.9 C 93 % 3.87 C
Sensor: Nr:Datum:Temp:Feuchte:Taupunkt:
Aussen-T/F 2626 19-02-2014 03:05:00 4.9 C 93 % 3.87 C
2627 19-02-2014 03:10:00 4.9 C 93 % 3.87 C
2628 19-02-2014 03:15:00 4.9 C 93 % 3.87 C
2629 19-02-2014 03:20:00 5.1 C 94 % 4.22 C
2630 19-02-2014 03:25:00 5.1 C 93 % 4.06 C
2631 19-02-2014 03:30:00 5.1 C 93 % 4.06 C
2632 19-02-2014 03:35:00 5.2 C 93 % 4.16 C
2633 19-02-2014 03:40:00 5.2 C 93 % 4.16 C
2634 19-02-2014 03:45:00 5.1 C 93 % 4.06 C
2635 19-02-2014 03:50:00 5.2 C 93 % 4.16 C
2636 19-02-2014 03:55:00 5.2 C 93 % 4.16 C
2637 19-02-2014 04:00:00 5.2 C 93 % 4.16 C
2638 19-02-2014 04:05:00 5.2 C 93 % 4.16 C
2639 19-02-2014 04:10:00 5.2 C 93 % 4.16 C
2640 19-02-2014 04:15:00 5.2 C 93 % 4.16 C
2641 19-02-2014 04:20:00 5.3 C 93 % 4.26 C
2642 19-02-2014 04:25:00 5.4 C 93 % 4.36 C
2643 19-02-2014 04:30:00 5.4 C 93 % 4.36 C
2644 19-02-2014 04:35:00 5.4 C 93 % 4.36 C
2645 19-02-2014 04:40:00 5.6 C 93 % 4.56 C
2646 19-02-2014 04:45:00 5.6 C 93 % 4.56 C
2647 19-02-2014 04:50:00 5.8 C 93 % 4.76 C
2648 19-02-2014 04:55:00 6.2 C 91 % 4.84 C
2649 19-02-2014 05:00:00 6.4 C 90 % 4.88 C
2650 19-02-2014 05:05:00 6.8 C 88 % 4.96 C
Sensor: Nr:Datum:Temp:Feuchte:Taupunkt:
Aussen-T/F 2651 19-02-2014 05:10:00 7.3 C 87 % 5.28 C
2652 19-02-2014 05:15:00 7.5 C 86 % 5.31 C
2653 19-02-2014 05:20:00 7.4 C 86 % 5.22 C
2654 19-02-2014 05:25:00 7.3 C 87 % 5.28 C
2655 19-02-2014 05:30:00 7.1 C 87 % 5.09 C
2656 19-02-2014 05:35:00 6.9 C 88 % 5.05 C
2657 19-02-2014 05:40:00 6.7 C 89 % 5.02 C
2658 19-02-2014 05:45:00 6.6 C 89 % 4.92 C
2659 19-02-2014 05:50:00 6.4 C 90 % 4.88 C
2660 19-02-2014 05:55:00 6.4 C 90 % 4.88 C
2661 19-02-2014 06:00:00 6.4 C 91 % 5.04 C
2662 19-02-2014 06:05:00 6.4 C 91 % 5.04 C
2663 19-02-2014 06:10:00 6.4 C 91 % 5.04 C
2664 19-02-2014 06:15:00 6.4 C 91 % 5.04 C
2665 19-02-2014 06:20:00 6.6 C 91 % 5.24 C
2666 19-02-2014 06:25:00 6.8 C 90 % 5.28 C
2667 19-02-2014 06:30:00 7.2 C 89 % 5.51 C
2668 19-02-2014 06:35:00 7.4 C 88 % 5.55 C
2669 19-02-2014 06:40:00 7.5 C 87 % 5.48 C
2670 19-02-2014 06:45:00 7.6 C 87 % 5.58 C
2671 19-02-2014 06:50:00 7.6 C 87 % 5.58 C
2672 19-02-2014 06:55:00 7.6 C 87 % 5.58 C
2673 19-02-2014 07:00:00 7.6 C 87 % 5.58 C
2674 19-02-2014 07:05:00 7.7 C 87 % 5.68 C
2675 19-02-2014 07:10:00 7.6 C 87 % 5.58 C
Sensor: Nr:Datum:Temp:Feuchte:Taupunkt:
Aussen-T/F 2676 19-02-2014 07:15:00 7.6 C 87 % 5.58 C
2677 19-02-2014 07:20:00 7.4 C 87 % 5.38 C
2678 19-02-2014 07:25:00 7.3 C 88 % 5.45 C
2679 19-02-2014 07:30:00 7.3 C 88 % 5.45 C
2680 19-02-2014 07:35:00 7.1 C 88 % 5.25 C
2681 19-02-2014 07:40:00 6.8 C 89 % 5.12 C
2682 19-02-2014 07:45:00 6.7 C 90 % 5.18 C
2683 19-02-2014 07:50:00 6.6 C 90 % 5.08 C
2684 19-02-2014 07:55:00 6.4 C 90 % 4.88 C
2685 19-02-2014 08:00:00 6.4 C 91 % 5.04 C
2686 19-02-2014 08:05:00 6.3 C 92 % 5.1 C
2687 19-02-2014 08:10:00 6.4 C 92 % 5.2 C
2688 19-02-2014 08:15:00 6.6 C 92 % 5.4 C
2689 19-02-2014 08:20:00 6.8 C 91 % 5.44 C
2690 19-02-2014 08:25:00 7 C 90 % 5.48 C
2691 19-02-2014 08:30:00 7.2 C 90 % 5.67 C
2692 19-02-2014 08:35:00 7.3 C 89 % 5.61 C
2693 19-02-2014 08:40:00 7.4 C 89 % 5.71 C
2694 19-02-2014 08:45:00 7.4 C 88 % 5.55 C
2695 19-02-2014 08:50:00 7.6 C 88 % 5.74 C
2696 19-02-2014 08:55:00 7.6 C 87 % 5.58 C
2697 19-02-2014 09:00:00 7.7 C 87 % 5.68 C
2698 19-02-2014 09:05:00 7.8 C 87 % 5.78 C
2699 19-02-2014 09:10:00 7.8 C 87 % 5.78 C
2700 19-02-2014 09:15:00 7.8 C 87 % 5.78 C
Sensor: Nr:Datum:Temp:Feuchte:Taupunkt:
Aussen-T/F 2701 19-02-2014 09:20:00 7.8 C 88 % 5.94 C
2702 19-02-2014 09:25:00 7.8 C 88 % 5.94 C
2703 19-02-2014 09:30:00 7.7 C 88 % 5.84 C
2704 19-02-2014 09:35:00 7.8 C 89 % 6.1 C
2705 19-02-2014 09:40:00 7.8 C 88 % 5.94 C
2706 19-02-2014 09:45:00 7.9 C 88 % 6.04 C
2707 19-02-2014 09:50:00 8 C 87 % 5.97 C
2708 19-02-2014 09:55:00 8.1 C 87 % 6.07 C
2709 19-02-2014 10:00:00 8.2 C 87 % 6.17 C
2710 19-02-2014 10:05:00 8.3 C 86 % 6.1 C
2711 19-02-2014 10:10:00 8.4 C 85 % 6.03 C
2712 19-02-2014 10:15:00 8.6 C 85 % 6.23 C
2713 19-02-2014 10:20:00 8.7 C 84 % 6.15 C
2714 19-02-2014 10:25:00 8.8 C 83 % 6.08 C
2715 19-02-2014 10:30:00 8.9 C 83 % 6.17 C
2716 19-02-2014 10:35:00 8.8 C 82 % 5.9 C
2717 19-02-2014 10:40:00 8.8 C 82 % 5.9 C
2718 19-02-2014 10:45:00 8.7 C 83 % 5.98 C
2719 19-02-2014 10:50:00 8.7 C 83 % 5.98 C
2720 19-02-2014 10:55:00 8.7 C 82 % 5.8 C
2721 19-02-2014 11:00:00 8.7 C 82 % 5.8 C
2722 19-02-2014 11:05:00 8.7 C 81 % 5.63 C
2723 19-02-2014 11:10:00 8.8 C 82 % 5.9 C
2724 19-02-2014 11:15:00 8.8 C 81 % 5.72 C
2725 19-02-2014 11:20:00 8.9 C 81 % 5.82 C
Sensor: Nr:Datum:Temp:Feuchte:Taupunkt:
Aussen-T/F 2726 19-02-2014 11:25:00 9 C 81 % 5.92 C
2727 19-02-2014 11:30:00 9.2 C 81 % 6.11 C
2728 19-02-2014 11:35:00 9.3 C 80 % 6.03 C
2729 19-02-2014 11:40:00 9.4 C 79 % 5.95 C
2730 19-02-2014 11:45:00 9.6 C 79 % 6.14 C
2731 19-02-2014 11:50:00 9.8 C 78 % 6.15 C
2732 19-02-2014 11:55:00 9.9 C 77 % 6.06 C
2733 19-02-2014 12:00:00 10 C 77 % 6.16 C
2734 19-02-2014 12:05:00 10.1 C 76 % 6.07 C
2735 19-02-2014 12:10:00 10.1 C 76 % 6.07 C
2736 19-02-2014 12:15:00 10.1 C 75 % 5.88 C
2737 19-02-2014 12:20:00 10.1 C 75 % 5.88 C
2738 19-02-2014 12:25:00 10.2 C 75 % 5.97 C
2739 19-02-2014 12:30:00 10.2 C 75 % 5.97 C
2740 19-02-2014 12:35:00 10.3 C 75 % 6.07 C
2741 19-02-2014 12:40:00 10.5 C 73 % 5.87 C
2742 19-02-2014 12:45:00 10.6 C 72 % 5.77 C
2743 19-02-2014 12:50:00 10.7 C 71 % 5.66 C
2744 19-02-2014 12:55:00 10.9 C 71 % 5.86 C
2745 19-02-2014 13:00:00 11.2 C 70 % 5.94 C
2746 19-02-2014 13:05:00 11.4 C 69 % 5.92 C
2747 19-02-2014 13:10:00 11.5 C 68 % 5.81 C
2748 19-02-2014 13:15:00 11.6 C 68 % 5.9 C
2749 19-02-2014 13:20:00 11.8 C 68 % 6.09 C
2750 19-02-2014 13:25:00 11.7 C 67 % 5.78 C
Sensor: Nr:Datum:Temp:Feuchte:Taupunkt:
Aussen-T/F 2751 19-02-2014 13:30:00 11.7 C 68 % 6 C
2752 19-02-2014 13:35:00 11.6 C 68 % 5.9 C
2753 19-02-2014 13:40:00 11.6 C 67 % 5.69 C
2754 19-02-2014 13:45:00 11.3 C 67 % 5.4 C
2755 19-02-2014 13:50:00 11.4 C 68 % 5.71 C
2756 19-02-2014 13:55:00 11.6 C 68 % 5.9 C
2757 19-02-2014 14:00:00 11.7 C 67 % 5.78 C
2758 19-02-2014 14:05:00 11.7 C 68 % 6 C
2759 19-02-2014 14:10:00 11.6 C 68 % 5.9 C
2760 19-02-2014 14:15:00 11.6 C 67 % 5.69 C
2761 19-02-2014 14:20:00 11.6 C 67 % 5.69 C
2762 19-02-2014 14:25:00 11.6 C 67 % 5.69 C
2763 19-02-2014 14:30:00 11.4 C 68 % 5.71 C
2764 19-02-2014 14:35:00 11.4 C 67 % 5.5 C
2765 19-02-2014 14:40:00 11.4 C 67 % 5.5 C
2766 19-02-2014 14:45:00 11.4 C 68 % 5.71 C
2767 19-02-2014 14:50:00 11.5 C 68 % 5.81 C
2768 19-02-2014 14:55:00 11.4 C 68 % 5.71 C
2769 19-02-2014 15:00:00 11.3 C 70 % 6.03 C
2770 19-02-2014 15:05:00 11.3 C 68 % 5.62 C
2771 19-02-2014 15:10:00 11.2 C 69 % 5.73 C
2772 19-02-2014 15:15:00 11 C 69 % 5.54 C
2773 19-02-2014 15:20:00 10.9 C 70 % 5.65 C
2774 19-02-2014 15:25:00 10.8 C 71 % 5.76 C
2775 19-02-2014 15:30:00 10.9 C 71 % 5.86 C
Sensor: Nr:Datum:Temp:Feuchte:Taupunkt:
Aussen-T/F 2776 19-02-2014 15:35:00 10.9 C 71 % 5.86 C
2777 19-02-2014 15:40:00 10.8 C 69 % 5.35 C
2778 19-02-2014 15:45:00 10.7 C 71 % 5.66 C
2779 19-02-2014 15:50:00 10.3 C 75 % 6.07 C
2780 19-02-2014 15:55:00 9.9 C 81 % 6.8 C
2781 19-02-2014 16:00:00 9.7 C 81 % 6.6 C
2782 19-02-2014 16:05:00 9.5 C 81 % 6.41 C
2783 19-02-2014 16:10:00 9.5 C 82 % 6.59 C
2784 19-02-2014 16:15:00 9.5 C 82 % 6.59 C
2785 19-02-2014 16:20:00 9.6 C 82 % 6.68 C
2786 19-02-2014 16:25:00 9.6 C 82 % 6.68 C
2787 19-02-2014 16:30:00 9.7 C 80 % 6.42 C
2788 19-02-2014 16:35:00 9.7 C 80 % 6.42 C
2789 19-02-2014 16:40:00 9.7 C 81 % 6.6 C
2790 19-02-2014 16:45:00 9.7 C 82 % 6.78 C
2791 19-02-2014 16:50:00 9.5 C 81 % 6.41 C
2792 19-02-2014 16:55:00 9.4 C 81 % 6.31 C
2793 19-02-2014 17:00:00 9.3 C 81 % 6.21 C
2794 19-02-2014 17:05:00 9.2 C 81 % 6.11 C
2795 19-02-2014 17:10:00 9.2 C 82 % 6.29 C
2796 19-02-2014 17:15:00 9.2 C 82 % 6.29 C
2797 19-02-2014 17:20:00 9.2 C 82 % 6.29 C
2798 19-02-2014 17:25:00 9.2 C 82 % 6.29 C
2799 19-02-2014 17:30:00 9.3 C 81 % 6.21 C
2800 19-02-2014 17:35:00 9.3 C 81 % 6.21 C
Sensor: Nr:Datum:Temp:Feuchte:Taupunkt:
Aussen-T/F 2801 19-02-2014 17:40:00 9.3 C 81 % 6.21 C
2802 19-02-2014 17:45:00 9.3 C 81 % 6.21 C
2803 19-02-2014 17:50:00 9.3 C 81 % 6.21 C
2804 19-02-2014 17:55:00 9.3 C 81 % 6.21 C
2805 19-02-2014 18:00:00 9.3 C 81 % 6.21 C
2806 19-02-2014 18:05:00 9.2 C 81 % 6.11 C
2807 19-02-2014 18:10:00 9.2 C 82 % 6.29 C
2808 19-02-2014 18:15:00 9.1 C 83 % 6.37 C
2809 19-02-2014 18:20:00 9.1 C 83 % 6.37 C
2810 19-02-2014 18:25:00 9 C 83 % 6.27 C
2811 19-02-2014 18:30:00 8.9 C 83 % 6.17 C
2812 19-02-2014 18:35:00 8.7 C 84 % 6.15 C
2813 19-02-2014 18:40:00 8.6 C 84 % 6.05 C
2814 19-02-2014 18:45:00 8.4 C 84 % 5.86 C
2815 19-02-2014 18:50:00 8.4 C 83 % 5.69 C
2816 19-02-2014 18:55:00 8.4 C 84 % 5.86 C
2817 19-02-2014 19:00:00 8.3 C 84 % 5.76 C
2818 19-02-2014 19:05:00 8.3 C 84 % 5.76 C
2819 19-02-2014 19:10:00 8.2 C 85 % 5.83 C
2820 19-02-2014 19:15:00 8.2 C 85 % 5.83 C
2821 19-02-2014 19:20:00 8.2 C 85 % 5.83 C
2822 19-02-2014 19:25:00 8.3 C 83 % 5.59 C
2823 19-02-2014 19:30:00 8.4 C 84 % 5.86 C
2824 19-02-2014 19:35:00 8.3 C 85 % 5.93 C
2825 19-02-2014 19:40:00 8.1 C 85 % 5.73 C
Sensor: Nr:Datum:Temp:Feuchte:Taupunkt:
Aussen-T/F 2826 19-02-2014 19:45:00 8.1 C 85 % 5.73 C
2827 19-02-2014 19:50:00 8 C 85 % 5.64 C
2828 19-02-2014 19:55:00 7.9 C 86 % 5.71 C
2829 19-02-2014 20:00:00 7.9 C 86 % 5.71 C
2830 19-02-2014 20:05:00 8 C 86 % 5.81 C
2831 19-02-2014 20:10:00 7.9 C 87 % 5.87 C
2832 19-02-2014 20:15:00 7.7 C 87 % 5.68 C
2833 19-02-2014 20:20:00 7.7 C 87 % 5.68 C
2834 19-02-2014 20:25:00 7.6 C 88 % 5.74 C
2835 19-02-2014 20:30:00 7.7 C 87 % 5.68 C
2836 19-02-2014 20:35:00 7.8 C 87 % 5.78 C
2837 19-02-2014 20:40:00 7.8 C 86 % 5.61 C
2838 19-02-2014 20:45:00 7.8 C 87 % 5.78 C
2839 19-02-2014 20:50:00 7.7 C 87 % 5.68 C
2840 19-02-2014 20:55:00 7.6 C 88 % 5.74 C
2841 19-02-2014 21:00:00 7.4 C 88 % 5.55 C
2842 19-02-2014 21:05:00 7.5 C 88 % 5.64 C
2843 19-02-2014 21:10:00 7.4 C 88 % 5.55 C
2844 19-02-2014 21:15:00 7.3 C 88 % 5.45 C
2845 19-02-2014 21:20:00 7.2 C 88 % 5.35 C
2846 19-02-2014 21:25:00 6.9 C 89 % 5.22 C
2847 19-02-2014 21:30:00 6.7 C 90 % 5.18 C
2848 19-02-2014 21:35:00 6.6 C 90 % 5.08 C
2849 19-02-2014 21:40:00 6.3 C 90 % 4.78 C
2850 19-02-2014 21:45:00 6.2 C 90 % 4.69 C
Sensor: Nr:Datum:Temp:Feuchte:Taupunkt:
Aussen-T/F 2851 19-02-2014 21:50:00 6.2 C 91 % 4.84 C
2852 19-02-2014 21:55:00 6.2 C 90 % 4.69 C
2853 19-02-2014 22:00:00 6.1 C 90 % 4.59 C
2854 19-02-2014 22:05:00 6 C 91 % 4.65 C
2855 19-02-2014 22:10:00 5.9 C 91 % 4.55 C
2856 19-02-2014 22:15:00 5.9 C 92 % 4.7 C
2857 19-02-2014 22:20:00 5.9 C 92 % 4.7 C
2858 19-02-2014 22:25:00 5.9 C 92 % 4.7 C
2859 19-02-2014 22:30:00 5.9 C 93 % 4.86 C
2860 19-02-2014 22:35:00 6.2 C 93 % 5.15 C
2861 19-02-2014 22:40:00 6.5 C 92 % 5.3 C
2862 19-02-2014 22:45:00 6.7 C 91 % 5.34 C
2863 19-02-2014 22:50:00 6.7 C 90 % 5.18 C
2864 19-02-2014 22:55:00 6.7 C 90 % 5.18 C
2865 19-02-2014 23:00:00 6.7 C 90 % 5.18 C
2866 19-02-2014 23:05:00 6.7 C 90 % 5.18 C
2867 19-02-2014 23:10:00 6.8 C 90 % 5.28 C
2868 19-02-2014 23:15:00 6.8 C 90 % 5.28 C
2869 19-02-2014 23:20:00 6.8 C 89 % 5.12 C
2870 19-02-2014 23:25:00 6.9 C 89 % 5.22 C
2871 19-02-2014 23:30:00 6.8 C 89 % 5.12 C
2872 19-02-2014 23:35:00 6.9 C 89 % 5.22 C
2873 19-02-2014 23:40:00 6.8 C 89 % 5.12 C
2874 19-02-2014 23:45:00 6.8 C 89 % 5.12 C
2875 19-02-2014 23:50:00 6.7 C 89 % 5.02 C
Sensor: Nr:Datum:Temp:Feuchte:Taupunkt:
Aussen-T/F 2876 19-02-2014 23:55:00 6.7 C 90 % 5.18 C
2877 20-02-2014 00:00:00 6.7 C 90 % 5.18 C
2878 20-02-2014 00:05:00 6.7 C 89 % 5.02 C
2879 20-02-2014 00:10:00 6.8 C 89 % 5.12 C
2880 20-02-2014 00:15:00 7 C 88 % 5.15 C
2881 20-02-2014 00:20:00 7.1 C 88 % 5.25 C
2882 20-02-2014 00:25:00 7.1 C 88 % 5.25 C
2883 20-02-2014 00:30:00 7.1 C 88 % 5.25 C
2884 20-02-2014 00:35:00 7.1 C 87 % 5.09 C
2885 20-02-2014 00:40:00 7.1 C 87 % 5.09 C
2886 20-02-2014 00:45:00 7 C 87 % 4.99 C
2887 20-02-2014 00:50:00 7 C 88 % 5.15 C
2888 20-02-2014 00:55:00 6.9 C 88 % 5.05 C
2889 20-02-2014 01:00:00 6.8 C 88 % 4.96 C
2890 20-02-2014 01:05:00 6.7 C 88 % 4.86 C
2891 20-02-2014 01:10:00 6.7 C 89 % 5.02 C
2892 20-02-2014 01:15:00 6.6 C 89 % 4.92 C
2893 20-02-2014 01:20:00 6.6 C 89 % 4.92 C
2894 20-02-2014 01:25:00 6.5 C 90 % 4.98 C
2895 20-02-2014 01:30:00 6.5 C 90 % 4.98 C
2896 20-02-2014 01:35:00 6.5 C 90 % 4.98 C
2897 20-02-2014 01:40:00 6.5 C 90 % 4.98 C
2898 20-02-2014 01:45:00 6.4 C 90 % 4.88 C
2899 20-02-2014 01:50:00 6.4 C 90 % 4.88 C
2900 20-02-2014 01:55:00 6.4 C 90 % 4.88 C
Sensor: Nr:Datum:Temp:Feuchte:Taupunkt:
Aussen-T/F 2901 20-02-2014 02:00:00 6.5 C 91 % 5.14 C
2902 20-02-2014 02:05:00 6.6 C 91 % 5.24 C
2903 20-02-2014 02:10:00 6.6 C 91 % 5.24 C
2904 20-02-2014 02:15:00 6.6 C 90 % 5.08 C
2905 20-02-2014 02:20:00 6.6 C 90 % 5.08 C
2906 20-02-2014 02:25:00 6.5 C 90 % 4.98 C
2907 20-02-2014 02:30:00 6.4 C 91 % 5.04 C
2908 20-02-2014 02:35:00 6.4 C 91 % 5.04 C
2909 20-02-2014 02:40:00 6.4 C 91 % 5.04 C
2910 20-02-2014 02:45:00 6.4 C 91 % 5.04 C
2911 20-02-2014 02:50:00 6.4 C 91 % 5.04 C
2912 20-02-2014 02:55:00 6.4 C 91 % 5.04 C
2913 20-02-2014 03:00:00 6.4 C 91 % 5.04 C
2914 20-02-2014 03:05:00 6.3 C 91 % 4.94 C
2915 20-02-2014 03:10:00 6.3 C 91 % 4.94 C
2916 20-02-2014 03:15:00 6.3 C 92 % 5.1 C
2917 20-02-2014 03:20:00 6.4 C 91 % 5.04 C
2918 20-02-2014 03:25:00 6.4 C 91 % 5.04 C
2919 20-02-2014 03:30:00 6.5 C 91 % 5.14 C
2920 20-02-2014 03:35:00 6.4 C 91 % 5.04 C
2921 20-02-2014 03:40:00 6.4 C 91 % 5.04 C
2922 20-02-2014 03:45:00 6.4 C 91 % 5.04 C
2923 20-02-2014 03:50:00 6.4 C 91 % 5.04 C
2924 20-02-2014 03:55:00 6.4 C 90 % 4.88 C
2925 20-02-2014 04:00:00 6.4 C 90 % 4.88 C
Sensor: Nr:Datum:Temp:Feuchte:Taupunkt:
Aussen-T/F 2926 20-02-2014 04:05:00 6.4 C 90 % 4.88 C
2927 20-02-2014 04:10:00 6.5 C 90 % 4.98 C
2928 20-02-2014 04:15:00 6.6 C 89 % 4.92 C
2929 20-02-2014 04:20:00 6.6 C 89 % 4.92 C
2930 20-02-2014 04:25:00 6.6 C 89 % 4.92 C
2931 20-02-2014 04:30:00 6.6 C 89 % 4.92 C
2932 20-02-2014 04:35:00 6.4 C 90 % 4.88 C
2933 20-02-2014 04:40:00 6.3 C 90 % 4.78 C
2934 20-02-2014 04:45:00 6.3 C 91 % 4.94 C
2935 20-02-2014 04:50:00 6.2 C 91 % 4.84 C
2936 20-02-2014 04:55:00 6.2 C 91 % 4.84 C
2937 20-02-2014 05:00:00 6.1 C 91 % 4.74 C
2938 20-02-2014 05:05:00 6.1 C 92 % 4.9 C
2939 20-02-2014 05:10:00 6 C 92 % 4.8 C
2940 20-02-2014 05:15:00 5.8 C 92 % 4.6 C
2941 20-02-2014 05:20:00 5.7 C 92 % 4.5 C
2942 20-02-2014 05:25:00 5.7 C 93 % 4.66 C
2943 20-02-2014 05:30:00 5.8 C 93 % 4.76 C
2944 20-02-2014 05:35:00 5.8 C 93 % 4.76 C
2945 20-02-2014 05:40:00 5.8 C 93 % 4.76 C
2946 20-02-2014 05:45:00 5.8 C 93 % 4.76 C
2947 20-02-2014 05:50:00 5.9 C 94 % 5.01 C
2948 20-02-2014 05:55:00 5.9 C 94 % 5.01 C
2949 20-02-2014 06:00:00 6 C 93 % 4.96 C
2950 20-02-2014 06:05:00 6 C 93 % 4.96 C
Sensor: Nr:Datum:Temp:Feuchte:Taupunkt:
Aussen-T/F 2951 20-02-2014 06:10:00 6 C 93 % 4.96 C
2952 20-02-2014 06:15:00 6 C 93 % 4.96 C
2953 20-02-2014 06:20:00 6 C 93 % 4.96 C
2954 20-02-2014 06:25:00 6.1 C 93 % 5.06 C
2955 20-02-2014 06:30:00 6 C 93 % 4.96 C
2956 20-02-2014 06:35:00 5.9 C 93 % 4.86 C
2957 20-02-2014 06:40:00 5.9 C 93 % 4.86 C
2958 20-02-2014 06:45:00 5.9 C 93 % 4.86 C
2959 20-02-2014 06:50:00 5.9 C 93 % 4.86 C
2960 20-02-2014 06:55:00 5.9 C 93 % 4.86 C
2961 20-02-2014 07:00:00 6 C 93 % 4.96 C
2962 20-02-2014 07:05:00 6.1 C 93 % 5.06 C
2963 20-02-2014 07:10:00 6 C 93 % 4.96 C
2964 20-02-2014 07:15:00 6 C 93 % 4.96 C
2965 20-02-2014 07:20:00 5.9 C 93 % 4.86 C
2966 20-02-2014 07:25:00 6 C 93 % 4.96 C
2967 20-02-2014 07:30:00 6 C 93 % 4.96 C
2968 20-02-2014 07:35:00 6.1 C 93 % 5.06 C
2969 20-02-2014 07:40:00 6.2 C 93 % 5.15 C
2970 20-02-2014 07:45:00 6.2 C 93 % 5.15 C
2971 20-02-2014 07:50:00 6.3 C 93 % 5.25 C
2972 20-02-2014 07:55:00 6.3 C 93 % 5.25 C
2973 20-02-2014 08:00:00 6.3 C 93 % 5.25 C
2974 20-02-2014 08:05:00 6.4 C 93 % 5.35 C
2975 20-02-2014 08:10:00 6.4 C 93 % 5.35 C
Sensor: Nr:Datum:Temp:Feuchte:Taupunkt:
Aussen-T/F 2976 20-02-2014 08:15:00 6.5 C 93 % 5.45 C
2977 20-02-2014 08:20:00 6.6 C 92 % 5.4 C
2978 20-02-2014 08:25:00 6.6 C 91 % 5.24 C
2979 20-02-2014 08:30:00 6.8 C 91 % 5.44 C
2980 20-02-2014 08:35:00 6.8 C 91 % 5.44 C
2981 20-02-2014 08:40:00 6.9 C 90 % 5.38 C
2982 20-02-2014 08:45:00 7.1 C 89 % 5.41 C
2983 20-02-2014 08:50:00 7.2 C 88 % 5.35 C
2984 20-02-2014 08:55:00 7.4 C 88 % 5.55 C
2985 20-02-2014 09:00:00 7.5 C 87 % 5.48 C
2986 20-02-2014 09:05:00 7.7 C 87 % 5.68 C
2987 20-02-2014 09:10:00 7.7 C 86 % 5.51 C
2988 20-02-2014 09:15:00 7.8 C 86 % 5.61 C
2989 20-02-2014 09:20:00 7.8 C 85 % 5.44 C
2990 20-02-2014 09:25:00 7.9 C 85 % 5.54 C
2991 20-02-2014 09:30:00 8 C 85 % 5.64 C
2992 20-02-2014 09:35:00 8.1 C 85 % 5.73 C
2993 20-02-2014 09:40:00 8.2 C 86 % 6 C
2994 20-02-2014 09:45:00 8.3 C 84 % 5.76 C
2995 20-02-2014 09:50:00 8.4 C 84 % 5.86 C
2996 20-02-2014 09:55:00 8.4 C 84 % 5.86 C
2997 20-02-2014 10:00:00 8.6 C 83 % 5.88 C
2998 20-02-2014 10:05:00 8.6 C 82 % 5.71 C
2999 20-02-2014 10:10:00 8.7 C 83 % 5.98 C
3000 20-02-2014 10:15:00 8.7 C 82 % 5.8 C
Sensor: Nr:Datum:Temp:Feuchte:Taupunkt:
Aussen-T/F 3001 20-02-2014 10:20:00 8.8 C 82 % 5.9 C
3002 20-02-2014 10:25:00 8.8 C 81 % 5.72 C
3003 20-02-2014 10:30:00 8.9 C 82 % 6 C
3004 20-02-2014 10:35:00 8.9 C 81 % 5.82 C
3005 20-02-2014 10:40:00 9 C 81 % 5.92 C
3006 20-02-2014 10:45:00 9.1 C 80 % 5.84 C
3007 20-02-2014 10:50:00 9.2 C 82 % 6.29 C
3008 20-02-2014 10:55:00 9.3 C 80 % 6.03 C
3009 20-02-2014 11:00:00 9.4 C 79 % 5.95 C
3010 20-02-2014 11:05:00 9.6 C 78 % 5.96 C
3011 20-02-2014 11:10:00 9.6 C 78 % 5.96 C
3012 20-02-2014 11:15:00 9.6 C 78 % 5.96 C
3013 20-02-2014 11:20:00 9.6 C 78 % 5.96 C
3014 20-02-2014 11:25:00 9.6 C 77 % 5.77 C
3015 20-02-2014 11:30:00 9.6 C 77 % 5.77 C
3016 20-02-2014 11:35:00 9.7 C 77 % 5.87 C
3017 20-02-2014 11:40:00 9.8 C 75 % 5.59 C
3018 20-02-2014 11:45:00 10 C 74 % 5.59 C
3019 20-02-2014 11:50:00 10.1 C 73 % 5.49 C
3020 20-02-2014 11:55:00 10.2 C 74 % 5.78 C
3021 20-02-2014 12:00:00 10.2 C 72 % 5.39 C
3022 20-02-2014 12:05:00 10.2 C 72 % 5.39 C
3023 20-02-2014 12:10:00 10.2 C 73 % 5.58 C
3024 20-02-2014 12:15:00 10.4 C 73 % 5.78 C
3025 20-02-2014 12:20:00 10.7 C 72 % 5.87 C
Sensor: Nr:Datum:Temp:Feuchte:Taupunkt:
Aussen-T/F 3026 20-02-2014 12:25:00 10.9 C 70 % 5.65 C
3027 20-02-2014 12:30:00 10.9 C 69 % 5.44 C
3028 20-02-2014 12:35:00 11 C 68 % 5.33 C
3029 20-02-2014 12:40:00 11.1 C 68 % 5.43 C
3030 20-02-2014 12:45:00 11.2 C 68 % 5.52 C
3031 20-02-2014 12:50:00 11.2 C 67 % 5.31 C
3032 20-02-2014 12:55:00 11.2 C 67 % 5.31 C
3033 20-02-2014 13:00:00 11.3 C 68 % 5.62 C
3034 20-02-2014 13:05:00 11.3 C 67 % 5.4 C
3035 20-02-2014 13:10:00 11.3 C 66 % 5.19 C
3036 20-02-2014 13:15:00 11.3 C 67 % 5.4 C
3037 20-02-2014 13:20:00 11.3 C 67 % 5.4 C
3038 20-02-2014 13:25:00 11.3 C 67 % 5.4 C
3039 20-02-2014 13:30:00 11.4 C 68 % 5.71 C
3040 20-02-2014 13:35:00 11.4 C 67 % 5.5 C
3041 20-02-2014 13:40:00 11.4 C 67 % 5.5 C
3042 20-02-2014 13:45:00 11.4 C 68 % 5.71 C
3043 20-02-2014 13:50:00 11.4 C 67 % 5.5 C
3044 20-02-2014 13:55:00 11.4 C 68 % 5.71 C
3045 20-02-2014 14:00:00 11.4 C 68 % 5.71 C
3046 20-02-2014 14:05:00 11.3 C 68 % 5.62 C
3047 20-02-2014 14:10:00 11.4 C 69 % 5.92 C
3048 20-02-2014 14:15:00 11.4 C 69 % 5.92 C
3049 20-02-2014 14:20:00 11.4 C 69 % 5.92 C
3050 20-02-2014 14:25:00 11.3 C 68 % 5.62 C
Sensor: Nr:Datum:Temp:Feuchte:Taupunkt:
Aussen-T/F 3051 20-02-2014 14:30:00 11.2 C 70 % 5.94 C
3052 20-02-2014 14:35:00 11.2 C 70 % 5.94 C
3053 20-02-2014 14:40:00 11.1 C 70 % 5.84 C
3054 20-02-2014 14:45:00 11.1 C 71 % 6.05 C
3055 20-02-2014 14:50:00 11 C 72 % 6.15 C
3056 20-02-2014 14:55:00 10.9 C 73 % 6.26 C
3057 20-02-2014 15:00:00 11 C 73 % 6.35 C
3058 20-02-2014 15:05:00 11 C 73 % 6.35 C
3059 20-02-2014 15:10:00 11 C 73 % 6.35 C
3060 20-02-2014 15:15:00 11 C 73 % 6.35 C
3061 20-02-2014 15:20:00 11 C 73 % 6.35 C
3062 20-02-2014 15:25:00 11.1 C 74 % 6.65 C
3063 20-02-2014 15:30:00 11.2 C 73 % 6.55 C
3064 20-02-2014 15:35:00 11.3 C 73 % 6.64 C
3065 20-02-2014 15:40:00 11.3 C 72 % 6.44 C
3066 20-02-2014 15:45:00 11.3 C 72 % 6.44 C
3067 20-02-2014 15:50:00 11.3 C 72 % 6.44 C
3068 20-02-2014 15:55:00 11.3 C 72 % 6.44 C
3069 20-02-2014 16:00:00 11.3 C 72 % 6.44 C
3070 20-02-2014 16:05:00 11.3 C 72 % 6.44 C
3071 20-02-2014 16:10:00 11.3 C 72 % 6.44 C
3072 20-02-2014 16:15:00 11.3 C 73 % 6.64 C
3073 20-02-2014 16:20:00 11.3 C 73 % 6.64 C
3074 20-02-2014 16:25:00 11.3 C 72 % 6.44 C
3075 20-02-2014 16:30:00 11.3 C 73 % 6.64 C
Sensor: Nr:Datum:Temp:Feuchte:Taupunkt:
Aussen-T/F 3076 20-02-2014 16:35:00 11.2 C 73 % 6.55 C
3077 20-02-2014 16:40:00 11.2 C 73 % 6.55 C
3078 20-02-2014 16:45:00 11.2 C 74 % 6.74 C
3079 20-02-2014 16:50:00 11.2 C 73 % 6.55 C
3080 20-02-2014 16:55:00 11.2 C 75 % 6.94 C
3081 20-02-2014 17:00:00 11.1 C 76 % 7.04 C
3082 20-02-2014 17:05:00 11 C 75 % 6.75 C
3083 20-02-2014 17:10:00 11 C 76 % 6.94 C
3084 20-02-2014 17:15:00 10.9 C 74 % 6.45 C
3085 20-02-2014 17:20:00 10.9 C 75 % 6.65 C
3086 20-02-2014 17:25:00 11 C 75 % 6.75 C
3087 20-02-2014 17:30:00 10.9 C 76 % 6.84 C
3088 20-02-2014 17:35:00 10.8 C 76 % 6.75 C
3089 20-02-2014 17:40:00 10.8 C 75 % 6.55 C
3090 20-02-2014 17:45:00 10.8 C 76 % 6.75 C
3091 20-02-2014 17:50:00 10.7 C 77 % 6.84 C
3092 20-02-2014 17:55:00 10.6 C 76 % 6.55 C
3093 20-02-2014 18:00:00 10.4 C 78 % 6.74 C
3094 20-02-2014 18:05:00 10.3 C 78 % 6.64 C
3095 20-02-2014 18:10:00 10.2 C 79 % 6.73 C
3096 20-02-2014 18:15:00 10.1 C 80 % 6.81 C
3097 20-02-2014 18:20:00 10 C 79 % 6.53 C
3098 20-02-2014 18:25:00 9.9 C 81 % 6.8 C
3099 20-02-2014 18:30:00 9.8 C 81 % 6.7 C
3100 20-02-2014 18:35:00 9.8 C 79 % 6.34 C
Sensor: Nr:Datum:Temp:Feuchte:Taupunkt:
Aussen-T/F 3101 20-02-2014 18:40:00 9.8 C 80 % 6.52 C
3102 20-02-2014 18:45:00 9.8 C 80 % 6.52 C
3103 20-02-2014 18:50:00 9.7 C 81 % 6.6 C
3104 20-02-2014 18:55:00 9.6 C 81 % 6.5 C
3105 20-02-2014 19:00:00 9.6 C 82 % 6.68 C
3106 20-02-2014 19:05:00 9.6 C 80 % 6.32 C
3107 20-02-2014 19:10:00 9.6 C 80 % 6.32 C
3108 20-02-2014 19:15:00 9.6 C 81 % 6.5 C
3109 20-02-2014 19:20:00 9.6 C 80 % 6.32 C
3110 20-02-2014 19:25:00 9.8 C 79 % 6.34 C
3111 20-02-2014 19:30:00 9.9 C 79 % 6.43 C
3112 20-02-2014 19:35:00 9.8 C 79 % 6.34 C
3113 20-02-2014 19:40:00 9.8 C 79 % 6.34 C
3114 20-02-2014 19:45:00 9.9 C 78 % 6.25 C
3115 20-02-2014 19:50:00 9.9 C 79 % 6.43 C
3116 20-02-2014 19:55:00 9.9 C 78 % 6.25 C
3117 20-02-2014 20:00:00 9.9 C 79 % 6.43 C
3118 20-02-2014 20:05:00 9.8 C 79 % 6.34 C
3119 20-02-2014 20:10:00 9.8 C 80 % 6.52 C
3120 20-02-2014 20:15:00 9.6 C 82 % 6.68 C
3121 20-02-2014 20:20:00 9.5 C 81 % 6.41 C
3122 20-02-2014 20:25:00 9.4 C 83 % 6.66 C
3123 20-02-2014 20:30:00 9.4 C 83 % 6.66 C
3124 20-02-2014 20:35:00 9.3 C 82 % 6.39 C
3125 20-02-2014 20:40:00 9.2 C 83 % 6.47 C
Sensor: Nr:Datum:Temp:Feuchte:Taupunkt:
Aussen-T/F 3126 20-02-2014 20:45:00 9.2 C 81 % 6.11 C
3127 20-02-2014 20:50:00 9.3 C 82 % 6.39 C
3128 20-02-2014 20:55:00 9.3 C 82 % 6.39 C
3129 20-02-2014 21:00:00 9.4 C 83 % 6.66 C
3130 20-02-2014 21:05:00 9.4 C 82 % 6.49 C
3131 20-02-2014 21:10:00 9.4 C 82 % 6.49 C
3132 20-02-2014 21:15:00 9.6 C 82 % 6.68 C
3133 20-02-2014 21:20:00 9.7 C 82 % 6.78 C
3134 20-02-2014 21:25:00 9.7 C 81 % 6.6 C
3135 20-02-2014 21:30:00 9.8 C 81 % 6.7 C
3136 20-02-2014 21:35:00 9.8 C 82 % 6.88 C
3137 20-02-2014 21:40:00 9.7 C 82 % 6.78 C
3138 20-02-2014 21:45:00 9.6 C 83 % 6.86 C
3139 20-02-2014 21:50:00 9.6 C 83 % 6.86 C
3140 20-02-2014 21:55:00 9.5 C 83 % 6.76 C
3141 20-02-2014 22:00:00 9.6 C 82 % 6.68 C
3142 20-02-2014 22:05:00 9.7 C 83 % 6.96 C
3143 20-02-2014 22:10:00 9.7 C 82 % 6.78 C
3144 20-02-2014 22:15:00 9.8 C 83 % 7.05 C
3145 20-02-2014 22:20:00 9.7 C 83 % 6.96 C
3146 20-02-2014 22:25:00 9.7 C 83 % 6.96 C
3147 20-02-2014 22:30:00 9.8 C 83 % 7.05 C
3148 20-02-2014 22:35:00 9.7 C 84 % 7.13 C
3149 20-02-2014 22:40:00 9.6 C 84 % 7.03 C
3150 20-02-2014 22:45:00 9.6 C 84 % 7.03 C
Sensor: Nr:Datum:Temp:Feuchte:Taupunkt:
Aussen-T/F 3151 20-02-2014 22:50:00 9.5 C 85 % 7.11 C
3152 20-02-2014 22:55:00 9.4 C 85 % 7.01 C
3153 20-02-2014 23:00:00 9.3 C 85 % 6.91 C
3154 20-02-2014 23:05:00 9.3 C 86 % 7.08 C
3155 20-02-2014 23:10:00 9.3 C 86 % 7.08 C
3156 20-02-2014 23:15:00 9.4 C 86 % 7.18 C
3157 20-02-2014 23:20:00 9.4 C 86 % 7.18 C
3158 20-02-2014 23:25:00 9.4 C 86 % 7.18 C
3159 20-02-2014 23:30:00 9.4 C 87 % 7.35 C
3160 20-02-2014 23:35:00 9.4 C 87 % 7.35 C
3161 20-02-2014 23:40:00 9.4 C 87 % 7.35 C
3162 20-02-2014 23:45:00 9.5 C 86 % 7.28 C
3163 20-02-2014 23:50:00 9.6 C 86 % 7.38 C
3164 20-02-2014 23:55:00 9.6 C 87 % 7.55 C
3165 21-02-2014 00:00:00 9.4 C 87 % 7.35 C
3166 21-02-2014 00:05:00 9.4 C 87 % 7.35 C
3167 21-02-2014 00:10:00 9.3 C 88 % 7.42 C
3168 21-02-2014 00:15:00 9.3 C 88 % 7.42 C
3169 21-02-2014 00:20:00 9.4 C 88 % 7.52 C
3170 21-02-2014 00:25:00 9.4 C 88 % 7.52 C
3171 21-02-2014 00:30:00 9.4 C 88 % 7.52 C
3172 21-02-2014 00:35:00 9.4 C 88 % 7.52 C
3173 21-02-2014 00:40:00 9.4 C 88 % 7.52 C
3174 21-02-2014 00:45:00 9.4 C 88 % 7.52 C
3175 21-02-2014 00:50:00 9.4 C 88 % 7.52 C
Sensor: Nr:Datum:Temp:Feuchte:Taupunkt:
Aussen-T/F 3176 21-02-2014 00:55:00 9.4 C 88 % 7.52 C
3177 21-02-2014 01:00:00 9.6 C 88 % 7.71 C
3178 21-02-2014 01:05:00 9.6 C 88 % 7.71 C
3179 21-02-2014 01:10:00 9.7 C 88 % 7.81 C
3180 21-02-2014 01:15:00 9.7 C 87 % 7.64 C
3181 21-02-2014 01:20:00 9.7 C 88 % 7.81 C
3182 21-02-2014 01:25:00 9.7 C 88 % 7.81 C
3183 21-02-2014 01:30:00 9.6 C 88 % 7.71 C
3184 21-02-2014 01:35:00 9.6 C 88 % 7.71 C
3185 21-02-2014 01:40:00 9.6 C 88 % 7.71 C
3186 21-02-2014 01:45:00 9.6 C 88 % 7.71 C
3187 21-02-2014 01:50:00 9.7 C 88 % 7.81 C
3188 21-02-2014 01:55:00 9.7 C 88 % 7.81 C
3189 21-02-2014 02:00:00 9.8 C 88 % 7.91 C
3190 21-02-2014 02:05:00 9.8 C 88 % 7.91 C
3191 21-02-2014 02:10:00 9.9 C 88 % 8.01 C
3192 21-02-2014 02:15:00 9.9 C 88 % 8.01 C
3193 21-02-2014 02:20:00 9.8 C 88 % 7.91 C
3194 21-02-2014 02:25:00 9.7 C 88 % 7.81 C
3195 21-02-2014 02:30:00 9.7 C 88 % 7.81 C
3196 21-02-2014 02:35:00 9.7 C 88 % 7.81 C
3197 21-02-2014 02:40:00 9.6 C 89 % 7.88 C
3198 21-02-2014 02:45:00 9.6 C 89 % 7.88 C
3199 21-02-2014 02:50:00 9.6 C 89 % 7.88 C
3200 21-02-2014 02:55:00 9.7 C 88 % 7.81 C
Sensor: Nr:Datum:Temp:Feuchte:Taupunkt:
Aussen-T/F 3201 21-02-2014 03:00:00 9.7 C 88 % 7.81 C
3202 21-02-2014 03:05:00 9.5 C 88 % 7.61 C
3203 21-02-2014 03:10:00 9.4 C 89 % 7.68 C
3204 21-02-2014 03:15:00 9.4 C 88 % 7.52 C
3205 21-02-2014 03:20:00 9.4 C 88 % 7.52 C
3206 21-02-2014 03:25:00 9.5 C 89 % 7.78 C
3207 21-02-2014 03:30:00 9.5 C 89 % 7.78 C
3208 21-02-2014 03:35:00 9.4 C 89 % 7.68 C
3209 21-02-2014 03:40:00 9.4 C 89 % 7.68 C
3210 21-02-2014 03:45:00 9.3 C 89 % 7.58 C
3211 21-02-2014 03:50:00 9.4 C 89 % 7.68 C
3212 21-02-2014 03:55:00 9.5 C 89 % 7.78 C
3213 21-02-2014 04:00:00 9.6 C 88 % 7.71 C
3214 21-02-2014 04:05:00 9.5 C 88 % 7.61 C
3215 21-02-2014 04:10:00 9.6 C 88 % 7.71 C
3216 21-02-2014 04:15:00 9.7 C 87 % 7.64 C
3217 21-02-2014 04:20:00 9.7 C 86 % 7.47 C
3218 21-02-2014 04:25:00 9.7 C 86 % 7.47 C
3219 21-02-2014 04:30:00 9.7 C 85 % 7.3 C
3220 21-02-2014 04:35:00 9.5 C 86 % 7.28 C
3221 21-02-2014 04:40:00 9.4 C 86 % 7.18 C
3222 21-02-2014 04:45:00 9.3 C 86 % 7.08 C
3223 21-02-2014 04:50:00 9.3 C 86 % 7.08 C
3224 21-02-2014 04:55:00 9.3 C 86 % 7.08 C
3225 21-02-2014 05:00:00 9.3 C 85 % 6.91 C
Sensor: Nr:Datum:Temp:Feuchte:Taupunkt:
Aussen-T/F 3226 21-02-2014 05:05:00 9.4 C 85 % 7.01 C
3227 21-02-2014 05:10:00 9.4 C 83 % 6.66 C
3228 21-02-2014 05:15:00 9.5 C 83 % 6.76 C
3229 21-02-2014 05:20:00 9.5 C 82 % 6.59 C
3230 21-02-2014 05:25:00 9.6 C 82 % 6.68 C
3231 21-02-2014 05:30:00 9.5 C 82 % 6.59 C
3232 21-02-2014 05:35:00 9.4 C 82 % 6.49 C
3233 21-02-2014 05:40:00 9.4 C 83 % 6.66 C
3234 21-02-2014 05:45:00 9.4 C 83 % 6.66 C
3235 21-02-2014 05:50:00 9.2 C 84 % 6.64 C
3236 21-02-2014 05:55:00 9 C 85 % 6.62 C
3237 21-02-2014 06:00:00 8.8 C 86 % 6.59 C
3238 21-02-2014 06:05:00 8.4 C 86 % 6.2 C
3239 21-02-2014 06:10:00 8.2 C 88 % 6.33 C
3240 21-02-2014 06:15:00 8 C 89 % 6.3 C
3241 21-02-2014 06:20:00 7.9 C 90 % 6.36 C
3242 21-02-2014 06:25:00 8.1 C 89 % 6.4 C
3243 21-02-2014 06:30:00 8.2 C 89 % 6.5 C
3244 21-02-2014 06:35:00 8.2 C 89 % 6.5 C
3245 21-02-2014 06:40:00 8.2 C 89 % 6.5 C
3246 21-02-2014 06:45:00 8.2 C 88 % 6.33 C
3247 21-02-2014 06:50:00 8.2 C 89 % 6.5 C
3248 21-02-2014 06:55:00 8.2 C 88 % 6.33 C
3249 21-02-2014 07:00:00 8.3 C 88 % 6.43 C
3250 21-02-2014 07:05:00 8.3 C 88 % 6.43 C
Sensor: Nr:Datum:Temp:Feuchte:Taupunkt:
Aussen-T/F 3251 21-02-2014 07:10:00 8.3 C 87 % 6.27 C
3252 21-02-2014 07:15:00 8.2 C 87 % 6.17 C
3253 21-02-2014 07:20:00 7.9 C 88 % 6.04 C
3254 21-02-2014 07:25:00 7.9 C 88 % 6.04 C
3255 21-02-2014 07:30:00 7.9 C 88 % 6.04 C
3256 21-02-2014 07:35:00 7.8 C 88 % 5.94 C
3257 21-02-2014 07:40:00 7.8 C 88 % 5.94 C
3258 21-02-2014 07:45:00 7.8 C 88 % 5.94 C
3259 21-02-2014 07:50:00 7.7 C 88 % 5.84 C
3260 21-02-2014 07:55:00 7.6 C 88 % 5.74 C
3261 21-02-2014 08:00:00 7.8 C 87 % 5.78 C
3262 21-02-2014 08:05:00 8.2 C 85 % 5.83 C
3263 21-02-2014 08:10:00 8.3 C 84 % 5.76 C
3264 21-02-2014 08:15:00 8.2 C 84 % 5.66 C
3265 21-02-2014 08:20:00 8.1 C 84 % 5.56 C
3266 21-02-2014 08:25:00 8.1 C 85 % 5.73 C
3267 21-02-2014 08:30:00 8.3 C 84 % 5.76 C
3268 21-02-2014 08:35:00 8.3 C 84 % 5.76 C
3269 21-02-2014 08:40:00 8.3 C 84 % 5.76 C
3270 21-02-2014 08:45:00 8.3 C 84 % 5.76 C
3271 21-02-2014 08:50:00 8.6 C 84 % 6.05 C
3272 21-02-2014 08:55:00 8.6 C 83 % 5.88 C
3273 21-02-2014 09:00:00 8.7 C 82 % 5.8 C
3274 21-02-2014 09:05:00 8.7 C 82 % 5.8 C
3275 21-02-2014 09:10:00 8.7 C 81 % 5.63 C
Sensor: Nr:Datum:Temp:Feuchte:Taupunkt:
Aussen-T/F 3276 21-02-2014 09:15:00 8.7 C 80 % 5.45 C
3277 21-02-2014 09:20:00 8.7 C 81 % 5.63 C
3278 21-02-2014 09:25:00 8.7 C 81 % 5.63 C
3279 21-02-2014 09:30:00 8.9 C 80 % 5.64 C
3280 21-02-2014 09:35:00 9 C 79 % 5.56 C
3281 21-02-2014 09:40:00 9.1 C 79 % 5.66 C
3282 21-02-2014 09:45:00 9.2 C 78 % 5.57 C
3283 21-02-2014 09:50:00 9.2 C 78 % 5.57 C
3284 21-02-2014 09:55:00 9.2 C 78 % 5.57 C
3285 21-02-2014 10:00:00 9.2 C 77 % 5.38 C
3286 21-02-2014 10:05:00 9.2 C 77 % 5.38 C
3287 21-02-2014 10:10:00 9.2 C 77 % 5.38 C
3288 21-02-2014 10:15:00 9.1 C 78 % 5.47 C
3289 21-02-2014 10:20:00 9.1 C 79 % 5.66 C
3290 21-02-2014 10:25:00 9.1 C 78 % 5.47 C
3291 21-02-2014 10:30:00 9.1 C 79 % 5.66 C
3292 21-02-2014 10:35:00 9.2 C 79 % 5.75 C
3293 21-02-2014 10:40:00 9.4 C 79 % 5.95 C
3294 21-02-2014 10:45:00 9.6 C 77 % 5.77 C
3295 21-02-2014 10:50:00 9.6 C 76 % 5.58 C
3296 21-02-2014 10:55:00 9.6 C 77 % 5.77 C
3297 21-02-2014 11:00:00 9.6 C 75 % 5.39 C
3298 21-02-2014 11:05:00 9.7 C 75 % 5.49 C
3299 21-02-2014 11:10:00 9.8 C 74 % 5.39 C
3300 21-02-2014 11:15:00 9.8 C 75 % 5.59 C
Sensor: Nr:Datum:Temp:Feuchte:Taupunkt:
Aussen-T/F 3301 21-02-2014 11:20:00 9.3 C 76 % 5.29 C
3302 21-02-2014 11:25:00 8.6 C 81 % 5.53 C
3303 21-02-2014 11:30:00 8.3 C 83 % 5.59 C
3304 21-02-2014 11:35:00 8.2 C 84 % 5.66 C
3305 21-02-2014 11:40:00 8.2 C 84 % 5.66 C
3306 21-02-2014 11:45:00 8.3 C 82 % 5.41 C
3307 21-02-2014 11:50:00 8.7 C 81 % 5.63 C
3308 21-02-2014 11:55:00 8.4 C 81 % 5.33 C
3309 21-02-2014 12:00:00 7.6 C 85 % 5.24 C
3310 21-02-2014 12:05:00 7.1 C 87 % 5.09 C
3311 21-02-2014 12:10:00 7.1 C 89 % 5.41 C
3312 21-02-2014 12:15:00 7.2 C 89 % 5.51 C
3313 21-02-2014 12:20:00 7.4 C 88 % 5.55 C
3314 21-02-2014 12:25:00 7.6 C 89 % 5.91 C
3315 21-02-2014 12:30:00 7.8 C 86 % 5.61 C
3316 21-02-2014 12:35:00 8.1 C 86 % 5.9 C
3317 21-02-2014 12:40:00 8.4 C 86 % 6.2 C
3318 21-02-2014 12:45:00 8.7 C 84 % 6.15 C
3319 21-02-2014 12:50:00 9.1 C 81 % 6.02 C
3320 21-02-2014 12:55:00 8.9 C 81 % 5.82 C
3321 21-02-2014 13:00:00 8.8 C 78 % 5.18 C
3322 21-02-2014 13:05:00 8.8 C 78 % 5.18 C
3323 21-02-2014 13:10:00 9 C 79 % 5.56 C
3324 21-02-2014 13:15:00 9 C 77 % 5.19 C
3325 21-02-2014 13:20:00 8.9 C 77 % 5.09 C
Sensor: Nr:Datum:Temp:Feuchte:Taupunkt:
Aussen-T/F 3326 21-02-2014 13:25:00 8.6 C 76 % 4.62 C
3327 21-02-2014 13:30:00 8.3 C 77 % 4.51 C
3328 21-02-2014 13:35:00 8.3 C 78 % 4.7 C
3329 21-02-2014 13:40:00 8.4 C 78 % 4.79 C
3330 21-02-2014 13:45:00 8.3 C 78 % 4.7 C
3331 21-02-2014 13:50:00 8.2 C 79 % 4.78 C
3332 21-02-2014 13:55:00 8.3 C 79 % 4.88 C
3333 21-02-2014 14:00:00 8.4 C 80 % 5.16 C
3334 21-02-2014 14:05:00 8.6 C 79 % 5.17 C
3335 21-02-2014 14:10:00 8.8 C 78 % 5.18 C
3336 21-02-2014 14:15:00 8.8 C 78 % 5.18 C
3337 21-02-2014 14:20:00 8.9 C 78 % 5.28 C
3338 21-02-2014 14:25:00 9.1 C 77 % 5.29 C
3339 21-02-2014 14:30:00 9.1 C 75 % 4.91 C
3340 21-02-2014 14:35:00 9.1 C 76 % 5.1 C
3341 21-02-2014 14:40:00 9.3 C 75 % 5.1 C
3342 21-02-2014 14:45:00 9.4 C 72 % 4.62 C
3343 21-02-2014 14:50:00 9.5 C 71 % 4.51 C
3344 21-02-2014 14:55:00 9.4 C 69 % 4.01 C
3345 21-02-2014 15:00:00 9.4 C 70 % 4.21 C
3346 21-02-2014 15:05:00 9.4 C 71 % 4.42 C
3347 21-02-2014 15:10:00 9.4 C 70 % 4.21 C
3348 21-02-2014 15:15:00 9.4 C 70 % 4.21 C
3349 21-02-2014 15:20:00 9.4 C 71 % 4.42 C
3350 21-02-2014 15:25:00 9.3 C 71 % 4.32 C
Sensor: Nr:Datum:Temp:Feuchte:Taupunkt:
Aussen-T/F 3351 21-02-2014 15:30:00 9.3 C 71 % 4.32 C
3352 21-02-2014 15:35:00 9.1 C 72 % 4.33 C
3353 21-02-2014 15:40:00 9.2 C 72 % 4.42 C
3354 21-02-2014 15:45:00 9.1 C 71 % 4.13 C
3355 21-02-2014 15:50:00 8.8 C 71 % 3.84 C
3356 21-02-2014 15:55:00 8.8 C 72 % 4.04 C
3357 21-02-2014 16:00:00 8.8 C 71 % 3.84 C
3358 21-02-2014 16:05:00 8.7 C 71 % 3.74 C
3359 21-02-2014 16:10:00 8.7 C 72 % 3.94 C
3360 21-02-2014 16:15:00 8.3 C 78 % 4.7 C
3361 21-02-2014 16:20:00 7.7 C 81 % 4.65 C
3362 21-02-2014 16:25:00 7.4 C 81 % 4.36 C
3363 21-02-2014 16:30:00 7.2 C 81 % 4.16 C
3364 21-02-2014 16:35:00 7.1 C 79 % 3.71 C
3365 21-02-2014 16:40:00 7.1 C 79 % 3.71 C
3366 21-02-2014 16:45:00 7 C 80 % 3.79 C
3367 21-02-2014 16:50:00 7.1 C 81 % 4.07 C
3368 21-02-2014 16:55:00 7.2 C 81 % 4.16 C
3369 21-02-2014 17:00:00 7.4 C 80 % 4.18 C
3370 21-02-2014 17:05:00 7.4 C 80 % 4.18 C
3371 21-02-2014 17:10:00 7.5 C 80 % 4.28 C
3372 21-02-2014 17:15:00 7.5 C 78 % 3.92 C
3373 21-02-2014 17:20:00 7.4 C 78 % 3.82 C
3374 21-02-2014 17:25:00 7.3 C 78 % 3.73 C
3375 21-02-2014 17:30:00 7.2 C 79 % 3.81 C
Sensor: Nr:Datum:Temp:Feuchte:Taupunkt:
Aussen-T/F 3376 21-02-2014 17:35:00 7 C 78 % 3.43 C
3377 21-02-2014 17:40:00 6.9 C 79 % 3.52 C
3378 21-02-2014 17:45:00 6.7 C 80 % 3.5 C
3379 21-02-2014 17:50:00 6.7 C 81 % 3.68 C
3380 21-02-2014 17:55:00 6.5 C 81 % 3.48 C
3381 21-02-2014 18:00:00 6.5 C 81 % 3.48 C
3382 21-02-2014 18:05:00 6.4 C 81 % 3.38 C
3383 21-02-2014 18:10:00 6.3 C 82 % 3.46 C
3384 21-02-2014 18:15:00 6 C 84 % 3.51 C
3385 21-02-2014 18:20:00 5.9 C 85 % 3.58 C
3386 21-02-2014 18:25:00 5.7 C 85 % 3.38 C
3387 21-02-2014 18:30:00 5.5 C 86 % 3.35 C
3388 21-02-2014 18:35:00 5.4 C 87 % 3.41 C
3389 21-02-2014 18:40:00 5.2 C 87 % 3.22 C
3390 21-02-2014 18:45:00 4.9 C 88 % 3.08 C
3391 21-02-2014 18:50:00 5 C 89 % 3.34 C
3392 21-02-2014 18:55:00 4.9 C 89 % 3.24 C
3393 21-02-2014 19:00:00 4.8 C 89 % 3.14 C
3394 21-02-2014 19:05:00 4.9 C 89 % 3.24 C
3395 21-02-2014 19:10:00 4.9 C 88 % 3.08 C
3396 21-02-2014 19:15:00 5 C 88 % 3.18 C
3397 21-02-2014 19:20:00 5.3 C 86 % 3.15 C
3398 21-02-2014 19:25:00 5.4 C 86 % 3.25 C
3399 21-02-2014 19:30:00 5.3 C 85 % 2.99 C
3400 21-02-2014 19:35:00 5.3 C 86 % 3.15 C
Sensor: Nr:Datum:Temp:Feuchte:Taupunkt:
Aussen-T/F 3401 21-02-2014 19:40:00 5.3 C 86 % 3.15 C
3402 21-02-2014 19:45:00 5.2 C 86 % 3.05 C
3403 21-02-2014 19:50:00 5 C 87 % 3.02 C
3404 21-02-2014 19:55:00 4.8 C 88 % 2.99 C
3405 21-02-2014 20:00:00 4.7 C 89 % 3.05 C
3406 21-02-2014 20:05:00 4.6 C 90 % 3.1 C
3407 21-02-2014 20:10:00 4.5 C 90 % 3.01 C
3408 21-02-2014 20:15:00 4.3 C 90 % 2.81 C
3409 21-02-2014 20:20:00 4.3 C 90 % 2.81 C
3410 21-02-2014 20:25:00 4.1 C 91 % 2.77 C
3411 21-02-2014 20:30:00 3.9 C 91 % 2.57 C
3412 21-02-2014 20:35:00 3.8 C 91 % 2.47 C
3413 21-02-2014 20:40:00 3.8 C 92 % 2.62 C
3414 21-02-2014 20:45:00 3.8 C 92 % 2.62 C
3415 21-02-2014 20:50:00 3.8 C 92 % 2.62 C
3416 21-02-2014 20:55:00 3.8 C 92 % 2.62 C
3417 21-02-2014 21:00:00 3.8 C 92 % 2.62 C
3418 21-02-2014 21:05:00 3.8 C 92 % 2.62 C
3419 21-02-2014 21:10:00 3.7 C 91 % 2.37 C
3420 21-02-2014 21:15:00 3.7 C 92 % 2.52 C
3421 21-02-2014 21:20:00 3.7 C 92 % 2.52 C
3422 21-02-2014 21:25:00 3.6 C 92 % 2.42 C
3423 21-02-2014 21:30:00 3.5 C 92 % 2.33 C
3424 21-02-2014 21:35:00 3.4 C 92 % 2.23 C
3425 21-02-2014 21:40:00 3.3 C 93 % 2.28 C
Sensor: Nr:Datum:Temp:Feuchte:Taupunkt:
Aussen-T/F 3426 21-02-2014 21:45:00 3.3 C 93 % 2.28 C
3427 21-02-2014 21:50:00 3.4 C 93 % 2.38 C
3428 21-02-2014 21:55:00 3.4 C 93 % 2.38 C
3429 21-02-2014 22:00:00 3.3 C 92 % 2.13 C
3430 21-02-2014 22:05:00 3.2 C 92 % 2.03 C
3431 21-02-2014 22:10:00 3.2 C 92 % 2.03 C
3432 21-02-2014 22:15:00 3.2 C 93 % 2.18 C
3433 21-02-2014 22:20:00 3.1 C 93 % 2.08 C
3434 21-02-2014 22:25:00 3.1 C 93 % 2.08 C
3435 21-02-2014 22:30:00 3.2 C 94 % 2.33 C
3436 21-02-2014 22:35:00 3.2 C 94 % 2.33 C
3437 21-02-2014 22:40:00 3.2 C 94 % 2.33 C
3438 21-02-2014 22:45:00 3.3 C 94 % 2.43 C
3439 21-02-2014 22:50:00 3.3 C 94 % 2.43 C
3440 21-02-2014 22:55:00 3.4 C 94 % 2.53 C
3441 21-02-2014 23:00:00 3.5 C 94 % 2.63 C
3442 21-02-2014 23:05:00 3.5 C 93 % 2.48 C
3443 21-02-2014 23:10:00 3.5 C 93 % 2.48 C
3444 21-02-2014 23:15:00 3.6 C 93 % 2.58 C
3445 21-02-2014 23:20:00 3.7 C 93 % 2.68 C
3446 21-02-2014 23:25:00 3.7 C 93 % 2.68 C
3447 21-02-2014 23:30:00 3.7 C 93 % 2.68 C
3448 21-02-2014 23:35:00 3.7 C 93 % 2.68 C
3449 21-02-2014 23:40:00 3.6 C 92 % 2.42 C
3450 21-02-2014 23:45:00 3.4 C 92 % 2.23 C
Sensor: Nr:Datum:Temp:Feuchte:Taupunkt:
Aussen-T/F 3451 21-02-2014 23:50:00 3.3 C 93 % 2.28 C
3452 21-02-2014 23:55:00 3.2 C 93 % 2.18 C
3453 22-02-2014 00:00:00 3.3 C 93 % 2.28 C
3454 22-02-2014 00:05:00 3.2 C 93 % 2.18 C
3455 22-02-2014 00:10:00 3.1 C 92 % 1.93 C
3456 22-02-2014 00:15:00 3 C 93 % 1.98 C
3457 22-02-2014 00:20:00 2.9 C 93 % 1.88 C
3458 22-02-2014 00:25:00 2.8 C 93 % 1.78 C
3459 22-02-2014 00:30:00 2.8 C 93 % 1.78 C
3460 22-02-2014 00:35:00 2.7 C 94 % 1.83 C
3461 22-02-2014 00:40:00 2.7 C 94 % 1.83 C
3462 22-02-2014 00:45:00 2.7 C 94 % 1.83 C
3463 22-02-2014 00:50:00 2.6 C 94 % 1.73 C
3464 22-02-2014 00:55:00 2.6 C 94 % 1.73 C
3465 22-02-2014 01:00:00 2.5 C 94 % 1.63 C
3466 22-02-2014 01:05:00 2.5 C 94 % 1.63 C
3467 22-02-2014 01:10:00 2.5 C 94 % 1.63 C
3468 22-02-2014 01:15:00 2.5 C 94 % 1.63 C
3469 22-02-2014 01:20:00 2.4 C 94 % 1.54 C
3470 22-02-2014 01:25:00 2.3 C 94 % 1.44 C
3471 22-02-2014 01:30:00 2.3 C 94 % 1.44 C
3472 22-02-2014 01:35:00 2.3 C 95 % 1.58 C
3473 22-02-2014 01:40:00 2.3 C 95 % 1.58 C
3474 22-02-2014 01:45:00 2.2 C 94 % 1.34 C
3475 22-02-2014 01:50:00 2.2 C 95 % 1.48 C
Sensor: Nr:Datum:Temp:Feuchte:Taupunkt:
Aussen-T/F 3476 22-02-2014 01:55:00 2.2 C 95 % 1.48 C
3477 22-02-2014 02:00:00 2.1 C 95 % 1.38 C
3478 22-02-2014 02:05:00 2.1 C 95 % 1.38 C
3479 22-02-2014 02:10:00 2.1 C 95 % 1.38 C
3480 22-02-2014 02:15:00 2 C 95 % 1.29 C
3481 22-02-2014 02:20:00 2 C 95 % 1.29 C
3482 22-02-2014 02:25:00 1.9 C 95 % 1.19 C
3483 22-02-2014 02:30:00 1.9 C 95 % 1.19 C
3484 22-02-2014 02:35:00 1.9 C 95 % 1.19 C
3485 22-02-2014 02:40:00 1.9 C 95 % 1.19 C
3486 22-02-2014 02:45:00 1.9 C 95 % 1.19 C
3487 22-02-2014 02:50:00 1.9 C 95 % 1.19 C
3488 22-02-2014 02:55:00 1.9 C 95 % 1.19 C
3489 22-02-2014 03:00:00 1.9 C 95 % 1.19 C
3490 22-02-2014 03:05:00 1.8 C 95 % 1.09 C
3491 22-02-2014 03:10:00 1.8 C 95 % 1.09 C
3492 22-02-2014 03:15:00 1.7 C 95 % 0.99 C
3493 22-02-2014 03:20:00 1.7 C 95 % 0.99 C
3494 22-02-2014 03:25:00 1.6 C 95 % 0.89 C
3495 22-02-2014 03:30:00 1.6 C 95 % 0.89 C
3496 22-02-2014 03:35:00 1.6 C 95 % 0.89 C
3497 22-02-2014 03:40:00 1.6 C 95 % 0.89 C
3498 22-02-2014 03:45:00 1.6 C 95 % 0.89 C
3499 22-02-2014 03:50:00 1.6 C 95 % 0.89 C
3500 22-02-2014 03:55:00 1.6 C 95 % 0.89 C
Sensor: Nr:Datum:Temp:Feuchte:Taupunkt:
Aussen-T/F 3501 22-02-2014 04:00:00 1.5 C 95 % 0.79 C
3502 22-02-2014 04:05:00 1.4 C 95 % 0.69 C
3503 22-02-2014 04:10:00 1.5 C 95 % 0.79 C
3504 22-02-2014 04:15:00 1.4 C 95 % 0.69 C
3505 22-02-2014 04:20:00 1.4 C 95 % 0.69 C
3506 22-02-2014 04:25:00 1.3 C 95 % 0.59 C
3507 22-02-2014 04:30:00 1.3 C 95 % 0.59 C
3508 22-02-2014 04:35:00 1.3 C 95 % 0.59 C
3509 22-02-2014 04:40:00 1.3 C 95 % 0.59 C
3510 22-02-2014 04:45:00 1.3 C 95 % 0.59 C
3511 22-02-2014 04:50:00 1.2 C 95 % 0.49 C
3512 22-02-2014 04:55:00 1.1 C 95 % 0.39 C
3513 22-02-2014 05:00:00 1.1 C 95 % 0.39 C
3514 22-02-2014 05:05:00 1 C 95 % 0.29 C
3515 22-02-2014 05:10:00 1.1 C 95 % 0.39 C
3516 22-02-2014 05:15:00 1.1 C 95 % 0.39 C
3517 22-02-2014 05:20:00 1.1 C 95 % 0.39 C
3518 22-02-2014 05:25:00 1.1 C 95 % 0.39 C
3519 22-02-2014 05:30:00 1.1 C 95 % 0.39 C
3520 22-02-2014 05:35:00 1.2 C 96 % 0.63 C
3521 22-02-2014 05:40:00 1.2 C 96 % 0.63 C
3522 22-02-2014 05:45:00 1.4 C 96 % 0.83 C
3523 22-02-2014 05:50:00 1.4 C 96 % 0.83 C
3524 22-02-2014 05:55:00 1.5 C 96 % 0.93 C
3525 22-02-2014 06:00:00 1.7 C 96 % 1.13 C
Sensor: Nr:Datum:Temp:Feuchte:Taupunkt:
Aussen-T/F 3526 22-02-2014 06:05:00 1.8 C 96 % 1.23 C
3527 22-02-2014 06:10:00 1.8 C 96 % 1.23 C
3528 22-02-2014 06:15:00 1.8 C 96 % 1.23 C
3529 22-02-2014 06:20:00 1.8 C 96 % 1.23 C
3530 22-02-2014 06:25:00 1.9 C 96 % 1.33 C
3531 22-02-2014 06:30:00 2 C 96 % 1.43 C
3532 22-02-2014 06:35:00 2.2 C 96 % 1.63 C
3533 22-02-2014 06:40:00 2.3 C 96 % 1.73 C
3534 22-02-2014 06:45:00 2.3 C 95 % 1.58 C
3535 22-02-2014 06:50:00 2.4 C 95 % 1.68 C
3536 22-02-2014 06:55:00 2.6 C 95 % 1.88 C
3537 22-02-2014 07:00:00 2.6 C 95 % 1.88 C
3538 22-02-2014 07:05:00 2.6 C 95 % 1.88 C
3539 22-02-2014 07:10:00 2.7 C 95 % 1.98 C
3540 22-02-2014 07:15:00 2.8 C 95 % 2.08 C
3541 22-02-2014 07:20:00 2.9 C 95 % 2.18 C
3542 22-02-2014 07:25:00 3.2 C 94 % 2.33 C
3543 22-02-2014 07:30:00 3.6 C 93 % 2.58 C
3544 22-02-2014 07:35:00 3.7 C 92 % 2.52 C
3545 22-02-2014 07:40:00 3.8 C 91 % 2.47 C
3546 22-02-2014 07:45:00 3.9 C 90 % 2.41 C
3547 22-02-2014 07:50:00 3.9 C 90 % 2.41 C
3548 22-02-2014 07:55:00 3.9 C 90 % 2.41 C
3549 22-02-2014 08:00:00 3.9 C 91 % 2.57 C
3550 22-02-2014 08:05:00 3.8 C 91 % 2.47 C
Sensor: Nr:Datum:Temp:Feuchte:Taupunkt:
Aussen-T/F 3551 22-02-2014 08:10:00 3.8 C 91 % 2.47 C
3552 22-02-2014 08:15:00 3.8 C 91 % 2.47 C
3553 22-02-2014 08:20:00 3.8 C 92 % 2.62 C
3554 22-02-2014 08:25:00 3.8 C 92 % 2.62 C
3555 22-02-2014 08:30:00 3.9 C 91 % 2.57 C
3556 22-02-2014 08:35:00 3.9 C 91 % 2.57 C
3557 22-02-2014 08:40:00 4 C 91 % 2.67 C
3558 22-02-2014 08:45:00 4.1 C 91 % 2.77 C
3559 22-02-2014 08:50:00 4.1 C 91 % 2.77 C
3560 22-02-2014 08:55:00 4.3 C 90 % 2.81 C
3561 22-02-2014 09:00:00 4.4 C 90 % 2.91 C
3562 22-02-2014 09:05:00 4.6 C 89 % 2.95 C
3563 22-02-2014 09:10:00 4.7 C 89 % 3.05 C
3564 22-02-2014 09:15:00 4.8 C 88 % 2.99 C
3565 22-02-2014 09:20:00 4.9 C 87 % 2.92 C
3566 22-02-2014 09:25:00 5.1 C 88 % 3.28 C
3567 22-02-2014 09:30:00 5.2 C 87 % 3.22 C
3568 22-02-2014 09:35:00 5.2 C 87 % 3.22 C
3569 22-02-2014 09:40:00 5.3 C 87 % 3.32 C
3570 22-02-2014 09:45:00 5.4 C 86 % 3.25 C
3571 22-02-2014 09:50:00 5.4 C 86 % 3.25 C
3572 22-02-2014 09:55:00 5.6 C 85 % 3.28 C
3573 22-02-2014 10:00:00 5.7 C 85 % 3.38 C
3574 22-02-2014 10:05:00 5.9 C 85 % 3.58 C
3575 22-02-2014 10:10:00 6.1 C 84 % 3.61 C
Sensor: Nr:Datum:Temp:Feuchte:Taupunkt:
Aussen-T/F 3576 22-02-2014 10:15:00 6.2 C 84 % 3.7 C
3577 22-02-2014 10:20:00 6.2 C 83 % 3.53 C
3578 22-02-2014 10:25:00 6.3 C 83 % 3.63 C
3579 22-02-2014 10:30:00 6.3 C 83 % 3.63 C
3580 22-02-2014 10:35:00 6.3 C 82 % 3.46 C
3581 22-02-2014 10:40:00 6.4 C 82 % 3.56 C
3582 22-02-2014 10:45:00 6.4 C 82 % 3.56 C
3583 22-02-2014 10:50:00 6.5 C 81 % 3.48 C
3584 22-02-2014 10:55:00 6.6 C 81 % 3.58 C
3585 22-02-2014 11:00:00 6.6 C 82 % 3.75 C
3586 22-02-2014 11:05:00 6.6 C 81 % 3.58 C
3587 22-02-2014 11:10:00 6.7 C 80 % 3.5 C
3588 22-02-2014 11:15:00 6.7 C 80 % 3.5 C
3589 22-02-2014 11:20:00 6.8 C 79 % 3.42 C
3590 22-02-2014 11:25:00 6.9 C 79 % 3.52 C
3591 22-02-2014 11:30:00 7.1 C 79 % 3.71 C
3592 22-02-2014 11:35:00 7.2 C 79 % 3.81 C
3593 22-02-2014 11:40:00 7.2 C 79 % 3.81 C
3594 22-02-2014 11:45:00 7.3 C 78 % 3.73 C
3595 22-02-2014 11:50:00 7.4 C 78 % 3.82 C
3596 22-02-2014 11:55:00 7.6 C 80 % 4.38 C
3597 22-02-2014 12:00:00 7.7 C 79 % 4.3 C
3598 22-02-2014 12:05:00 7.7 C 78 % 4.11 C
3599 22-02-2014 12:10:00 7.7 C 78 % 4.11 C
3600 22-02-2014 12:15:00 7.6 C 79 % 4.2 C
Sensor: Nr:Datum:Temp:Feuchte:Taupunkt:
Aussen-T/F 3601 22-02-2014 12:20:00 7.6 C 80 % 4.38 C
3602 22-02-2014 12:25:00 7.4 C 80 % 4.18 C
3603 22-02-2014 12:30:00 7.4 C 80 % 4.18 C
3604 22-02-2014 12:35:00 7.4 C 80 % 4.18 C
3605 22-02-2014 12:40:00 7.4 C 80 % 4.18 C
3606 22-02-2014 12:45:00 7.4 C 80 % 4.18 C
3607 22-02-2014 12:50:00 7.3 C 79 % 3.91 C
3608 22-02-2014 12:55:00 7.2 C 80 % 3.99 C
3609 22-02-2014 13:00:00 7.2 C 80 % 3.99 C
3610 22-02-2014 13:05:00 7.1 C 81 % 4.07 C
3611 22-02-2014 13:10:00 7.1 C 81 % 4.07 C
3612 22-02-2014 13:15:00 7.1 C 81 % 4.07 C
3613 22-02-2014 13:20:00 7.1 C 82 % 4.24 C
3614 22-02-2014 13:25:00 7.2 C 80 % 3.99 C
3615 22-02-2014 13:30:00 7.3 C 81 % 4.26 C
3616 22-02-2014 13:35:00 7.4 C 80 % 4.18 C
3617 22-02-2014 13:40:00 7.4 C 81 % 4.36 C
3618 22-02-2014 13:45:00 7.4 C 80 % 4.18 C
3619 22-02-2014 13:50:00 7.5 C 80 % 4.28 C
3620 22-02-2014 13:55:00 7.6 C 80 % 4.38 C
3621 22-02-2014 14:00:00 7.6 C 79 % 4.2 C
3622 22-02-2014 14:05:00 7.6 C 79 % 4.2 C
3623 22-02-2014 14:10:00 7.5 C 79 % 4.1 C
3624 22-02-2014 14:15:00 7.6 C 80 % 4.38 C
3625 22-02-2014 14:20:00 7.5 C 80 % 4.28 C
Sensor: Nr:Datum:Temp:Feuchte:Taupunkt:
Aussen-T/F 3626 22-02-2014 14:25:00 7.4 C 80 % 4.18 C
3627 22-02-2014 14:30:00 7.5 C 80 % 4.28 C
3628 22-02-2014 14:35:00 7.6 C 80 % 4.38 C
3629 22-02-2014 14:40:00 7.6 C 80 % 4.38 C
3630 22-02-2014 14:45:00 7.6 C 80 % 4.38 C
3631 22-02-2014 14:50:00 7.6 C 80 % 4.38 C
3632 22-02-2014 14:55:00 7.7 C 80 % 4.47 C
3633 22-02-2014 15:00:00 7.6 C 80 % 4.38 C
3634 22-02-2014 15:05:00 7.6 C 80 % 4.38 C
3635 22-02-2014 15:10:00 7.6 C 79 % 4.2 C
3636 22-02-2014 15:15:00 7.8 C 80 % 4.57 C
3637 22-02-2014 15:20:00 7.8 C 79 % 4.39 C
3638 22-02-2014 15:25:00 7.8 C 79 % 4.39 C
3639 22-02-2014 15:30:00 7.8 C 79 % 4.39 C
3640 22-02-2014 15:35:00 7.8 C 79 % 4.39 C
3641 22-02-2014 15:40:00 7.8 C 78 % 4.21 C
3642 22-02-2014 15:45:00 7.8 C 79 % 4.39 C
3643 22-02-2014 15:50:00 7.9 C 78 % 4.31 C
3644 22-02-2014 15:55:00 7.9 C 78 % 4.31 C
3645 22-02-2014 16:00:00 7.8 C 79 % 4.39 C
3646 22-02-2014 16:05:00 7.8 C 79 % 4.39 C
3647 22-02-2014 16:10:00 7.8 C 79 % 4.39 C
3648 22-02-2014 16:15:00 7.8 C 78 % 4.21 C
3649 22-02-2014 16:20:00 7.8 C 79 % 4.39 C
3650 22-02-2014 16:25:00 7.8 C 79 % 4.39 C
Sensor: Nr:Datum:Temp:Feuchte:Taupunkt:
Aussen-T/F 3651 22-02-2014 16:30:00 7.8 C 79 % 4.39 C
3652 22-02-2014 16:35:00 7.8 C 79 % 4.39 C
3653 22-02-2014 16:40:00 7.8 C 79 % 4.39 C
3654 22-02-2014 16:45:00 7.7 C 80 % 4.47 C
3655 22-02-2014 16:50:00 7.7 C 80 % 4.47 C
3656 22-02-2014 16:55:00 7.7 C 80 % 4.47 C
3657 22-02-2014 17:00:00 7.7 C 80 % 4.47 C
3658 22-02-2014 17:05:00 7.6 C 80 % 4.38 C
3659 22-02-2014 17:10:00 7.6 C 80 % 4.38 C
3660 22-02-2014 17:15:00 7.5 C 80 % 4.28 C
3661 22-02-2014 17:20:00 7.4 C 80 % 4.18 C
3662 22-02-2014 17:25:00 7.4 C 80 % 4.18 C
3663 22-02-2014 17:30:00 7.3 C 81 % 4.26 C
3664 22-02-2014 17:35:00 7.3 C 81 % 4.26 C
3665 22-02-2014 17:40:00 7.2 C 81 % 4.16 C
3666 22-02-2014 17:45:00 7.2 C 82 % 4.34 C
3667 22-02-2014 17:50:00 7.1 C 82 % 4.24 C
3668 22-02-2014 17:55:00 7.1 C 82 % 4.24 C
3669 22-02-2014 18:00:00 7 C 82 % 4.14 C
3670 22-02-2014 18:05:00 7 C 83 % 4.32 C
3671 22-02-2014 18:10:00 6.9 C 83 % 4.22 C
3672 22-02-2014 18:15:00 6.9 C 83 % 4.22 C
3673 22-02-2014 18:20:00 6.8 C 83 % 4.12 C
3674 22-02-2014 18:25:00 6.8 C 83 % 4.12 C
3675 22-02-2014 18:30:00 6.7 C 83 % 4.02 C
Sensor: Nr:Datum:Temp:Feuchte:Taupunkt:
Aussen-T/F 3676 22-02-2014 18:35:00 6.7 C 83 % 4.02 C
3677 22-02-2014 18:40:00 6.6 C 83 % 3.92 C
3678 22-02-2014 18:45:00 6.6 C 83 % 3.92 C
3679 22-02-2014 18:50:00 6.5 C 83 % 3.83 C
3680 22-02-2014 18:55:00 6.4 C 84 % 3.9 C
3681 22-02-2014 19:00:00 6.3 C 85 % 3.97 C
3682 22-02-2014 19:05:00 6.2 C 84 % 3.7 C
3683 22-02-2014 19:10:00 6.3 C 84 % 3.8 C
3684 22-02-2014 19:15:00 6.3 C 83 % 3.63 C
3685 22-02-2014 19:20:00 6.3 C 83 % 3.63 C
3686 22-02-2014 19:25:00 6.4 C 83 % 3.73 C
3687 22-02-2014 19:30:00 6.4 C 83 % 3.73 C
3688 22-02-2014 19:35:00 6.4 C 82 % 3.56 C
3689 22-02-2014 19:40:00 6.4 C 83 % 3.73 C
3690 22-02-2014 19:45:00 6.4 C 83 % 3.73 C
3691 22-02-2014 19:50:00 6.4 C 83 % 3.73 C
3692 22-02-2014 19:55:00 6.3 C 84 % 3.8 C
3693 22-02-2014 20:00:00 6.3 C 83 % 3.63 C
3694 22-02-2014 20:05:00 6.2 C 84 % 3.7 C
3695 22-02-2014 20:10:00 6.2 C 84 % 3.7 C
3696 22-02-2014 20:15:00 6.2 C 85 % 3.87 C
3697 22-02-2014 20:20:00 6.2 C 84 % 3.7 C
3698 22-02-2014 20:25:00 6.1 C 85 % 3.77 C
3699 22-02-2014 20:30:00 6.1 C 86 % 3.94 C
3700 22-02-2014 20:35:00 6 C 85 % 3.67 C
Sensor: Nr:Datum:Temp:Feuchte:Taupunkt:
Aussen-T/F 3701 22-02-2014 20:40:00 6 C 85 % 3.67 C
3702 22-02-2014 20:45:00 6 C 86 % 3.84 C
3703 22-02-2014 20:50:00 6 C 86 % 3.84 C
3704 22-02-2014 20:55:00 6 C 86 % 3.84 C
3705 22-02-2014 21:00:00 5.9 C 86 % 3.74 C
3706 22-02-2014 21:05:00 5.9 C 86 % 3.74 C
3707 22-02-2014 21:10:00 5.9 C 87 % 3.91 C
3708 22-02-2014 21:15:00 5.8 C 88 % 3.97 C
3709 22-02-2014 21:20:00 5.8 C 88 % 3.97 C
3710 22-02-2014 21:25:00 5.7 C 88 % 3.87 C
3711 22-02-2014 21:30:00 5.7 C 87 % 3.71 C
3712 22-02-2014 21:35:00 5.7 C 88 % 3.87 C
3713 22-02-2014 21:40:00 5.7 C 88 % 3.87 C
3714 22-02-2014 21:45:00 5.7 C 88 % 3.87 C
3715 22-02-2014 21:50:00 5.6 C 88 % 3.77 C
3716 22-02-2014 21:55:00 5.6 C 87 % 3.61 C
3717 22-02-2014 22:00:00 5.7 C 88 % 3.87 C
3718 22-02-2014 22:05:00 5.7 C 88 % 3.87 C
3719 22-02-2014 22:10:00 5.6 C 88 % 3.77 C
3720 22-02-2014 22:15:00 5.6 C 88 % 3.77 C
3721 22-02-2014 22:20:00 5.6 C 88 % 3.77 C
3722 22-02-2014 22:25:00 5.6 C 88 % 3.77 C
3723 22-02-2014 22:30:00 5.6 C 88 % 3.77 C
3724 22-02-2014 22:35:00 5.5 C 88 % 3.67 C
3725 22-02-2014 22:40:00 5.4 C 88 % 3.58 C
Sensor: Nr:Datum:Temp:Feuchte:Taupunkt:
Aussen-T/F 3726 22-02-2014 22:45:00 5.4 C 89 % 3.74 C
3727 22-02-2014 22:50:00 5.4 C 89 % 3.74 C
3728 22-02-2014 22:55:00 5.3 C 89 % 3.64 C
3729 22-02-2014 23:00:00 5.3 C 89 % 3.64 C
3730 22-02-2014 23:05:00 5.3 C 89 % 3.64 C
3731 22-02-2014 23:10:00 5.3 C 89 % 3.64 C
3732 22-02-2014 23:15:00 5.2 C 89 % 3.54 C
3733 22-02-2014 23:20:00 5.2 C 88 % 3.38 C
3734 22-02-2014 23:25:00 5.2 C 89 % 3.54 C
3735 22-02-2014 23:30:00 5.2 C 88 % 3.38 C
3736 22-02-2014 23:35:00 5.3 C 88 % 3.48 C
3737 22-02-2014 23:40:00 5.3 C 88 % 3.48 C
3738 22-02-2014 23:45:00 5.4 C 88 % 3.58 C
3739 22-02-2014 23:50:00 5.3 C 88 % 3.48 C
3740 22-02-2014 23:55:00 5.4 C 89 % 3.74 C
3741 23-02-2014 00:00:00 5.3 C 88 % 3.48 C
3742 23-02-2014 00:05:00 5.4 C 87 % 3.41 C
3743 23-02-2014 00:10:00 5.4 C 87 % 3.41 C
3744 23-02-2014 00:15:00 5.5 C 87 % 3.51 C
3745 23-02-2014 00:20:00 5.5 C 86 % 3.35 C
3746 23-02-2014 00:25:00 5.6 C 87 % 3.61 C
3747 23-02-2014 00:30:00 5.6 C 86 % 3.45 C
3748 23-02-2014 00:35:00 5.6 C 85 % 3.28 C
3749 23-02-2014 00:40:00 5.6 C 85 % 3.28 C
3750 23-02-2014 00:45:00 5.7 C 85 % 3.38 C
Sensor: Nr:Datum:Temp:Feuchte:Taupunkt:
Aussen-T/F 3751 23-02-2014 00:50:00 5.7 C 85 % 3.38 C
3752 23-02-2014 00:55:00 5.7 C 85 % 3.38 C
3753 23-02-2014 01:00:00 5.7 C 84 % 3.21 C
3754 23-02-2014 01:05:00 5.6 C 86 % 3.45 C
3755 23-02-2014 01:10:00 5.4 C 85 % 3.09 C
3756 23-02-2014 01:15:00 4.9 C 86 % 2.76 C
3757 23-02-2014 01:20:00 4.7 C 86 % 2.56 C
3758 23-02-2014 01:25:00 4.3 C 87 % 2.33 C
3759 23-02-2014 01:30:00 4 C 88 % 2.2 C
3760 23-02-2014 01:35:00 3.8 C 89 % 2.16 C
3761 23-02-2014 01:40:00 3.6 C 90 % 2.12 C
3762 23-02-2014 01:45:00 3.5 C 90 % 2.02 C
3763 23-02-2014 01:50:00 3.4 C 91 % 2.07 C
3764 23-02-2014 01:55:00 3.3 C 91 % 1.98 C
3765 23-02-2014 02:00:00 3.3 C 91 % 1.98 C
3766 23-02-2014 02:05:00 3.2 C 91 % 1.88 C
3767 23-02-2014 02:10:00 3.1 C 91 % 1.78 C
3768 23-02-2014 02:15:00 3.1 C 91 % 1.78 C
3769 23-02-2014 02:20:00 3 C 91 % 1.68 C
3770 23-02-2014 02:25:00 2.9 C 92 % 1.73 C
3771 23-02-2014 02:30:00 2.9 C 91 % 1.58 C
3772 23-02-2014 02:35:00 2.9 C 91 % 1.58 C
3773 23-02-2014 02:40:00 2.9 C 91 % 1.58 C
3774 23-02-2014 02:45:00 3 C 91 % 1.68 C
3775 23-02-2014 02:50:00 3.1 C 91 % 1.78 C
Sensor: Nr:Datum:Temp:Feuchte:Taupunkt:
Aussen-T/F 3776 23-02-2014 02:55:00 3.1 C 90 % 1.62 C
3777 23-02-2014 03:00:00 3.1 C 90 % 1.62 C
3778 23-02-2014 03:05:00 3.1 C 90 % 1.62 C
3779 23-02-2014 03:10:00 3.1 C 90 % 1.62 C
3780 23-02-2014 03:15:00 2.9 C 90 % 1.43 C
3781 23-02-2014 03:20:00 2.9 C 91 % 1.58 C
3782 23-02-2014 03:25:00 2.8 C 91 % 1.48 C
3783 23-02-2014 03:30:00 2.8 C 91 % 1.48 C
3784 23-02-2014 03:35:00 2.8 C 91 % 1.48 C
3785 23-02-2014 03:40:00 2.8 C 91 % 1.48 C
3786 23-02-2014 03:45:00 2.8 C 91 % 1.48 C
3787 23-02-2014 03:50:00 2.8 C 91 % 1.48 C
3788 23-02-2014 03:55:00 2.7 C 91 % 1.38 C
3789 23-02-2014 04:00:00 2.6 C 91 % 1.28 C
3790 23-02-2014 04:05:00 2.5 C 91 % 1.18 C
3791 23-02-2014 04:10:00 2.4 C 91 % 1.08 C
3792 23-02-2014 04:15:00 2.2 C 91 % 0.89 C
3793 23-02-2014 04:20:00 2.1 C 91 % 0.79 C
3794 23-02-2014 04:25:00 2.1 C 92 % 0.94 C
3795 23-02-2014 04:30:00 2.1 C 92 % 0.94 C
3796 23-02-2014 04:35:00 2 C 92 % 0.84 C
3797 23-02-2014 04:40:00 1.9 C 92 % 0.74 C
3798 23-02-2014 04:45:00 2.1 C 93 % 1.09 C
3799 23-02-2014 04:50:00 2.1 C 93 % 1.09 C
3800 23-02-2014 04:55:00 2.2 C 93 % 1.19 C
Sensor: Nr:Datum:Temp:Feuchte:Taupunkt:
Aussen-T/F 3801 23-02-2014 05:00:00 2.2 C 93 % 1.19 C
3802 23-02-2014 05:05:00 2.2 C 93 % 1.19 C
3803 23-02-2014 05:10:00 2.1 C 93 % 1.09 C
3804 23-02-2014 05:15:00 2.1 C 93 % 1.09 C
3805 23-02-2014 05:20:00 2.1 C 93 % 1.09 C
3806 23-02-2014 05:25:00 2.1 C 93 % 1.09 C
3807 23-02-2014 05:30:00 2.1 C 93 % 1.09 C
3808 23-02-2014 05:35:00 2 C 93 % 0.99 C
3809 23-02-2014 05:40:00 1.9 C 93 % 0.89 C
3810 23-02-2014 05:45:00 1.9 C 93 % 0.89 C
3811 23-02-2014 05:50:00 2 C 93 % 0.99 C
3812 23-02-2014 05:55:00 2.1 C 94 % 1.24 C
3813 23-02-2014 06:00:00 2.2 C 93 % 1.19 C
3814 23-02-2014 06:05:00 2.3 C 94 % 1.44 C
3815 23-02-2014 06:10:00 2.4 C 93 % 1.39 C
3816 23-02-2014 06:15:00 2.4 C 93 % 1.39 C
3817 23-02-2014 06:20:00 2.7 C 94 % 1.83 C
3818 23-02-2014 06:25:00 2.9 C 93 % 1.88 C
3819 23-02-2014 06:30:00 3.1 C 93 % 2.08 C
3820 23-02-2014 06:35:00 3.2 C 93 % 2.18 C
3821 23-02-2014 06:40:00 3.3 C 92 % 2.13 C
3822 23-02-2014 06:45:00 3.4 C 91 % 2.07 C
3823 23-02-2014 06:50:00 3.5 C 91 % 2.17 C
3824 23-02-2014 06:55:00 3.6 C 91 % 2.27 C
3825 23-02-2014 07:00:00 3.6 C 90 % 2.12 C
Sensor: Nr:Datum:Temp:Feuchte:Taupunkt:
Aussen-T/F 3826 23-02-2014 07:05:00 3.6 C 90 % 2.12 C
3827 23-02-2014 07:10:00 3.6 C 90 % 2.12 C
3828 23-02-2014 07:15:00 3.6 C 90 % 2.12 C
3829 23-02-2014 07:20:00 3.6 C 90 % 2.12 C
3830 23-02-2014 07:25:00 3.7 C 90 % 2.22 C
3831 23-02-2014 07:30:00 3.7 C 90 % 2.22 C
3832 23-02-2014 07:35:00 3.7 C 91 % 2.37 C
3833 23-02-2014 07:40:00 3.8 C 91 % 2.47 C
3834 23-02-2014 07:45:00 3.8 C 90 % 2.31 C
3835 23-02-2014 07:50:00 3.9 C 90 % 2.41 C
3836 23-02-2014 07:55:00 4.1 C 90 % 2.61 C
3837 23-02-2014 08:00:00 4.2 C 90 % 2.71 C
3838 23-02-2014 08:05:00 4.3 C 90 % 2.81 C
3839 23-02-2014 08:10:00 4.3 C 91 % 2.96 C
3840 23-02-2014 08:15:00 4.3 C 90 % 2.81 C
3841 23-02-2014 08:20:00 4.4 C 91 % 3.06 C
3842 23-02-2014 08:25:00 4.6 C 91 % 3.26 C
3843 23-02-2014 08:30:00 4.7 C 90 % 3.2 C
3844 23-02-2014 08:35:00 4.7 C 91 % 3.36 C
3845 23-02-2014 08:40:00 4.8 C 91 % 3.46 C
3846 23-02-2014 08:45:00 4.8 C 91 % 3.46 C
3847 23-02-2014 09:25:00 6 C 84 % 3.51 C
3848 23-02-2014 09:30:00 6 C 84 % 3.51 C
3849 23-02-2014 09:35:00 6 C 84 % 3.51 C
3850 23-02-2014 12:40:00 10.1 C 100 % 10.1 C
Sensor: Nr:Datum:Temp:Feuchte:Taupunkt:
Aussen-T/F 3851 23-02-2014 12:45:00 10.2 C 67 % 4.36 C
3852 23-02-2014 12:50:00 10.1 C 67 % 4.26 C
3853 23-02-2014 12:55:00 10.1 C 67 % 4.26 C
3854 23-02-2014 13:00:00 10.2 C 69 % 4.78 C
3855 23-02-2014 13:05:00 10.2 C 70 % 4.98 C
3856 23-02-2014 13:10:00 10.2 C 69 % 4.78 C
3857 23-02-2014 13:15:00 10.3 C 68 % 4.66 C
3858 23-02-2014 13:20:00 10.2 C 69 % 4.78 C
3859 23-02-2014 13:25:00 10.2 C 69 % 4.78 C
3860 23-02-2014 13:30:00 10.3 C 69 % 4.87 C
3861 23-02-2014 13:35:00 10.4 C 67 % 4.55 C
3862 23-02-2014 13:40:00 10.6 C 65 % 4.3 C
3863 23-02-2014 13:45:00 10.7 C 64 % 4.18 C
3864 23-02-2014 13:50:00 10.8 C 63 % 4.05 C
3865 23-02-2014 13:55:00 10.8 C 65 % 4.49 C
3866 23-02-2014 14:00:00 10.9 C 63 % 4.14 C
3867 23-02-2014 14:05:00 10.9 C 64 % 4.37 C
3868 23-02-2014 14:10:00 10.7 C 67 % 4.83 C
3869 23-02-2014 14:15:00 10.6 C 69 % 5.16 C
3870 23-02-2014 14:20:00 10.4 C 71 % 5.38 C
3871 23-02-2014 14:25:00 10.3 C 72 % 5.48 C
3872 23-02-2014 14:30:00 10.2 C 72 % 5.39 C
3873 23-02-2014 14:35:00 10.1 C 72 % 5.29 C
3874 23-02-2014 14:40:00 10.1 C 72 % 5.29 C
3875 23-02-2014 14:45:00 10 C 72 % 5.19 C
Sensor: Nr:Datum:Temp:Feuchte:Taupunkt:
Aussen-T/F 3876 23-02-2014 14:50:00 10 C 72 % 5.19 C
3877 23-02-2014 14:55:00 10 C 73 % 5.39 C
3878 23-02-2014 15:00:00 9.9 C 73 % 5.29 C
3879 23-02-2014 15:05:00 9.7 C 73 % 5.1 C
3880 23-02-2014 15:10:00 9.7 C 74 % 5.3 C
3881 23-02-2014 15:15:00 9.6 C 74 % 5.2 C
3882 23-02-2014 15:20:00 9.6 C 74 % 5.2 C
3883 23-02-2014 15:25:00 9.6 C 74 % 5.2 C
3884 23-02-2014 15:30:00 9.7 C 73 % 5.1 C
3885 23-02-2014 15:35:00 9.7 C 74 % 5.3 C
3886 23-02-2014 15:40:00 9.8 C 73 % 5.2 C
3887 23-02-2014 15:45:00 9.8 C 73 % 5.2 C
3888 23-02-2014 15:50:00 9.9 C 73 % 5.29 C
3889 23-02-2014 15:55:00 9.9 C 72 % 5.1 C
3890 23-02-2014 16:00:00 9.9 C 71 % 4.9 C
3891 23-02-2014 16:05:00 10 C 71 % 4.99 C
3892 23-02-2014 16:10:00 10 C 70 % 4.79 C
3893 23-02-2014 16:15:00 10.1 C 70 % 4.89 C
3894 23-02-2014 16:20:00 10.1 C 70 % 4.89 C
3895 23-02-2014 16:25:00 10.1 C 70 % 4.89 C
3896 23-02-2014 16:30:00 10 C 69 % 4.58 C
3897 23-02-2014 16:35:00 10 C 70 % 4.79 C
3898 23-02-2014 16:40:00 9.9 C 70 % 4.69 C
3899 23-02-2014 16:45:00 9.9 C 71 % 4.9 C
3900 23-02-2014 16:50:00 9.9 C 71 % 4.9 C
Sensor: Nr:Datum:Temp:Feuchte:Taupunkt:
Aussen-T/F 3901 23-02-2014 16:55:00 9.9 C 72 % 5.1 C
3902 23-02-2014 17:00:00 9.8 C 70 %